Darstellungsparameter: Aktuell verwendete Einstellungen:
Skalierung der Graphiken ... ?
xyx+y,   Skalierungsfaktor:      Skalierung: Modus: x, Faktor: 1
Darstellungszeitraum ... ?
Vom - - bis: - -   Zeitraum: 13.10.2008 - 02.11.2008
Min/Max/Avg-Anzeige ... ?
Zeige MMA aktuell
Zeige MMA Monat
Zeige MMA alles
Zeige --A aktuell
Zeige --A Monat
Zeige --A alles
Keine MMA-Anzeige
MMA:
Average (ber die Originaldaten)
MMA-Basis: 17.04.2019 - 19.05.2019
Quicknavigation für Darstellung... ?
Tage:      1T, 2T, 3T, 5T -1T -2T -3T -5T +1T +2T +3T +5T
Wochen: 1W, 2W, 3W -1W -2W -3W +1W +2W +3W
Monate: 1M, 3M, 6M -1M -3M -6M +1M +3M +6M
Jahre:    1J, 3J, 5J, 10J -1J -3J -5J -10J +1J +3J +5J +10J
Nutze für die Darstellung ... ?
Originaldaten oder Mittelwerte auf ...
Stundenbasis Tagesbasis Wochenbasis
Monatsbasis Jahresbasis      Datenbasis: Original-Daten
Darstellen als:
Statistik (Auto) Statistik J:M      Darstellung:
Zur Graphik,    zurück zur Übersicht aller Sensoren.
 
Tabellarische Datenbersicht: ?
 
Sensor: Nr:Datum:Temp:Abs-Feuchte:Windchill:Wind:
Aussen-T/F 1 13-10-2008 00:04:04 12.3 C 9.23 g/m*3 12.3 C 0 km/h
2 13-10-2008 00:09:04 12.2 C 9.17 g/m*3 12.2 C 0 km/h
3 13-10-2008 00:14:04 12.2 C 9.17 g/m*3 12.2 C 0 km/h
4 13-10-2008 00:19:04 12.1 C 9.12 g/m*3 12.1 C 0 km/h
5 13-10-2008 00:24:04 12 C 9.06 g/m*3 12 C 0 km/h
6 13-10-2008 00:29:04 12 C 9.06 g/m*3 12 C 0 km/h
7 13-10-2008 00:34:04 12 C 9.06 g/m*3 12 C 0 km/h
8 13-10-2008 00:39:04 12 C 9.06 g/m*3 12 C 0 km/h
9 13-10-2008 00:44:04 11.8 C 9.05 g/m*3 11.8 C 0 km/h
10 13-10-2008 00:49:04 11.8 C 9.05 g/m*3 11.8 C 0 km/h
11 13-10-2008 00:54:04 11.7 C 8.99 g/m*3 11.7 C 0 km/h
12 13-10-2008 00:59:05 11.6 C 8.94 g/m*3 11.6 C 0 km/h
13 13-10-2008 01:04:05 11.5 C 8.88 g/m*3 11.5 C 0 km/h
14 13-10-2008 01:09:05 11.5 C 8.88 g/m*3 11.5 C 0 km/h
15 13-10-2008 01:14:05 11.4 C 8.83 g/m*3 11.4 C 0 km/h
16 13-10-2008 01:19:05 11.4 C 8.83 g/m*3 11.4 C 0 km/h
17 13-10-2008 01:24:05 11.3 C 8.77 g/m*3 11.3 C 0 km/h
18 13-10-2008 01:29:05 11.2 C 8.72 g/m*3 11.2 C 0 km/h
19 13-10-2008 01:34:05 11.2 C 8.82 g/m*3 11.2 C 0 km/h
20 13-10-2008 01:39:05 11.2 C 8.82 g/m*3 11.2 C 0 km/h
21 13-10-2008 01:44:05 11.1 C 8.76 g/m*3 11.1 C 0 km/h
22 13-10-2008 01:49:05 11.2 C 8.82 g/m*3 11.2 C 0 km/h
23 13-10-2008 01:54:05 11.3 C 8.87 g/m*3 11.3 C 0 km/h
24 13-10-2008 01:59:05 11.3 C 8.87 g/m*3 11.3 C 0 km/h
25 13-10-2008 02:04:05 11.4 C 8.93 g/m*3 11.4 C 0 km/h
Sensor: Nr:Datum:Temp:Abs-Feuchte:Windchill:Wind:
Aussen-T/F 26 13-10-2008 02:09:05 11.4 C 8.93 g/m*3 11.4 C 0 km/h
27 13-10-2008 02:14:05 11.4 C 8.93 g/m*3 11.4 C 0 km/h
28 13-10-2008 02:19:05 11.5 C 8.99 g/m*3 11.5 C 0 km/h
29 13-10-2008 02:24:05 11.5 C 8.99 g/m*3 11.5 C 0 km/h
30 13-10-2008 02:29:05 11.5 C 8.88 g/m*3 11.5 C 0 km/h
31 13-10-2008 02:34:05 11.6 C 8.94 g/m*3 11.6 C 0 km/h
32 13-10-2008 02:39:06 11.6 C 8.94 g/m*3 11.6 C 0 km/h
33 13-10-2008 02:44:06 11.7 C 8.99 g/m*3 11.7 C 0 km/h
34 13-10-2008 02:49:06 11.7 C 8.99 g/m*3 11.7 C 0 km/h
35 13-10-2008 02:54:06 11.7 C 8.99 g/m*3 11.7 C 0 km/h
36 13-10-2008 02:59:06 11.7 C 8.99 g/m*3 11.7 C 0 km/h
37 13-10-2008 03:04:06 11.6 C 8.94 g/m*3 11.6 C 0 km/h
38 13-10-2008 03:09:06 11.6 C 8.94 g/m*3 11.6 C 0 km/h
39 13-10-2008 03:14:06 11.5 C 8.88 g/m*3 11.5 C 0 km/h
40 13-10-2008 03:19:06 11.5 C 8.88 g/m*3 11.5 C 0 km/h
41 13-10-2008 03:24:06 11.5 C 8.88 g/m*3 11.5 C 0 km/h
42 13-10-2008 03:29:06 11.5 C 8.88 g/m*3 11.5 C 0 km/h
43 13-10-2008 03:34:06 11.5 C 8.88 g/m*3 11.5 C 0 km/h
44 13-10-2008 03:39:06 11.5 C 8.88 g/m*3 11.5 C 0 km/h
45 13-10-2008 03:44:06 11.5 C 8.88 g/m*3 11.5 C 0 km/h
46 13-10-2008 03:49:06 11.4 C 8.83 g/m*3 11.4 C 0 km/h
47 13-10-2008 03:54:06 11.3 C 8.77 g/m*3 11.3 C 0 km/h
48 13-10-2008 03:59:06 11.3 C 8.77 g/m*3 11.3 C 0 km/h
49 13-10-2008 04:04:06 11.2 C 8.82 g/m*3 11.2 C 0 km/h
50 13-10-2008 04:09:06 11.2 C 8.82 g/m*3 11.2 C 0 km/h
Sensor: Nr:Datum:Temp:Abs-Feuchte:Windchill:Wind:
Aussen-T/F 51 13-10-2008 04:14:07 11.2 C 8.82 g/m*3 11.2 C 0 km/h
52 13-10-2008 04:19:07 11.2 C 8.82 g/m*3 11.2 C 0 km/h
53 13-10-2008 04:24:07 11.2 C 8.82 g/m*3 11.2 C 0 km/h
54 13-10-2008 04:29:07 11.2 C 8.82 g/m*3 11.2 C 0 km/h
55 13-10-2008 04:34:07 11.2 C 8.82 g/m*3 11.2 C 0 km/h
56 13-10-2008 04:39:07 11.2 C 8.82 g/m*3 11.2 C 0 km/h
57 13-10-2008 04:44:07 11.2 C 8.82 g/m*3 11.2 C 0 km/h
58 13-10-2008 04:49:07 11.2 C 8.82 g/m*3 11.2 C 0 km/h
59 13-10-2008 04:54:07 11.2 C 8.82 g/m*3 11.2 C 0 km/h
60 13-10-2008 04:59:07 11.1 C 8.76 g/m*3 11.1 C 0 km/h
61 13-10-2008 05:04:07 11.1 C 8.76 g/m*3 11.1 C 0 km/h
62 13-10-2008 05:09:07 11 C 8.71 g/m*3 11 C 0 km/h
63 13-10-2008 05:14:07 10.7 C 8.64 g/m*3 10.7 C 0 km/h
64 13-10-2008 05:19:07 10.6 C 8.59 g/m*3 10.6 C 0 km/h
65 13-10-2008 05:24:07 10.5 C 8.63 g/m*3 10.5 C 0 km/h
66 13-10-2008 05:29:07 10.6 C 8.69 g/m*3 10.6 C 0 km/h
67 13-10-2008 05:34:07 10.6 C 8.69 g/m*3 10.6 C 0 km/h
68 13-10-2008 05:39:07 10.6 C 8.78 g/m*3 10.6 C 0 km/h
69 13-10-2008 05:44:07 10.7 C 8.84 g/m*3 10.7 C 0 km/h
70 13-10-2008 05:49:08 10.7 C 8.84 g/m*3 10.7 C 0 km/h
71 13-10-2008 05:54:08 10.6 C 8.78 g/m*3 10.6 C 0 km/h
72 13-10-2008 05:59:08 10.6 C 8.78 g/m*3 10.6 C 0 km/h
73 13-10-2008 06:04:08 10.7 C 8.84 g/m*3 10.7 C 0 km/h
74 13-10-2008 06:09:08 10.7 C 8.84 g/m*3 10.7 C 0 km/h
75 13-10-2008 06:14:08 10.6 C 8.78 g/m*3 10.6 C 0 km/h
Sensor: Nr:Datum:Temp:Abs-Feuchte:Windchill:Wind:
Aussen-T/F 76 13-10-2008 06:19:08 10.6 C 8.78 g/m*3 10.6 C 0 km/h
77 13-10-2008 06:24:08 10.6 C 8.78 g/m*3 10.6 C 0 km/h
78 13-10-2008 06:29:08 10.5 C 8.73 g/m*3 10.5 C 0 km/h
79 13-10-2008 06:34:08 10.4 C 8.67 g/m*3 10.4 C 0 km/h
80 13-10-2008 06:39:08 10.6 C 8.78 g/m*3 10.6 C 0 km/h
81 13-10-2008 06:44:08 10.5 C 8.73 g/m*3 10.5 C 0 km/h
82 13-10-2008 06:49:08 10.5 C 8.73 g/m*3 10.5 C 0 km/h
83 13-10-2008 06:54:08 10.5 C 8.73 g/m*3 10.5 C 0 km/h
84 13-10-2008 06:59:08 10.4 C 8.67 g/m*3 10.4 C 0 km/h
85 13-10-2008 07:04:03 10.2 C 8.56 g/m*3 10.2 C 0 km/h
86 13-10-2008 07:09:03 10.1 C 8.51 g/m*3 10.1 C 0 km/h
87 13-10-2008 07:14:04 10.1 C 8.51 g/m*3 10.1 C 0 km/h
88 13-10-2008 07:19:03 10 C 8.55 g/m*3 10 C 0 km/h
89 13-10-2008 07:24:03 9.9 C 8.59 g/m*3 9.9 C 0 km/h
90 13-10-2008 07:29:03 10 C 8.55 g/m*3 10 C 0 km/h
91 13-10-2008 07:34:04 10 C 8.55 g/m*3 10 C 0 km/h
92 13-10-2008 07:39:04 10 C 8.55 g/m*3 10 C 0 km/h
93 13-10-2008 07:44:04 10 C 8.55 g/m*3 10 C 0 km/h
94 13-10-2008 07:49:03 10 C 8.55 g/m*3 10 C 0 km/h
95 13-10-2008 07:54:03 10 C 8.55 g/m*3 10 C 0 km/h
96 13-10-2008 07:59:03 10.1 C 8.61 g/m*3 10.1 C 0 km/h
97 13-10-2008 08:04:02 10.2 C 8.76 g/m*3 10.2 C 0 km/h
98 13-10-2008 08:09:02 10.1 C 8.61 g/m*3 10.1 C 0 km/h
99 13-10-2008 08:14:02 10.2 C 8.66 g/m*3 10.2 C 0 km/h
100 13-10-2008 08:19:02 10.2 C 8.66 g/m*3 10.2 C 0 km/h
Sensor: Nr:Datum:Temp:Abs-Feuchte:Windchill:Wind:
Aussen-T/F 101 13-10-2008 08:24:02 10.2 C 8.66 g/m*3 10.2 C 0 km/h
102 13-10-2008 08:29:02 10.2 C 8.66 g/m*3 10.2 C 0 km/h
103 13-10-2008 08:34:02 10.2 C 8.66 g/m*3 10.2 C 0 km/h
104 13-10-2008 08:39:02 10.2 C 8.66 g/m*3 10.2 C 0 km/h
105 13-10-2008 08:44:02 10.2 C 8.66 g/m*3 10.2 C 0 km/h
106 13-10-2008 08:49:02 10.2 C 8.66 g/m*3 10.2 C 0 km/h
107 13-10-2008 08:54:02 10.2 C 8.66 g/m*3 10.2 C 0 km/h
108 13-10-2008 08:59:02 10.2 C 8.66 g/m*3 10.2 C 0 km/h
109 13-10-2008 09:04:03 10.2 C 8.66 g/m*3 10.2 C 0 km/h
110 13-10-2008 09:09:04 10.1 C 8.61 g/m*3 10.1 C 0 km/h
111 13-10-2008 09:14:04 10.1 C 8.61 g/m*3 10.1 C 0 km/h
112 13-10-2008 09:19:02 10.2 C 8.66 g/m*3 10.2 C 0 km/h
113 13-10-2008 09:24:02 10.3 C 8.71 g/m*3 10.3 C 0 km/h
114 13-10-2008 09:29:02 10.4 C 8.77 g/m*3 10.4 C 0 km/h
115 13-10-2008 09:34:01 10.4 C 8.77 g/m*3 10.4 C 0 km/h
116 13-10-2008 09:39:01 10.5 C 8.73 g/m*3 10.5 C 0 km/h
117 13-10-2008 09:44:01 10.5 C 8.73 g/m*3 10.5 C 0 km/h
118 13-10-2008 09:49:02 10.7 C 8.84 g/m*3 10.7 C 0 km/h
119 13-10-2008 09:54:02 10.8 C 8.9 g/m*3 10.8 C 0 km/h
120 13-10-2008 09:59:02 11 C 8.91 g/m*3 11 C 0 km/h
121 13-10-2008 10:04:02 11.2 C 9.02 g/m*3 11.2 C 0 km/h
122 13-10-2008 10:09:02 11.4 C 9.14 g/m*3 11.4 C 0 km/h
123 13-10-2008 10:14:02 11.5 C 9.19 g/m*3 11.5 C 0 km/h
124 13-10-2008 10:19:02 11.6 C 9.15 g/m*3 11.6 C 0 km/h
125 13-10-2008 10:24:02 11.7 C 9.1 g/m*3 11.7 C 0 km/h
Sensor: Nr:Datum:Temp:Abs-Feuchte:Windchill:Wind:
Aussen-T/F 126 13-10-2008 10:29:02 11.9 C 9.11 g/m*3 11.9 C 0 km/h
127 13-10-2008 10:34:02 11.9 C 9 g/m*3 11.9 C 0 km/h
128 13-10-2008 10:39:02 12.4 C 9.07 g/m*3 12.4 C 0 km/h
129 13-10-2008 10:44:02 12.2 C 8.96 g/m*3 12.2 C 0 km/h
130 13-10-2008 10:49:02 12.3 C 8.9 g/m*3 12.3 C 0 km/h
131 13-10-2008 10:54:02 12.4 C 8.96 g/m*3 12.4 C 0 km/h
132 13-10-2008 10:59:02 12.8 C 9.07 g/m*3 12.8 C 0 km/h
133 13-10-2008 11:04:02 12.9 C 9.13 g/m*3 12.9 C 0 km/h
134 13-10-2008 11:09:02 13 C 8.96 g/m*3 13 C 0 km/h
135 13-10-2008 11:14:02 13.2 C 9.07 g/m*3 13.2 C 0 km/h
136 13-10-2008 11:19:02 13.3 C 9.13 g/m*3 13.3 C 0 km/h
137 13-10-2008 11:24:02 13.5 C 9.12 g/m*3 13.5 C 0 km/h
138 13-10-2008 11:29:02 13.6 C 9.06 g/m*3 13.6 C 0 km/h
139 13-10-2008 11:34:02 13.9 C 9.23 g/m*3 13.9 C 0 km/h
140 13-10-2008 11:39:02 14 C 9.17 g/m*3 14 C 0 km/h
141 13-10-2008 11:44:02 14.1 C 9.22 g/m*3 14.1 C 0 km/h
142 13-10-2008 11:49:02 14.2 C 9.28 g/m*3 14.2 C 0 km/h
143 13-10-2008 11:54:02 14.2 C 9.28 g/m*3 14.2 C 0 km/h
144 13-10-2008 11:59:02 14.4 C 9.52 g/m*3 14.4 C 0 km/h
145 13-10-2008 12:04:02 14.6 C 9.64 g/m*3 14.6 C 0 km/h
146 13-10-2008 12:09:02 14.7 C 9.69 g/m*3 14.7 C 0 km/h
147 13-10-2008 12:14:03 15.1 C 9.93 g/m*3 15.1 C 0 km/h
148 13-10-2008 12:19:01 15.5 C 9.91 g/m*3 15.5 C 0 km/h
149 13-10-2008 12:24:01 15.7 C 9.9 g/m*3 15.7 C 0 km/h
150 13-10-2008 12:29:01 15.8 C 9.83 g/m*3 15.8 C 0 km/h
Sensor: Nr:Datum:Temp:Abs-Feuchte:Windchill:Wind:
Aussen-T/F 151 13-10-2008 12:34:02 15.9 C 9.75 g/m*3 15.9 C 0 km/h
152 13-10-2008 12:39:02 16.2 C 9.79 g/m*3 16.2 C 0 km/h
153 13-10-2008 12:44:02 16.4 C 10.05 g/m*3 16.4 C 0 km/h
154 13-10-2008 12:49:02 16.6 C 10.03 g/m*3 16.6 C 0 km/h
155 13-10-2008 12:54:03 16.9 C 10.36 g/m*3 16.9 C 0 km/h
156 13-10-2008 12:59:03 17.1 C 10.34 g/m*3 17.1 C 0 km/h
157 13-10-2008 13:04:02 17.5 C 10.44 g/m*3 17.5 C 0 km/h
158 13-10-2008 13:09:02 17.7 C 10.11 g/m*3 17.7 C 0 km/h
159 13-10-2008 13:14:02 17.8 C 10.17 g/m*3 17.8 C 0 km/h
160 13-10-2008 13:19:02 18.2 C 10.1 g/m*3 18.2 C 0 km/h
161 13-10-2008 13:24:02 18.2 C 10.1 g/m*3 18.2 C 0 km/h
162 13-10-2008 13:29:02 18.2 C 10.1 g/m*3 18.2 C 0 km/h
163 13-10-2008 13:34:02 18.4 C 10.38 g/m*3 18.4 C 0 km/h
164 13-10-2008 13:39:02 18.6 C 10.66 g/m*3 18.6 C 0 km/h
165 13-10-2008 13:44:02 18.6 C 10.35 g/m*3 18.6 C 0 km/h
166 13-10-2008 13:49:02 18.7 C 10.41 g/m*3 18.7 C 0 km/h
167 13-10-2008 13:54:02 18.7 C 10.57 g/m*3 18.7 C 0 km/h
168 13-10-2008 13:59:02 18.6 C 10.03 g/m*3 18.6 C 0 km/h
169 13-10-2008 14:04:02 18.6 C 10.19 g/m*3 18.6 C 0 km/h
170 13-10-2008 14:09:02 18.8 C 9.99 g/m*3 18.8 C 0 km/h
171 13-10-2008 14:14:02 19 C 10.1 g/m*3 19 C 0 km/h
172 13-10-2008 14:19:02 19 C 9.78 g/m*3 19 C 0 km/h
173 13-10-2008 14:24:02 19.1 C 9.67 g/m*3 19.1 C 0 km/h
174 13-10-2008 14:29:02 19.1 C 9.51 g/m*3 19.1 C 0 km/h
175 13-10-2008 14:34:02 19.1 C 9.51 g/m*3 19.1 C 0 km/h
Sensor: Nr:Datum:Temp:Abs-Feuchte:Windchill:Wind:
Aussen-T/F 176 13-10-2008 14:39:02 19.2 C 9.56 g/m*3 19.2 C 0 km/h
177 13-10-2008 14:44:02 19.5 C 9.9 g/m*3 19.5 C 0 km/h
178 13-10-2008 14:49:02 19.8 C 9.74 g/m*3 19.8 C 0 km/h
179 13-10-2008 14:54:02 19.8 C 9.57 g/m*3 19.8 C 0 km/h
180 13-10-2008 14:59:02 20.1 C 9.21 g/m*3 20.1 C 0 km/h
181 13-10-2008 15:04:02 20.6 C 9.49 g/m*3 20.6 C 0 km/h
182 13-10-2008 15:09:02 20.9 C 9.65 g/m*3 20.9 C 0 km/h
183 13-10-2008 15:14:02 21.2 C 9.08 g/m*3 21.2 C 0 km/h
184 13-10-2008 15:19:02 21.3 C 8.95 g/m*3 21.3 C 0 km/h
185 13-10-2008 15:24:02 21.4 C 9.19 g/m*3 21.4 C 0 km/h
186 13-10-2008 15:29:02 21.6 C 8.91 g/m*3 21.6 C 0 km/h
187 13-10-2008 15:34:02 21.6 C 8.91 g/m*3 21.6 C 0 km/h
188 13-10-2008 15:39:02 21.5 C 8.86 g/m*3 21.5 C 0 km/h
189 13-10-2008 15:44:02 21.2 C 8.71 g/m*3 21.2 C 0 km/h
190 13-10-2008 15:49:02 21 C 8.98 g/m*3 21 C 0 km/h
191 13-10-2008 15:54:02 20.8 C 9.23 g/m*3 20.8 C 0 km/h
192 13-10-2008 15:59:02 20.7 C 9 g/m*3 20.7 C 0 km/h
193 13-10-2008 16:04:02 20.5 C 9.07 g/m*3 20.5 C 0 km/h
194 13-10-2008 16:09:02 20.3 C 8.97 g/m*3 20.3 C 0 km/h
195 13-10-2008 16:14:02 20.2 C 9.09 g/m*3 20.2 C 0 km/h
196 13-10-2008 16:19:02 20.2 C 9.09 g/m*3 20.2 C 0 km/h
197 13-10-2008 16:24:02 20.2 C 8.92 g/m*3 20.2 C 0 km/h
198 13-10-2008 16:29:02 20.2 C 9.09 g/m*3 20.2 C 0 km/h
199 13-10-2008 16:34:02 20.2 C 9.09 g/m*3 20.2 C 0 km/h
200 13-10-2008 16:39:02 20.2 C 9.09 g/m*3 20.2 C 0 km/h
Sensor: Nr:Datum:Temp:Abs-Feuchte:Windchill:Wind:
Aussen-T/F 201 13-10-2008 16:44:02 20 C 9.16 g/m*3 20 C 0 km/h
202 13-10-2008 16:49:02 19.9 C 9.28 g/m*3 19.9 C 0 km/h
203 13-10-2008 16:54:02 19.8 C 9.39 g/m*3 19.8 C 0 km/h
204 13-10-2008 16:59:02 19.7 C 9.68 g/m*3 19.7 C 0 km/h
205 13-10-2008 17:04:02 19.7 C 9.68 g/m*3 19.7 C 0 km/h
206 13-10-2008 17:09:02 19.7 C 9.68 g/m*3 19.7 C 0 km/h
207 13-10-2008 17:14:03 19.5 C 9.57 g/m*3 19.5 C 0 km/h
208 13-10-2008 17:19:02 19.4 C 9.68 g/m*3 19.4 C 0 km/h
209 13-10-2008 17:24:02 19.3 C 9.45 g/m*3 19.3 C 0 km/h
210 13-10-2008 17:29:02 19.1 C 9.34 g/m*3 19.1 C 0 km/h
211 13-10-2008 17:34:02 18.9 C 9.56 g/m*3 18.9 C 0 km/h
212 13-10-2008 17:39:02 18.9 C 9.23 g/m*3 18.9 C 0 km/h
213 13-10-2008 17:44:02 18.8 C 9.18 g/m*3 18.8 C 0 km/h
214 13-10-2008 17:49:02 18.8 C 9.18 g/m*3 18.8 C 0 km/h
215 13-10-2008 17:54:03 18.7 C 9.29 g/m*3 18.7 C 0 km/h
216 13-10-2008 17:59:03 18.5 C 9.18 g/m*3 18.5 C 0 km/h
217 13-10-2008 18:04:01 18.4 C 9.28 g/m*3 18.4 C 0 km/h
218 13-10-2008 18:09:01 18.3 C 9.07 g/m*3 18.3 C 0 km/h
219 13-10-2008 18:14:01 18.2 C 9.01 g/m*3 18.2 C 0 km/h
220 13-10-2008 18:19:02 18.2 C 9.17 g/m*3 18.2 C 0 km/h
221 13-10-2008 18:24:02 18.1 C 9.27 g/m*3 18.1 C 0 km/h
222 13-10-2008 18:29:02 17.9 C 9.16 g/m*3 17.9 C 0 km/h
223 13-10-2008 18:34:03 17.8 C 9.11 g/m*3 17.8 C 0 km/h
224 13-10-2008 18:39:04 17.7 C 9.05 g/m*3 17.7 C 0 km/h
225 13-10-2008 18:44:04 17.7 C 9.2 g/m*3 17.7 C 0 km/h
Sensor: Nr:Datum:Temp:Abs-Feuchte:Windchill:Wind:
Aussen-T/F 226 13-10-2008 18:49:02 17.6 C 9.15 g/m*3 17.6 C 0 km/h
227 13-10-2008 18:54:02 17.4 C 9.19 g/m*3 17.4 C 0 km/h
228 13-10-2008 18:59:02 17.4 C 9.19 g/m*3 17.4 C 0 km/h
229 13-10-2008 19:04:02 17.5 C 9.24 g/m*3 17.5 C 0 km/h
230 13-10-2008 19:09:02 17.6 C 9.3 g/m*3 17.6 C 0 km/h
231 13-10-2008 19:14:02 17.6 C 9.3 g/m*3 17.6 C 0 km/h
232 13-10-2008 19:19:02 17.5 C 9.39 g/m*3 17.5 C 0 km/h
233 13-10-2008 19:24:02 17.6 C 9.45 g/m*3 17.6 C 0 km/h
234 13-10-2008 19:29:03 17.5 C 9.54 g/m*3 17.5 C 0 km/h
235 13-10-2008 19:34:02 17.5 C 9.54 g/m*3 17.5 C 0 km/h
236 13-10-2008 19:39:02 17.2 C 9.67 g/m*3 17.2 C 0 km/h
237 13-10-2008 19:44:02 17 C 9.55 g/m*3 17 C 0 km/h
238 13-10-2008 19:49:03 17.1 C 9.75 g/m*3 17.1 C 0 km/h
239 13-10-2008 19:54:03 16.7 C 9.81 g/m*3 16.7 C 0 km/h
240 13-10-2008 19:59:03 16.5 C 9.83 g/m*3 16.5 C 0 km/h
241 13-10-2008 20:04:02 16.4 C 9.77 g/m*3 16.4 C 0 km/h
242 13-10-2008 20:09:02 16.3 C 9.85 g/m*3 16.3 C 0 km/h
243 13-10-2008 20:14:02 16.4 C 10.05 g/m*3 16.4 C 0 km/h
244 13-10-2008 20:19:02 16.3 C 9.99 g/m*3 16.3 C 0 km/h
245 13-10-2008 20:24:02 16.3 C 10.13 g/m*3 16.3 C 0 km/h
246 13-10-2008 20:29:02 16.3 C 10.13 g/m*3 16.3 C 0 km/h
247 13-10-2008 20:34:03 16.4 C 10.19 g/m*3 16.4 C 0 km/h
248 13-10-2008 20:39:03 16.4 C 10.19 g/m*3 16.4 C 0 km/h
249 13-10-2008 20:44:03 16.4 C 10.19 g/m*3 16.4 C 0 km/h
250 13-10-2008 20:49:02 16.4 C 10.19 g/m*3 16.4 C 0 km/h
Sensor: Nr:Datum:Temp:Abs-Feuchte:Windchill:Wind:
Aussen-T/F 251 13-10-2008 20:54:02 16.4 C 10.33 g/m*3 16.4 C 0 km/h
252 13-10-2008 20:59:02 16.4 C 10.19 g/m*3 16.4 C 0 km/h
253 13-10-2008 21:04:02 16.3 C 10.27 g/m*3 16.3 C 0 km/h
254 13-10-2008 21:09:02 16.2 C 10.2 g/m*3 16.2 C 0 km/h
255 13-10-2008 21:14:02 16.2 C 10.34 g/m*3 16.2 C 0 km/h
256 13-10-2008 21:19:02 16.1 C 10.28 g/m*3 16.1 C 0 km/h
257 13-10-2008 21:24:02 16 C 10.22 g/m*3 16 C 0 km/h
258 13-10-2008 21:29:02 16.1 C 10.28 g/m*3 16.1 C 0 km/h
259 13-10-2008 21:34:02 16 C 10.08 g/m*3 16 C 0 km/h
260 13-10-2008 21:39:02 15.8 C 10.1 g/m*3 15.8 C 0 km/h
261 13-10-2008 21:44:02 15.7 C 10.03 g/m*3 15.7 C 0 km/h
262 13-10-2008 21:50:03 15.5 C 10.05 g/m*3 15.5 C 0 km/h
263 13-10-2008 21:55:03 15.4 C 10.12 g/m*3 15.4 C 0 km/h
264 13-10-2008 22:00:03 15.3 C 10.06 g/m*3 15.3 C 0 km/h
265 13-10-2008 22:05:03 15.2 C 9.99 g/m*3 15.2 C 0 km/h
266 13-10-2008 22:10:03 15.2 C 10.12 g/m*3 15.2 C 0 km/h
267 13-10-2008 22:15:03 15.2 C 10.12 g/m*3 15.2 C 0 km/h
268 13-10-2008 22:20:03 15.1 C 10.19 g/m*3 15.1 C 0 km/h
269 13-10-2008 22:25:03 15.1 C 10.19 g/m*3 15.1 C 0 km/h
270 13-10-2008 22:30:03 15 C 10.13 g/m*3 15 C 0 km/h
271 13-10-2008 22:35:03 15 C 10.13 g/m*3 15 C 0 km/h
272 13-10-2008 22:40:03 15 C 10.13 g/m*3 15 C 0 km/h
273 13-10-2008 22:45:03 14.9 C 10.2 g/m*3 14.9 C 0 km/h
274 13-10-2008 22:50:03 14.8 C 10.13 g/m*3 14.8 C 0 km/h
275 13-10-2008 22:55:03 14.8 C 10.26 g/m*3 14.8 C 0 km/h
Sensor: Nr:Datum:Temp:Abs-Feuchte:Windchill:Wind:
Aussen-T/F 276 13-10-2008 23:00:03 14.7 C 10.32 g/m*3 14.7 C 0 km/h
277 13-10-2008 23:05:03 14.6 C 10.26 g/m*3 14.6 C 0 km/h
278 13-10-2008 23:10:04 14.5 C 10.2 g/m*3 14.5 C 0 km/h
279 13-10-2008 23:15:04 14.4 C 10.14 g/m*3 14.4 C 0 km/h
280 13-10-2008 23:20:04 14.4 C 10.14 g/m*3 14.4 C 0 km/h
281 13-10-2008 23:25:04 14.5 C 10.32 g/m*3 14.5 C 0 km/h
282 13-10-2008 23:30:04 14.6 C 10.51 g/m*3 14.6 C 0 km/h
283 13-10-2008 23:35:04 14.6 C 10.64 g/m*3 14.6 C 0 km/h
284 13-10-2008 23:40:04 14.8 C 10.77 g/m*3 14.8 C 0 km/h
285 13-10-2008 23:45:04 14.9 C 10.96 g/m*3 14.9 C 0 km/h
286 13-10-2008 23:50:04 14.8 C 10.77 g/m*3 14.8 C 0 km/h
287 13-10-2008 23:55:04 14.8 C 10.77 g/m*3 14.8 C 0 km/h
288 14-10-2008 00:00:04 14.8 C 10.64 g/m*3 14.8 C 0 km/h
289 14-10-2008 00:05:04 14.8 C 10.64 g/m*3 14.8 C 0 km/h
290 14-10-2008 00:10:04 14.9 C 10.71 g/m*3 14.9 C 0 km/h
291 14-10-2008 00:15:04 15 C 10.64 g/m*3 15 C 0 km/h
292 14-10-2008 00:20:04 14.8 C 10.51 g/m*3 14.8 C 0 km/h
293 14-10-2008 00:25:04 14.8 C 10.51 g/m*3 14.8 C 0 km/h
294 14-10-2008 00:30:04 14.8 C 10.64 g/m*3 14.8 C 0 km/h
295 14-10-2008 00:35:04 14.7 C 10.58 g/m*3 14.7 C 0 km/h
296 14-10-2008 00:40:04 14.6 C 10.51 g/m*3 14.6 C 0 km/h
297 14-10-2008 00:45:05 14.6 C 10.64 g/m*3 14.6 C 0 km/h
298 14-10-2008 00:50:05 14.5 C 10.45 g/m*3 14.5 C 0 km/h
299 14-10-2008 00:55:05 14.5 C 10.45 g/m*3 14.5 C 0 km/h
300 14-10-2008 01:00:05 14.5 C 10.57 g/m*3 14.5 C 0 km/h
Sensor: Nr:Datum:Temp:Abs-Feuchte:Windchill:Wind:
Aussen-T/F 301 14-10-2008 01:05:05 14.5 C 10.7 g/m*3 14.5 C 0 km/h
302 14-10-2008 01:10:05 14.8 C 10.89 g/m*3 14.8 C 0 km/h
303 14-10-2008 01:15:05 14.8 C 10.89 g/m*3 14.8 C 0 km/h
304 14-10-2008 01:20:05 14.9 C 10.96 g/m*3 14.9 C 0 km/h
305 14-10-2008 01:25:05 14.9 C 10.83 g/m*3 14.9 C 0 km/h
306 14-10-2008 01:30:05 15 C 10.77 g/m*3 15 C 0 km/h
307 14-10-2008 01:35:05 15 C 10.77 g/m*3 15 C 0 km/h
308 14-10-2008 01:40:05 15 C 10.77 g/m*3 15 C 0 km/h
309 14-10-2008 01:45:05 15 C 10.77 g/m*3 15 C 0 km/h
310 14-10-2008 01:50:05 15 C 10.77 g/m*3 15 C 0 km/h
311 14-10-2008 01:55:05 14.9 C 10.83 g/m*3 14.9 C 0 km/h
312 14-10-2008 02:00:05 14.9 C 10.83 g/m*3 14.9 C 0 km/h
313 14-10-2008 02:05:05 14.8 C 10.77 g/m*3 14.8 C 0 km/h
314 14-10-2008 02:10:05 14.9 C 10.83 g/m*3 14.9 C 0 km/h
315 14-10-2008 02:15:05 15 C 10.77 g/m*3 15 C 0 km/h
316 14-10-2008 02:20:05 15.1 C 10.97 g/m*3 15.1 C 0 km/h
317 14-10-2008 02:25:06 15.1 C 10.97 g/m*3 15.1 C 0 km/h
318 14-10-2008 02:30:06 15.2 C 10.9 g/m*3 15.2 C 0 km/h
319 14-10-2008 02:35:06 15.1 C 10.84 g/m*3 15.1 C 0 km/h
320 14-10-2008 02:40:06 15.1 C 10.84 g/m*3 15.1 C 0 km/h
321 14-10-2008 02:45:06 15.2 C 10.9 g/m*3 15.2 C 0 km/h
322 14-10-2008 02:50:06 15.3 C 10.97 g/m*3 15.3 C 0 km/h
323 14-10-2008 02:55:06 15.3 C 10.97 g/m*3 15.3 C 0 km/h
324 14-10-2008 03:00:06 15.4 C 11.04 g/m*3 15.4 C 0 km/h
325 14-10-2008 03:05:06 15.4 C 11.04 g/m*3 15.4 C 0 km/h
Sensor: Nr:Datum:Temp:Abs-Feuchte:Windchill:Wind:
Aussen-T/F 326 14-10-2008 03:10:06 15.4 C 11.04 g/m*3 15.4 C 0 km/h
327 14-10-2008 03:15:06 15.4 C 11.04 g/m*3 15.4 C 0 km/h
328 14-10-2008 03:20:06 15.4 C 11.04 g/m*3 15.4 C 0 km/h
329 14-10-2008 03:25:06 15.4 C 11.04 g/m*3 15.4 C 0 km/h
330 14-10-2008 03:30:06 15.4 C 11.04 g/m*3 15.4 C 0 km/h
331 14-10-2008 03:35:06 15.2 C 10.77 g/m*3 15.2 C 0 km/h
332 14-10-2008 03:40:06 15.1 C 10.71 g/m*3 15.1 C 0 km/h
333 14-10-2008 03:45:06 15.2 C 10.77 g/m*3 15.2 C 0 km/h
334 14-10-2008 03:50:06 15.2 C 10.9 g/m*3 15.2 C 0 km/h
335 14-10-2008 03:55:06 15.3 C 10.97 g/m*3 15.3 C 0 km/h
336 14-10-2008 04:00:07 15.3 C 10.97 g/m*3 15.3 C 0 km/h
337 14-10-2008 04:05:07 15.4 C 11.04 g/m*3 15.4 C 0 km/h
338 14-10-2008 04:10:07 15.4 C 11.04 g/m*3 15.4 C 0 km/h
339 14-10-2008 04:15:07 15.4 C 11.04 g/m*3 15.4 C 0 km/h
340 14-10-2008 04:20:07 15.3 C 10.97 g/m*3 15.3 C 0 km/h
341 14-10-2008 04:25:07 15.3 C 10.97 g/m*3 15.3 C 0 km/h
342 14-10-2008 04:30:07 15.2 C 10.9 g/m*3 15.2 C 0 km/h
343 14-10-2008 04:35:07 15.4 C 11.04 g/m*3 15.4 C 0 km/h
344 14-10-2008 04:40:07 15.4 C 11.04 g/m*3 15.4 C 0 km/h
345 14-10-2008 04:45:07 15.5 C 11.24 g/m*3 15.5 C 0 km/h
346 14-10-2008 04:50:07 15.5 C 11.24 g/m*3 15.5 C 0 km/h
347 14-10-2008 04:55:07 15.5 C 11.24 g/m*3 15.5 C 0 km/h
348 14-10-2008 05:00:07 15.3 C 10.97 g/m*3 15.3 C 0 km/h
349 14-10-2008 05:05:07 15.1 C 10.71 g/m*3 15.1 C 0 km/h
350 14-10-2008 05:10:07 15 C 10.64 g/m*3 15 C 0 km/h
Sensor: Nr:Datum:Temp:Abs-Feuchte:Windchill:Wind:
Aussen-T/F 351 14-10-2008 05:15:07 15 C 10.64 g/m*3 15 C 0 km/h
352 14-10-2008 05:20:07 14.9 C 10.71 g/m*3 14.9 C 0 km/h
353 14-10-2008 05:25:07 14.8 C 10.64 g/m*3 14.8 C 0 km/h
354 14-10-2008 05:30:07 14.8 C 10.64 g/m*3 14.8 C 0 km/h
355 14-10-2008 05:35:08 14.7 C 10.58 g/m*3 14.7 C 0 km/h
356 14-10-2008 05:40:08 14.7 C 10.58 g/m*3 14.7 C 0 km/h
357 14-10-2008 05:45:08 14.6 C 10.51 g/m*3 14.6 C 0 km/h
358 14-10-2008 05:50:08 14.6 C 10.51 g/m*3 14.6 C 0 km/h
359 14-10-2008 05:55:08 14.5 C 10.45 g/m*3 14.5 C 0 km/h
360 14-10-2008 06:00:08 14.5 C 10.45 g/m*3 14.5 C 0 km/h
361 14-10-2008 06:05:08 14.5 C 10.57 g/m*3 14.5 C 0 km/h
362 14-10-2008 06:10:08 14.4 C 10.51 g/m*3 14.4 C 0 km/h
363 14-10-2008 06:15:08 14.3 C 10.44 g/m*3 14.3 C 0 km/h
364 14-10-2008 06:20:08 14.4 C 10.51 g/m*3 14.4 C 0 km/h
365 14-10-2008 06:25:08 14.2 C 10.38 g/m*3 14.2 C 0 km/h
366 14-10-2008 06:30:08 14.2 C 10.5 g/m*3 14.2 C 0 km/h
367 14-10-2008 06:35:08 14.2 C 10.5 g/m*3 14.2 C 0 km/h
368 14-10-2008 06:40:08 14.3 C 10.57 g/m*3 14.3 C 0 km/h
369 14-10-2008 06:45:08 14.4 C 10.63 g/m*3 14.4 C 0 km/h
370 14-10-2008 06:50:08 14.3 C 10.57 g/m*3 14.3 C 0 km/h
371 14-10-2008 06:55:08 14.3 C 10.57 g/m*3 14.3 C 0 km/h
372 14-10-2008 07:00:08 14.5 C 10.7 g/m*3 14.5 C 0 km/h
373 14-10-2008 07:05:02 14.2 C 10.5 g/m*3 14.2 C 0 km/h
374 14-10-2008 07:10:02 14.2 C 10.62 g/m*3 14.2 C 0 km/h
375 14-10-2008 07:15:01 14.4 C 10.75 g/m*3 14.4 C 0 km/h
Sensor: Nr:Datum:Temp:Abs-Feuchte:Windchill:Wind:
Aussen-T/F 376 14-10-2008 07:20:01 14.2 C 10.5 g/m*3 14.2 C 0 km/h
377 14-10-2008 07:25:01 14.3 C 10.69 g/m*3 14.3 C 0 km/h
378 14-10-2008 07:30:01 14.5 C 10.82 g/m*3 14.5 C 0 km/h
379 14-10-2008 07:35:02 14.7 C 10.83 g/m*3 14.7 C 0 km/h
380 14-10-2008 07:40:02 14.7 C 10.83 g/m*3 14.7 C 0 km/h
381 14-10-2008 07:45:03 14.6 C 10.64 g/m*3 14.6 C 0 km/h
382 14-10-2008 07:50:03 14.4 C 10.38 g/m*3 14.4 C 0 km/h
383 14-10-2008 07:55:03 14.3 C 10.32 g/m*3 14.3 C 0 km/h
384 14-10-2008 08:00:03 14.1 C 10.07 g/m*3 14.1 C 0 km/h
385 14-10-2008 08:05:02 14 C 10.01 g/m*3 14 C 0 km/h
386 14-10-2008 08:10:02 14 C 9.89 g/m*3 14 C 0 km/h
387 14-10-2008 08:15:02 13.9 C 10.07 g/m*3 13.9 C 0 km/h
388 14-10-2008 08:20:02 13.7 C 9.95 g/m*3 13.7 C 0 km/h
389 14-10-2008 08:25:02 13.8 C 10.01 g/m*3 13.8 C 0 km/h
390 14-10-2008 08:30:02 13.8 C 10.01 g/m*3 13.8 C 0 km/h
391 14-10-2008 08:35:02 14 C 10.01 g/m*3 14 C 0 km/h
392 14-10-2008 08:40:03 14.1 C 10.07 g/m*3 14.1 C 0 km/h
393 14-10-2008 08:45:02 14.2 C 10.14 g/m*3 14.2 C 0 km/h
394 14-10-2008 08:50:02 14.2 C 10.14 g/m*3 14.2 C 0 km/h
395 14-10-2008 08:55:02 14.5 C 10.32 g/m*3 14.5 C 0 km/h
396 14-10-2008 09:00:02 14.5 C 10.32 g/m*3 14.5 C 0 km/h
397 14-10-2008 09:05:01 14.6 C 10.39 g/m*3 14.6 C 0 km/h
398 14-10-2008 09:10:01 14.7 C 10.45 g/m*3 14.7 C 0 km/h
399 14-10-2008 09:15:02 14.8 C 10.51 g/m*3 14.8 C 0 km/h
400 14-10-2008 09:20:03 14.9 C 10.58 g/m*3 14.9 C 0 km/h
Sensor: Nr:Datum:Temp:Abs-Feuchte:Windchill:Wind:
Aussen-T/F 401 14-10-2008 09:25:03 15 C 10.39 g/m*3 15 C 0 km/h
402 14-10-2008 09:30:03 15.1 C 9.93 g/m*3 15.1 C 0 km/h
403 14-10-2008 09:35:01 15.2 C 9.61 g/m*3 15.2 C 0 km/h
404 14-10-2008 09:40:01 15.4 C 9.46 g/m*3 15.4 C 0 km/h
405 14-10-2008 09:45:01 15.5 C 9.52 g/m*3 15.5 C 0 km/h
406 14-10-2008 09:50:01 15.6 C 9.44 g/m*3 15.6 C 0 km/h
407 14-10-2008 09:55:01 15.8 C 9.42 g/m*3 15.8 C 0 km/h
408 14-10-2008 10:00:01 15.9 C 9.21 g/m*3 15.9 C 0 km/h
409 14-10-2008 10:05:02 15.9 C 9.21 g/m*3 15.9 C 0 km/h
410 14-10-2008 10:10:02 16 C 9.26 g/m*3 16 C 0 km/h
411 14-10-2008 10:15:01 16.1 C 9.18 g/m*3 16.1 C 0 km/h
412 14-10-2008 10:20:01 16.3 C 9.16 g/m*3 16.3 C 0 km/h
413 14-10-2008 10:25:01 16.4 C 9.21 g/m*3 16.4 C 0 km/h
414 14-10-2008 10:30:01 16.7 C 9.24 g/m*3 16.7 C 0 km/h
415 14-10-2008 10:35:02 16.8 C 9.29 g/m*3 16.8 C 0 km/h
416 14-10-2008 10:40:02 16.8 C 9.15 g/m*3 16.8 C 0 km/h
417 14-10-2008 10:45:02 16.8 C 9.15 g/m*3 16.8 C 0 km/h
418 14-10-2008 10:50:02 16.7 C 9.1 g/m*3 16.7 C 0 km/h
419 14-10-2008 10:55:03 16.7 C 9.1 g/m*3 16.7 C 0 km/h
420 14-10-2008 11:00:03 16.7 C 9.1 g/m*3 16.7 C 0 km/h
421 14-10-2008 11:05:02 16.7 C 9.1 g/m*3 16.7 C 0 km/h
422 14-10-2008 11:10:02 16.8 C 9.15 g/m*3 16.8 C 0 km/h
423 14-10-2008 11:15:02 16.8 C 9.15 g/m*3 16.8 C 0 km/h
424 14-10-2008 11:20:02 16.9 C 9.21 g/m*3 16.9 C 0 km/h
425 14-10-2008 11:25:02 17 C 8.97 g/m*3 17 C 0 km/h
Sensor: Nr:Datum:Temp:Abs-Feuchte:Windchill:Wind:
Aussen-T/F 426 14-10-2008 11:30:02 17 C 8.97 g/m*3 17 C 0 km/h
427 14-10-2008 11:35:02 17.4 C 9.04 g/m*3 17.4 C 0 km/h
428 14-10-2008 11:40:02 17.6 C 9 g/m*3 17.6 C 0 km/h
429 14-10-2008 11:45:02 17.7 C 8.9 g/m*3 17.7 C 0 km/h
430 14-10-2008 11:50:02 18.1 C 8.96 g/m*3 18.1 C 0 km/h
431 14-10-2008 11:55:02 18.2 C 8.7 g/m*3 18.2 C 0 km/h
432 14-10-2008 12:00:02 18.1 C 8.65 g/m*3 18.1 C 0 km/h
433 14-10-2008 12:05:03 18.2 C 8.55 g/m*3 18.2 C 0 km/h
434 14-10-2008 12:10:03 18.4 C 8.49 g/m*3 18.4 C 0 km/h
435 14-10-2008 12:15:02 18.4 C 8.34 g/m*3 18.4 C 0 km/h
436 14-10-2008 12:20:02 18.5 C 8.23 g/m*3 18.5 C 0 km/h
437 14-10-2008 12:25:02 18.5 C 8.23 g/m*3 18.5 C 0 km/h
438 14-10-2008 12:30:02 18.7 C 8.01 g/m*3 18.7 C 0 km/h
439 14-10-2008 12:35:02 18.7 C 8.17 g/m*3 18.7 C 0 km/h
440 14-10-2008 12:40:02 18.5 C 7.59 g/m*3 18.5 C 0 km/h
441 14-10-2008 12:45:01 18.7 C 7.68 g/m*3 18.7 C 0 km/h
442 14-10-2008 12:50:01 18.7 C 8.01 g/m*3 18.7 C 0 km/h
443 14-10-2008 12:55:01 18.4 C 8.18 g/m*3 18.4 C 0 km/h
444 14-10-2008 13:00:01 18.1 C 8.19 g/m*3 18.1 C 0 km/h
445 14-10-2008 13:05:02 17.9 C 8.4 g/m*3 17.9 C 0 km/h
446 14-10-2008 13:10:02 17.7 C 8.45 g/m*3 17.7 C 0 km/h
447 14-10-2008 13:15:01 17.5 C 8.5 g/m*3 17.5 C 0 km/h
448 14-10-2008 13:20:01 17.3 C 8.54 g/m*3 17.3 C 0 km/h
449 14-10-2008 13:25:01 17.2 C 8.49 g/m*3 17.2 C 0 km/h
450 14-10-2008 13:30:01 17.2 C 8.64 g/m*3 17.2 C 0 km/h
Sensor: Nr:Datum:Temp:Abs-Feuchte:Windchill:Wind:
Aussen-T/F 451 14-10-2008 13:35:02 17.1 C 8.59 g/m*3 17.1 C 0 km/h
452 14-10-2008 13:40:02 17.1 C 8.59 g/m*3 17.1 C 0 km/h
453 14-10-2008 13:45:02 17.2 C 8.79 g/m*3 17.2 C 0 km/h
454 14-10-2008 13:50:02 17.2 C 8.79 g/m*3 17.2 C 0 km/h
455 14-10-2008 13:55:03 17.2 C 8.79 g/m*3 17.2 C 0 km/h
456 14-10-2008 14:00:03 17.2 C 8.79 g/m*3 17.2 C 0 km/h
457 14-10-2008 14:05:02 17.2 C 8.79 g/m*3 17.2 C 0 km/h
458 14-10-2008 14:10:02 17.2 C 8.79 g/m*3 17.2 C 0 km/h
459 14-10-2008 14:15:03 17.2 C 8.79 g/m*3 17.2 C 0 km/h
460 14-10-2008 14:20:03 17 C 8.54 g/m*3 17 C 0 km/h
461 14-10-2008 14:25:03 17.3 C 8.84 g/m*3 17.3 C 0 km/h
462 14-10-2008 14:30:03 17.3 C 8.69 g/m*3 17.3 C 0 km/h
463 14-10-2008 14:35:02 17.4 C 8.6 g/m*3 17.4 C 0 km/h
464 14-10-2008 14:40:02 17.6 C 8.55 g/m*3 17.6 C 0 km/h
465 14-10-2008 14:45:01 17.7 C 8.6 g/m*3 17.7 C 0 km/h
466 14-10-2008 14:50:01 17.8 C 8.35 g/m*3 17.8 C 0 km/h
467 14-10-2008 14:55:01 17.9 C 8.55 g/m*3 17.9 C 0 km/h
468 14-10-2008 15:00:01 17.9 C 8.4 g/m*3 17.9 C 0 km/h
469 14-10-2008 15:05:02 17.7 C 8.15 g/m*3 17.7 C 0 km/h
470 14-10-2008 15:10:03 17.6 C 8.25 g/m*3 17.6 C 0 km/h
471 14-10-2008 15:15:02 17.5 C 8.2 g/m*3 17.5 C 0 km/h
472 14-10-2008 15:20:02 17.5 C 8.2 g/m*3 17.5 C 0 km/h
473 14-10-2008 15:25:02 17.5 C 8.2 g/m*3 17.5 C 0 km/h
474 14-10-2008 15:30:02 17.4 C 8 g/m*3 17.4 C 0 km/h
475 14-10-2008 15:35:02 17.4 C 8 g/m*3 17.4 C 0 km/h
Sensor: Nr:Datum:Temp:Abs-Feuchte:Windchill:Wind:
Aussen-T/F 476 14-10-2008 15:40:02 17.5 C 8.05 g/m*3 17.5 C 0 km/h
477 14-10-2008 15:45:02 17.7 C 8 g/m*3 17.7 C 0 km/h
478 14-10-2008 15:50:02 17.8 C 8.04 g/m*3 17.8 C 0 km/h
479 14-10-2008 15:55:02 17.9 C 7.94 g/m*3 17.9 C 0 km/h
480 14-10-2008 16:00:02 18 C 7.83 g/m*3 18 C 0 km/h
481 14-10-2008 16:05:01 18 C 7.83 g/m*3 18 C 0 km/h
482 14-10-2008 16:10:01 18 C 7.68 g/m*3 18 C 0 km/h
483 14-10-2008 16:15:02 18 C 7.83 g/m*3 18 C 0 km/h
484 14-10-2008 16:20:02 18 C 7.68 g/m*3 18 C 0 km/h
485 14-10-2008 16:25:03 18 C 7.83 g/m*3 18 C 0 km/h
486 14-10-2008 16:30:03 18.3 C 7.97 g/m*3 18.3 C 0 km/h
487 14-10-2008 16:35:01 18.5 C 7.59 g/m*3 18.5 C 0 km/h
488 14-10-2008 16:40:01 18.8 C 7.57 g/m*3 18.8 C 0 km/h
489 14-10-2008 16:45:01 19.3 C 7.3 g/m*3 19.3 C 0 km/h
490 14-10-2008 16:50:01 19.5 C 7.22 g/m*3 19.5 C 0 km/h
491 14-10-2008 16:55:01 19.5 C 7.22 g/m*3 19.5 C 0 km/h
492 14-10-2008 17:00:01 19.4 C 7.17 g/m*3 19.4 C 0 km/h
493 14-10-2008 17:05:02 19.3 C 7.13 g/m*3 19.3 C 0 km/h
494 14-10-2008 17:10:02 19.1 C 7.21 g/m*3 19.1 C 0 km/h
495 14-10-2008 17:15:01 18.8 C 7.41 g/m*3 18.8 C 0 km/h
496 14-10-2008 17:20:01 18.5 C 7.12 g/m*3 18.5 C 0 km/h
497 14-10-2008 17:25:01 18.2 C 7.15 g/m*3 18.2 C 0 km/h
498 14-10-2008 17:30:01 18.1 C 7.26 g/m*3 18.1 C 0 km/h
499 14-10-2008 17:35:01 17.9 C 7.33 g/m*3 17.9 C 0 km/h
500 14-10-2008 17:40:01 17.5 C 7.45 g/m*3 17.5 C 0 km/h
Sensor: Nr:Datum:Temp:Abs-Feuchte:Windchill:Wind:
Aussen-T/F 501 14-10-2008 17:45:03 17.3 C 7.51 g/m*3 17.3 C 0 km/h
502 14-10-2008 17:50:03 17 C 7.67 g/m*3 17 C 0 km/h
503 14-10-2008 17:55:03 17.1 C 7.71 g/m*3 17.1 C 0 km/h
504 14-10-2008 18:00:03 16.8 C 7.72 g/m*3 16.8 C 0 km/h
505 14-10-2008 18:05:02 16.5 C 7.72 g/m*3 16.5 C 0 km/h
506 14-10-2008 18:10:02 16.2 C 7.72 g/m*3 16.2 C 0 km/h
507 14-10-2008 18:15:02 15.8 C 7.81 g/m*3 15.8 C 0 km/h
508 14-10-2008 18:20:02 15.7 C 7.89 g/m*3 15.7 C 0 km/h
509 14-10-2008 18:25:02 15.6 C 7.85 g/m*3 15.6 C 0 km/h
510 14-10-2008 18:30:02 15.5 C 8.06 g/m*3 15.5 C 0 km/h
511 14-10-2008 18:35:02 15.4 C 8.01 g/m*3 15.4 C 0 km/h
512 14-10-2008 18:40:03 15.3 C 8.1 g/m*3 15.3 C 0 km/h
513 14-10-2008 18:45:02 15.2 C 8.18 g/m*3 15.2 C 0 km/h
514 14-10-2008 18:50:02 15.2 C 8.18 g/m*3 15.2 C 0 km/h
515 14-10-2008 18:55:02 15.2 C 8.18 g/m*3 15.2 C 0 km/h
516 14-10-2008 19:00:02 15.2 C 8.31 g/m*3 15.2 C 0 km/h
517 14-10-2008 19:05:02 15.1 C 8.13 g/m*3 15.1 C 0 km/h
518 14-10-2008 19:10:02 15.1 C 8.13 g/m*3 15.1 C 0 km/h
519 14-10-2008 19:15:02 15 C 8.08 g/m*3 15 C 0 km/h
520 14-10-2008 19:20:02 15 C 8.08 g/m*3 15 C 0 km/h
521 14-10-2008 19:25:03 14.9 C 8.16 g/m*3 14.9 C 0 km/h
522 14-10-2008 19:30:03 14.8 C 8.23 g/m*3 14.8 C 0 km/h
523 14-10-2008 19:35:02 14.8 C 8.23 g/m*3 14.8 C 0 km/h
524 14-10-2008 19:40:02 14.8 C 8.23 g/m*3 14.8 C 0 km/h
525 14-10-2008 19:45:01 14.8 C 8.23 g/m*3 14.8 C 0 km/h
Sensor: Nr:Datum:Temp:Abs-Feuchte:Windchill:Wind:
Aussen-T/F 526 14-10-2008 19:50:01 14.8 C 8.36 g/m*3 14.8 C 0 km/h
527 14-10-2008 19:55:01 14.8 C 8.23 g/m*3 14.8 C 0 km/h
528 14-10-2008 20:00:01 14.7 C 8.31 g/m*3 14.7 C 0 km/h
529 14-10-2008 20:05:02 14.7 C 8.31 g/m*3 14.7 C 0 km/h
530 14-10-2008 20:10:02 14.6 C 8.26 g/m*3 14.6 C 0 km/h
531 14-10-2008 20:15:02 14.7 C 8.31 g/m*3 14.7 C 0 km/h
532 14-10-2008 20:20:02 14.6 C 8.38 g/m*3 14.6 C 0 km/h
533 14-10-2008 20:25:02 14.6 C 8.38 g/m*3 14.6 C 0 km/h
534 14-10-2008 20:30:02 14.6 C 8.38 g/m*3 14.6 C 0 km/h
535 14-10-2008 20:35:02 14.6 C 8.26 g/m*3 14.6 C 0 km/h
536 14-10-2008 20:40:02 14.7 C 8.44 g/m*3 14.7 C 0 km/h
537 14-10-2008 20:45:01 14.7 C 8.44 g/m*3 14.7 C 0 km/h
538 14-10-2008 20:50:01 14.6 C 8.38 g/m*3 14.6 C 0 km/h
539 14-10-2008 20:55:02 14.6 C 8.38 g/m*3 14.6 C 0 km/h
540 14-10-2008 21:00:02 14.5 C 8.33 g/m*3 14.5 C 0 km/h
541 14-10-2008 21:05:01 14.5 C 8.33 g/m*3 14.5 C 0 km/h
542 14-10-2008 21:10:01 14.6 C 8.51 g/m*3 14.6 C 0 km/h
543 14-10-2008 21:15:02 14.4 C 8.28 g/m*3 14.4 C 0 km/h
544 14-10-2008 21:20:02 14.3 C 8.23 g/m*3 14.3 C 0 km/h
545 14-10-2008 21:25:02 14.2 C 8.18 g/m*3 14.2 C 0 km/h
546 14-10-2008 21:30:02 14.2 C 8.18 g/m*3 14.2 C 0 km/h
547 14-10-2008 21:35:01 14.2 C 8.18 g/m*3 14.2 C 0 km/h
548 14-10-2008 21:40:01 14.2 C 8.06 g/m*3 14.2 C 0 km/h
549 14-10-2008 21:45:01 14 C 7.96 g/m*3 14 C 0 km/h
550 14-10-2008 21:50:01 14 C 7.96 g/m*3 14 C 0 km/h
Sensor: Nr:Datum:Temp:Abs-Feuchte:Windchill:Wind:
Aussen-T/F 551 14-10-2008 21:55:01 14 C 7.96 g/m*3 14 C 0 km/h
552 14-10-2008 22:00:01 14 C 7.96 g/m*3 14 C 0 km/h
553 14-10-2008 22:06:03 14.1 C 8.13 g/m*3 14.1 C 0 km/h
554 14-10-2008 22:11:03 14 C 8.2 g/m*3 14 C 0 km/h
555 14-10-2008 22:16:03 13.9 C 8.39 g/m*3 13.9 C 0 km/h
556 14-10-2008 22:21:03 13.6 C 8.36 g/m*3 13.6 C 0 km/h
557 14-10-2008 22:26:03 13.6 C 8.36 g/m*3 13.6 C 0 km/h
558 14-10-2008 22:31:03 13.4 C 8.37 g/m*3 13.4 C 0 km/h
559 14-10-2008 22:36:03 13.4 C 8.37 g/m*3 13.4 C 0 km/h
560 14-10-2008 22:41:03 13.4 C 8.37 g/m*3 13.4 C 0 km/h
561 14-10-2008 22:46:03 13.4 C 8.37 g/m*3 13.4 C 0 km/h
562 14-10-2008 22:51:03 13.2 C 8.27 g/m*3 13.2 C 0 km/h
563 14-10-2008 22:56:03 13.2 C 8.15 g/m*3 13.2 C 0 km/h
564 14-10-2008 23:01:03 13.1 C 8.22 g/m*3 13.1 C 0 km/h
565 14-10-2008 23:06:03 12.9 C 8.34 g/m*3 12.9 C 0 km/h
566 14-10-2008 23:11:03 12.9 C 8.34 g/m*3 12.9 C 0 km/h
567 14-10-2008 23:16:03 12.8 C 8.4 g/m*3 12.8 C 0 km/h
568 14-10-2008 23:21:03 12.8 C 8.4 g/m*3 12.8 C 0 km/h
569 14-10-2008 23:26:04 12.8 C 8.51 g/m*3 12.8 C 0 km/h
570 14-10-2008 23:31:04 12.9 C 8.57 g/m*3 12.9 C 0 km/h
571 14-10-2008 23:36:04 12.8 C 8.51 g/m*3 12.8 C 0 km/h
572 14-10-2008 23:41:04 12.7 C 8.35 g/m*3 12.7 C 0 km/h
573 14-10-2008 23:46:04 12.7 C 8.35 g/m*3 12.7 C 0 km/h
574 14-10-2008 23:51:04 12.6 C 8.41 g/m*3 12.6 C 0 km/h
575 14-10-2008 23:56:04 12.5 C 8.36 g/m*3 12.5 C 0 km/h
Sensor: Nr:Datum:Temp:Abs-Feuchte:Windchill:Wind:
Aussen-T/F 576 15-10-2008 00:01:04 12.5 C 8.47 g/m*3 12.5 C 0 km/h
577 15-10-2008 00:06:04 12.4 C 8.41 g/m*3 12.4 C 0 km/h
578 15-10-2008 00:11:04 12.5 C 8.47 g/m*3 12.5 C 0 km/h
579 15-10-2008 00:16:04 12.5 C 8.47 g/m*3 12.5 C 0 km/h
580 15-10-2008 00:21:04 12.5 C 8.47 g/m*3 12.5 C 0 km/h
581 15-10-2008 00:26:04 12.5 C 8.47 g/m*3 12.5 C 0 km/h
582 15-10-2008 00:31:04 12.4 C 8.41 g/m*3 12.4 C 0 km/h
583 15-10-2008 00:36:04 12.4 C 8.41 g/m*3 12.4 C 0 km/h
584 15-10-2008 00:41:04 12.4 C 8.41 g/m*3 12.4 C 0 km/h
585 15-10-2008 00:46:04 12.4 C 8.41 g/m*3 12.4 C 0 km/h
586 15-10-2008 00:51:04 12.4 C 8.41 g/m*3 12.4 C 0 km/h
587 15-10-2008 00:56:04 12.3 C 8.36 g/m*3 12.3 C 0 km/h
588 15-10-2008 01:01:04 12.3 C 8.47 g/m*3 12.3 C 0 km/h
589 15-10-2008 01:06:05 12.2 C 8.42 g/m*3 12.2 C 0 km/h
590 15-10-2008 01:11:05 12.2 C 8.42 g/m*3 12.2 C 0 km/h
591 15-10-2008 01:16:05 12.1 C 8.36 g/m*3 12.1 C 0 km/h
592 15-10-2008 01:21:05 12.1 C 8.36 g/m*3 12.1 C 0 km/h
593 15-10-2008 01:26:05 12.1 C 8.47 g/m*3 12.1 C 0 km/h
594 15-10-2008 01:31:05 12 C 8.42 g/m*3 12 C 0 km/h
595 15-10-2008 01:36:05 12 C 8.42 g/m*3 12 C 0 km/h
596 15-10-2008 01:41:05 12.1 C 8.47 g/m*3 12.1 C 0 km/h
597 15-10-2008 01:46:05 12.1 C 8.47 g/m*3 12.1 C 0 km/h
598 15-10-2008 01:51:05 12.1 C 8.47 g/m*3 12.1 C 0 km/h
599 15-10-2008 01:56:05 12.1 C 8.47 g/m*3 12.1 C 0 km/h
600 15-10-2008 02:01:05 12.1 C 8.47 g/m*3 12.1 C 0 km/h
Sensor: Nr:Datum:Temp:Abs-Feuchte:Windchill:Wind:
Aussen-T/F 601 15-10-2008 02:06:05 12.1 C 8.36 g/m*3 12.1 C 0 km/h
602 15-10-2008 02:11:05 11.8 C 8.31 g/m*3 11.8 C 0 km/h
603 15-10-2008 02:16:05 11.9 C 8.37 g/m*3 11.9 C 0 km/h
604 15-10-2008 02:21:05 11.8 C 8.31 g/m*3 11.8 C 0 km/h
605 15-10-2008 02:26:05 11.9 C 8.37 g/m*3 11.9 C 0 km/h
606 15-10-2008 02:31:05 11.9 C 8.37 g/m*3 11.9 C 0 km/h
607 15-10-2008 02:36:05 11.9 C 8.37 g/m*3 11.9 C 0 km/h
608 15-10-2008 02:41:06 11.9 C 8.37 g/m*3 11.9 C 0 km/h
609 15-10-2008 02:46:06 11.8 C 8.31 g/m*3 11.8 C 0 km/h
610 15-10-2008 02:51:06 11.7 C 8.26 g/m*3 11.7 C 0 km/h
611 15-10-2008 02:56:06 11.6 C 8.21 g/m*3 11.6 C 0 km/h
612 15-10-2008 03:01:06 11.5 C 8.16 g/m*3 11.5 C 0 km/h
613 15-10-2008 03:06:06 11.5 C 8.16 g/m*3 11.5 C 0 km/h
614 15-10-2008 03:11:06 11.5 C 8.26 g/m*3 11.5 C 0 km/h
615 15-10-2008 03:16:06 11.5 C 8.26 g/m*3 11.5 C 0 km/h
616 15-10-2008 03:21:06 11.5 C 8.26 g/m*3 11.5 C 0 km/h
617 15-10-2008 03:26:06 11.5 C 8.26 g/m*3 11.5 C 0 km/h
618 15-10-2008 03:31:06 11.5 C 8.26 g/m*3 11.5 C 0 km/h
619 15-10-2008 03:36:06 11.5 C 8.26 g/m*3 11.5 C 0 km/h
620 15-10-2008 03:41:06 11.5 C 8.26 g/m*3 11.5 C 0 km/h
621 15-10-2008 03:46:06 11.5 C 8.26 g/m*3 11.5 C 0 km/h
622 15-10-2008 03:51:06 11.5 C 8.16 g/m*3 11.5 C 0 km/h
623 15-10-2008 03:56:06 11.4 C 8.21 g/m*3 11.4 C 0 km/h
624 15-10-2008 04:01:06 11.3 C 8.16 g/m*3 11.3 C 0 km/h
625 15-10-2008 04:06:06 11.3 C 8.26 g/m*3 11.3 C 0 km/h
Sensor: Nr:Datum:Temp:Abs-Feuchte:Windchill:Wind:
Aussen-T/F 626 15-10-2008 04:11:06 11.4 C 8.31 g/m*3 11.4 C 0 km/h
627 15-10-2008 04:16:06 11.4 C 8.31 g/m*3 11.4 C 0 km/h
628 15-10-2008 04:21:07 11.4 C 8.21 g/m*3 11.4 C 0 km/h
629 15-10-2008 04:26:07 11.4 C 8.21 g/m*3 11.4 C 0 km/h
630 15-10-2008 04:31:07 11.4 C 8.21 g/m*3 11.4 C 0 km/h
631 15-10-2008 04:36:07 11.4 C 8.21 g/m*3 11.4 C 0 km/h
632 15-10-2008 04:41:07 11.4 C 8.21 g/m*3 11.4 C 0 km/h
633 15-10-2008 04:46:07 11.4 C 8.21 g/m*3 11.4 C 0 km/h
634 15-10-2008 04:51:07 11.5 C 8.26 g/m*3 11.5 C 0 km/h
635 15-10-2008 04:56:07 11.5 C 8.26 g/m*3 11.5 C 0 km/h
636 15-10-2008 05:01:07 11.5 C 8.26 g/m*3 11.5 C 0 km/h
637 15-10-2008 05:06:07 11.4 C 8.21 g/m*3 11.4 C 0 km/h
638 15-10-2008 05:11:07 11.5 C 8.26 g/m*3 11.5 C 0 km/h
639 15-10-2008 05:16:07 11.5 C 8.26 g/m*3 11.5 C 0 km/h
640 15-10-2008 05:21:07 11.5 C 8.26 g/m*3 11.5 C 0 km/h
641 15-10-2008 05:26:07 11.5 C 8.16 g/m*3 11.5 C 0 km/h
642 15-10-2008 05:31:07 11.5 C 8.16 g/m*3 11.5 C 0 km/h
643 15-10-2008 05:36:07 11.5 C 8.16 g/m*3 11.5 C 0 km/h
644 15-10-2008 05:41:07 11.5 C 8.16 g/m*3 11.5 C 0 km/h
645 15-10-2008 05:46:07 11.4 C 8.11 g/m*3 11.4 C 0 km/h
646 15-10-2008 05:51:07 11.4 C 8.21 g/m*3 11.4 C 0 km/h
647 15-10-2008 05:56:07 11.4 C 8.21 g/m*3 11.4 C 0 km/h
648 15-10-2008 06:01:02 11.4 C 8.11 g/m*3 11.4 C 0 km/h
649 15-10-2008 06:06:02 11.3 C 8.06 g/m*3 11.3 C 0 km/h
650 15-10-2008 06:11:02 11.3 C 8.16 g/m*3 11.3 C 0 km/h
Sensor: Nr:Datum:Temp:Abs-Feuchte:Windchill:Wind:
Aussen-T/F 651 15-10-2008 06:16:03 11.2 C 8.21 g/m*3 11.2 C 0 km/h
652 15-10-2008 06:21:03 11.2 C 8.21 g/m*3 11.2 C 0 km/h
653 15-10-2008 06:26:04 11.2 C 8.21 g/m*3 11.2 C 0 km/h
654 15-10-2008 06:31:03 11.2 C 8.21 g/m*3 11.2 C 0 km/h
655 15-10-2008 06:36:03 11.2 C 8.21 g/m*3 11.2 C 0 km/h
656 15-10-2008 06:41:03 11.2 C 8.21 g/m*3 11.2 C 0 km/h
657 15-10-2008 06:46:02 11.2 C 8.21 g/m*3 11.2 C 0 km/h
658 15-10-2008 06:51:02 11.2 C 8.21 g/m*3 11.2 C 0 km/h
659 15-10-2008 06:56:02 11.1 C 8.16 g/m*3 11.1 C 0 km/h
660 15-10-2008 07:01:02 11.1 C 8.16 g/m*3 11.1 C 0 km/h
661 15-10-2008 07:06:02 11.1 C 8.16 g/m*3 11.1 C 0 km/h
662 15-10-2008 07:11:02 11 C 8.21 g/m*3 11 C 0 km/h
663 15-10-2008 07:16:01 11 C 8.21 g/m*3 11 C 0 km/h
664 15-10-2008 07:21:01 11 C 8.21 g/m*3 11 C 0 km/h
665 15-10-2008 07:26:02 11.1 C 8.26 g/m*3 11.1 C 0 km/h
666 15-10-2008 07:31:01 11.1 C 8.26 g/m*3 11.1 C 0 km/h
667 15-10-2008 07:36:01 11.2 C 8.31 g/m*3 11.2 C 0 km/h
668 15-10-2008 07:41:01 11.2 C 8.21 g/m*3 11.2 C 0 km/h
669 15-10-2008 07:46:01 11.3 C 8.26 g/m*3 11.3 C 0 km/h
670 15-10-2008 07:51:01 11.4 C 8.31 g/m*3 11.4 C 0 km/h
671 15-10-2008 07:56:01 11.4 C 8.31 g/m*3 11.4 C 0 km/h
672 15-10-2008 08:01:02 11.4 C 8.31 g/m*3 11.4 C 0 km/h
673 15-10-2008 08:06:02 11.3 C 8.26 g/m*3 11.3 C 0 km/h
674 15-10-2008 08:11:02 11.3 C 8.36 g/m*3 11.3 C 0 km/h
675 15-10-2008 08:16:01 11.3 C 8.36 g/m*3 11.3 C 0 km/h
Sensor: Nr:Datum:Temp:Abs-Feuchte:Windchill:Wind:
Aussen-T/F 676 15-10-2008 08:21:01 11.3 C 8.36 g/m*3 11.3 C 0 km/h
677 15-10-2008 08:26:01 11.3 C 8.36 g/m*3 11.3 C 0 km/h
678 15-10-2008 08:31:02 11.4 C 8.42 g/m*3 11.4 C 0 km/h
679 15-10-2008 08:36:02 11.5 C 8.47 g/m*3 11.5 C 0 km/h
680 15-10-2008 08:41:02 11.6 C 8.52 g/m*3 11.6 C 0 km/h
681 15-10-2008 08:46:03 11.7 C 8.58 g/m*3 11.7 C 0 km/h
682 15-10-2008 08:51:03 11.7 C 8.58 g/m*3 11.7 C 0 km/h
683 15-10-2008 08:56:03 11.8 C 8.63 g/m*3 11.8 C 0 km/h
684 15-10-2008 09:01:02 11.9 C 8.68 g/m*3 11.9 C 0 km/h
685 15-10-2008 09:06:02 12.2 C 8.74 g/m*3 12.2 C 0 km/h
686 15-10-2008 09:11:02 12.2 C 8.74 g/m*3 12.2 C 0 km/h
687 15-10-2008 09:16:02 12.2 C 8.63 g/m*3 12.2 C 0 km/h
688 15-10-2008 09:21:02 12.2 C 8.52 g/m*3 12.2 C 0 km/h
689 15-10-2008 09:26:02 12.2 C 8.52 g/m*3 12.2 C 0 km/h
690 15-10-2008 09:31:02 12.3 C 8.58 g/m*3 12.3 C 0 km/h
691 15-10-2008 09:36:02 12.4 C 8.63 g/m*3 12.4 C 0 km/h
692 15-10-2008 09:41:02 12.4 C 8.63 g/m*3 12.4 C 0 km/h
693 15-10-2008 09:46:02 12.5 C 8.58 g/m*3 12.5 C 0 km/h
694 15-10-2008 09:51:02 12.5 C 8.58 g/m*3 12.5 C 0 km/h
695 15-10-2008 09:56:03 12.5 C 8.58 g/m*3 12.5 C 0 km/h
696 15-10-2008 10:01:01 12.5 C 8.58 g/m*3 12.5 C 0 km/h
697 15-10-2008 10:06:01 12.6 C 8.63 g/m*3 12.6 C 0 km/h
698 15-10-2008 10:11:01 12.7 C 8.68 g/m*3 12.7 C 0 km/h
699 15-10-2008 10:16:02 12.7 C 8.68 g/m*3 12.7 C 0 km/h
700 15-10-2008 10:21:02 12.8 C 8.74 g/m*3 12.8 C 0 km/h
Sensor: Nr:Datum:Temp:Abs-Feuchte:Windchill:Wind:
Aussen-T/F 701 15-10-2008 10:26:02 12.9 C 8.79 g/m*3 12.9 C 0 km/h
702 15-10-2008 10:31:01 13 C 8.73 g/m*3 13 C 0 km/h
703 15-10-2008 10:36:01 13.2 C 8.84 g/m*3 13.2 C 0 km/h
704 15-10-2008 10:41:01 13.3 C 8.78 g/m*3 13.3 C 0 km/h
705 15-10-2008 10:46:02 13.4 C 8.83 g/m*3 13.4 C 0 km/h
706 15-10-2008 10:51:02 13.5 C 8.89 g/m*3 13.5 C 0 km/h
707 15-10-2008 10:56:02 13.8 C 9.06 g/m*3 13.8 C 0 km/h
708 15-10-2008 11:01:02 13.9 C 9.11 g/m*3 13.9 C 0 km/h
709 15-10-2008 11:06:02 13.9 C 9.11 g/m*3 13.9 C 0 km/h
710 15-10-2008 11:11:02 14.1 C 9.1 g/m*3 14.1 C 0 km/h
711 15-10-2008 11:16:02 14.3 C 9.09 g/m*3 14.3 C 0 km/h
712 15-10-2008 11:21:02 14.4 C 9.15 g/m*3 14.4 C 0 km/h
713 15-10-2008 11:26:02 14.6 C 9.13 g/m*3 14.6 C 0 km/h
714 15-10-2008 11:31:02 14.8 C 9.12 g/m*3 14.8 C 0 km/h
715 15-10-2008 11:36:02 14.9 C 9.18 g/m*3 14.9 C 0 km/h
716 15-10-2008 11:41:02 15.1 C 9.03 g/m*3 15.1 C 0 km/h
717 15-10-2008 11:46:02 15.2 C 8.96 g/m*3 15.2 C 0 km/h
718 15-10-2008 11:51:02 15.1 C 8.9 g/m*3 15.1 C 0 km/h
719 15-10-2008 11:56:02 15.1 C 8.9 g/m*3 15.1 C 0 km/h
720 15-10-2008 12:01:01 15 C 8.85 g/m*3 15 C 0 km/h
721 15-10-2008 12:06:01 15 C 8.98 g/m*3 15 C 0 km/h
722 15-10-2008 12:11:01 15 C 8.85 g/m*3 15 C 0 km/h
723 15-10-2008 12:16:01 15 C 8.98 g/m*3 15 C 0 km/h
724 15-10-2008 12:21:01 15 C 8.98 g/m*3 15 C 0 km/h
725 15-10-2008 12:26:01 15 C 8.98 g/m*3 15 C 0 km/h
Sensor: Nr:Datum:Temp:Abs-Feuchte:Windchill:Wind:
Aussen-T/F 726 15-10-2008 12:31:02 14.9 C 9.05 g/m*3 14.9 C 0 km/h
727 15-10-2008 12:36:02 14.9 C 9.05 g/m*3 14.9 C 0 km/h
728 15-10-2008 12:41:03 14.9 C 9.18 g/m*3 14.9 C 0 km/h
729 15-10-2008 12:46:02 14.8 C 9.12 g/m*3 14.8 C 0 km/h
730 15-10-2008 12:51:02 14.7 C 9.19 g/m*3 14.7 C 0 km/h
731 15-10-2008 12:56:02 14.7 C 9.32 g/m*3 14.7 C 0 km/h
732 15-10-2008 13:01:02 14.7 C 9.19 g/m*3 14.7 C 0 km/h
733 15-10-2008 13:06:02 14.8 C 9.25 g/m*3 14.8 C 0 km/h
734 15-10-2008 13:11:02 15 C 9.1 g/m*3 15 C 0 km/h
735 15-10-2008 13:16:02 15.1 C 9.03 g/m*3 15.1 C 0 km/h
736 15-10-2008 13:21:03 15.1 C 8.9 g/m*3 15.1 C 0 km/h
737 15-10-2008 13:26:03 15.2 C 8.83 g/m*3 15.2 C 0 km/h
738 15-10-2008 13:31:02 15.3 C 8.88 g/m*3 15.3 C 0 km/h
739 15-10-2008 13:36:02 15.5 C 8.86 g/m*3 15.5 C 0 km/h
740 15-10-2008 13:41:02 15.7 C 8.83 g/m*3 15.7 C 0 km/h
741 15-10-2008 13:46:01 15.8 C 9.02 g/m*3 15.8 C 0 km/h
742 15-10-2008 13:51:01 16 C 8.72 g/m*3 16 C 0 km/h
743 15-10-2008 13:56:01 16.2 C 8.83 g/m*3 16.2 C 0 km/h
744 15-10-2008 14:01:02 15.9 C 8.8 g/m*3 15.9 C 0 km/h
745 15-10-2008 14:06:02 15.9 C 8.8 g/m*3 15.9 C 0 km/h
746 15-10-2008 14:11:03 15.7 C 8.83 g/m*3 15.7 C 0 km/h
747 15-10-2008 14:16:01 15.6 C 8.78 g/m*3 15.6 C 0 km/h
748 15-10-2008 14:21:01 15.5 C 8.86 g/m*3 15.5 C 0 km/h
749 15-10-2008 14:26:01 15.7 C 8.96 g/m*3 15.7 C 0 km/h
750 15-10-2008 14:31:02 15.8 C 8.88 g/m*3 15.8 C 0 km/h
Sensor: Nr:Datum:Temp:Abs-Feuchte:Windchill:Wind:
Aussen-T/F 751 15-10-2008 14:36:02 15.8 C 9.02 g/m*3 15.8 C 0 km/h
752 15-10-2008 14:41:02 15.8 C 8.88 g/m*3 15.8 C 0 km/h
753 15-10-2008 14:46:02 15.7 C 8.83 g/m*3 15.7 C 0 km/h
754 15-10-2008 14:51:02 15.6 C 8.78 g/m*3 15.6 C 0 km/h
755 15-10-2008 14:56:03 15.7 C 8.83 g/m*3 15.7 C 0 km/h
756 15-10-2008 15:01:02 15.6 C 8.78 g/m*3 15.6 C 0 km/h
757 15-10-2008 15:06:02 15.6 C 8.78 g/m*3 15.6 C 0 km/h
758 15-10-2008 15:11:02 15.5 C 8.72 g/m*3 15.5 C 0 km/h
759 15-10-2008 15:16:02 15.5 C 8.72 g/m*3 15.5 C 0 km/h
760 15-10-2008 15:21:02 15.5 C 8.72 g/m*3 15.5 C 0 km/h
761 15-10-2008 15:26:02 15.5 C 8.72 g/m*3 15.5 C 0 km/h
762 15-10-2008 15:31:02 15.6 C 8.78 g/m*3 15.6 C 0 km/h
763 15-10-2008 15:36:02 15.6 C 8.64 g/m*3 15.6 C 0 km/h
764 15-10-2008 15:41:02 15.6 C 8.64 g/m*3 15.6 C 0 km/h
765 15-10-2008 15:46:02 15.6 C 8.64 g/m*3 15.6 C 0 km/h
766 15-10-2008 15:51:02 15.6 C 8.64 g/m*3 15.6 C 0 km/h
767 15-10-2008 15:56:02 15.6 C 8.64 g/m*3 15.6 C 0 km/h
768 15-10-2008 16:01:02 15.5 C 8.72 g/m*3 15.5 C 0 km/h
769 15-10-2008 16:06:02 15.5 C 8.59 g/m*3 15.5 C 0 km/h
770 15-10-2008 16:11:02 15.6 C 8.64 g/m*3 15.6 C 0 km/h
771 15-10-2008 16:16:02 15.5 C 8.59 g/m*3 15.5 C 0 km/h
772 15-10-2008 16:21:02 15.6 C 8.78 g/m*3 15.6 C 0 km/h
773 15-10-2008 16:26:02 15.6 C 8.78 g/m*3 15.6 C 0 km/h
774 15-10-2008 16:31:02 15.6 C 8.78 g/m*3 15.6 C 0 km/h
775 15-10-2008 16:36:02 15.6 C 8.78 g/m*3 15.6 C 0 km/h
Sensor: Nr:Datum:Temp:Abs-Feuchte:Windchill:Wind:
Aussen-T/F 776 15-10-2008 16:41:02 15.7 C 8.7 g/m*3 15.7 C 0 km/h
777 15-10-2008 16:46:02 15.7 C 8.7 g/m*3 15.7 C 0 km/h
778 15-10-2008 16:51:02 15.7 C 8.7 g/m*3 15.7 C 0 km/h
779 15-10-2008 16:56:02 15.7 C 8.7 g/m*3 15.7 C 0 km/h
780 15-10-2008 17:01:02 15.6 C 8.64 g/m*3 15.6 C 0 km/h
781 15-10-2008 17:06:02 15.6 C 8.64 g/m*3 15.6 C 0 km/h
782 15-10-2008 17:11:02 15.6 C 8.64 g/m*3 15.6 C 0 km/h
783 15-10-2008 17:16:01 15.6 C 8.78 g/m*3 15.6 C 0 km/h
784 15-10-2008 17:21:01 15.5 C 8.72 g/m*3 15.5 C 0 km/h
785 15-10-2008 17:26:01 15.5 C 8.59 g/m*3 15.5 C 0 km/h
786 15-10-2008 17:31:02 15.5 C 8.72 g/m*3 15.5 C 0 km/h
787 15-10-2008 17:36:02 15.5 C 8.72 g/m*3 15.5 C 0 km/h
788 15-10-2008 17:41:03 15.5 C 8.72 g/m*3 15.5 C 0 km/h
789 15-10-2008 17:46:02 15.5 C 8.72 g/m*3 15.5 C 0 km/h
790 15-10-2008 17:51:02 15.5 C 8.72 g/m*3 15.5 C 0 km/h
791 15-10-2008 17:56:02 15.5 C 8.72 g/m*3 15.5 C 0 km/h
792 15-10-2008 18:01:03 15.5 C 8.72 g/m*3 15.5 C 0 km/h
793 15-10-2008 18:06:03 15.5 C 8.72 g/m*3 15.5 C 0 km/h
794 15-10-2008 18:11:03 15.4 C 8.8 g/m*3 15.4 C 0 km/h
795 15-10-2008 18:16:02 15.4 C 8.8 g/m*3 15.4 C 0 km/h
796 15-10-2008 18:21:02 15.4 C 8.8 g/m*3 15.4 C 0 km/h
797 15-10-2008 18:26:03 15.4 C 8.8 g/m*3 15.4 C 0 km/h
798 15-10-2008 18:31:02 15.4 C 8.93 g/m*3 15.4 C 0 km/h
799 15-10-2008 18:36:02 15.4 C 8.93 g/m*3 15.4 C 0 km/h
800 15-10-2008 18:41:02 15.4 C 8.93 g/m*3 15.4 C 0 km/h
Sensor: Nr:Datum:Temp:Abs-Feuchte:Windchill:Wind:
Aussen-T/F 801 15-10-2008 18:46:02 15 C 9.1 g/m*3 15 C 0 km/h
802 15-10-2008 18:51:02 14.4 C 9.52 g/m*3 14.4 C 0 km/h
803 15-10-2008 18:56:02 14.1 C 9.71 g/m*3 14.1 C 0 km/h
804 15-10-2008 19:01:02 13.9 C 9.83 g/m*3 13.9 C 0 km/h
805 15-10-2008 19:06:02 13.9 C 9.95 g/m*3 13.9 C 0 km/h
806 15-10-2008 19:11:02 13.8 C 9.89 g/m*3 13.8 C 0 km/h
807 15-10-2008 19:16:02 13.8 C 10.01 g/m*3 13.8 C 0 km/h
808 15-10-2008 19:21:02 13.8 C 10.01 g/m*3 13.8 C 0 km/h
809 15-10-2008 19:26:02 13.9 C 10.07 g/m*3 13.9 C 0 km/h
810 15-10-2008 19:31:02 13.9 C 10.07 g/m*3 13.9 C 0 km/h
811 15-10-2008 19:36:03 14 C 10.01 g/m*3 14 C 0 km/h
812 15-10-2008 19:41:03 14 C 10.01 g/m*3 14 C 0 km/h
813 15-10-2008 19:46:01 14 C 9.89 g/m*3 14 C 0 km/h
814 15-10-2008 19:51:01 14.1 C 9.95 g/m*3 14.1 C 0 km/h
815 15-10-2008 19:56:01 14.2 C 10.01 g/m*3 14.2 C 0 km/h
816 15-10-2008 20:01:01 14.2 C 10.01 g/m*3 14.2 C 0 km/h
817 15-10-2008 20:06:01 14.2 C 9.89 g/m*3 14.2 C 0 km/h
818 15-10-2008 20:11:01 14.4 C 10.01 g/m*3 14.4 C 0 km/h
819 15-10-2008 20:16:02 14.4 C 10.01 g/m*3 14.4 C 0 km/h
820 15-10-2008 20:21:03 14.6 C 10.01 g/m*3 14.6 C 0 km/h
821 15-10-2008 20:26:03 14.6 C 10.01 g/m*3 14.6 C 0 km/h
822 15-10-2008 20:31:01 14.6 C 9.89 g/m*3 14.6 C 0 km/h
823 15-10-2008 20:36:01 14.6 C 9.89 g/m*3 14.6 C 0 km/h
824 15-10-2008 20:41:01 14.7 C 9.95 g/m*3 14.7 C 0 km/h
825 15-10-2008 20:46:01 14.7 C 9.95 g/m*3 14.7 C 0 km/h
Sensor: Nr:Datum:Temp:Abs-Feuchte:Windchill:Wind:
Aussen-T/F 826 15-10-2008 20:51:01 14.7 C 9.95 g/m*3 14.7 C 0 km/h
827 15-10-2008 20:56:01 14.7 C 9.95 g/m*3 14.7 C 0 km/h
828 15-10-2008 21:01:01 14.7 C 9.95 g/m*3 14.7 C 0 km/h
829 15-10-2008 21:06:01 14.7 C 9.95 g/m*3 14.7 C 0 km/h
830 15-10-2008 21:11:01 14.7 C 9.95 g/m*3 14.7 C 0 km/h
831 15-10-2008 21:16:01 14.8 C 10.01 g/m*3 14.8 C 0 km/h
832 15-10-2008 21:21:01 14.8 C 10.01 g/m*3 14.8 C 0 km/h
833 15-10-2008 21:26:01 14.8 C 10.01 g/m*3 14.8 C 0 km/h
834 15-10-2008 21:31:01 14.8 C 10.01 g/m*3 14.8 C 0 km/h
835 15-10-2008 21:36:02 14.8 C 9.88 g/m*3 14.8 C 0 km/h
836 15-10-2008 21:41:02 14.9 C 9.94 g/m*3 14.9 C 0 km/h
837 15-10-2008 21:47:02 15 C 9.87 g/m*3 15 C 0 km/h
838 15-10-2008 21:52:02 15 C 9.75 g/m*3 15 C 0 km/h
839 15-10-2008 21:57:02 15 C 9.75 g/m*3 15 C 0 km/h
840 15-10-2008 22:02:02 15 C 9.75 g/m*3 15 C 0 km/h
841 15-10-2008 22:07:02 15 C 9.87 g/m*3 15 C 0 km/h
842 15-10-2008 22:12:02 15 C 9.75 g/m*3 15 C 0 km/h
843 15-10-2008 22:17:02 15.1 C 9.8 g/m*3 15.1 C 0 km/h
844 15-10-2008 22:22:02 15.1 C 9.8 g/m*3 15.1 C 0 km/h
845 15-10-2008 22:27:02 15.1 C 9.8 g/m*3 15.1 C 0 km/h
846 15-10-2008 22:32:02 15.2 C 9.86 g/m*3 15.2 C 0 km/h
847 15-10-2008 22:37:02 15.2 C 9.86 g/m*3 15.2 C 0 km/h
848 15-10-2008 22:42:02 15.2 C 9.86 g/m*3 15.2 C 0 km/h
849 15-10-2008 22:47:02 15.1 C 9.8 g/m*3 15.1 C 0 km/h
850 15-10-2008 22:52:02 15.1 C 9.8 g/m*3 15.1 C 0 km/h
Sensor: Nr:Datum:Temp:Abs-Feuchte:Windchill:Wind:
Aussen-T/F 851 15-10-2008 22:57:02 15.1 C 9.93 g/m*3 15.1 C 0 km/h
852 15-10-2008 23:02:02 15.1 C 9.93 g/m*3 15.1 C 0 km/h
853 15-10-2008 23:07:02 15 C 9.87 g/m*3 15 C 0 km/h
854 15-10-2008 23:12:03 14.9 C 10.07 g/m*3 14.9 C 0 km/h
855 15-10-2008 23:17:03 14.9 C 10.07 g/m*3 14.9 C 0 km/h
856 15-10-2008 23:22:03 14.9 C 10.07 g/m*3 14.9 C 0 km/h
857 15-10-2008 23:27:03 14.8 C 10.01 g/m*3 14.8 C 0 km/h
858 15-10-2008 23:32:03 14.8 C 10.01 g/m*3 14.8 C 0 km/h
859 15-10-2008 23:37:03 14.8 C 10.01 g/m*3 14.8 C 0 km/h
860 15-10-2008 23:42:03 14.8 C 9.88 g/m*3 14.8 C 0 km/h
861 15-10-2008 23:47:03 14.8 C 9.88 g/m*3 14.8 C 0 km/h
862 15-10-2008 23:52:03 14.9 C 9.94 g/m*3 14.9 C 0 km/h
863 15-10-2008 23:57:03 15 C 9.87 g/m*3 15 C 0 km/h
864 16-10-2008 00:02:03 15 C 9.75 g/m*3 15 C 0 km/h
865 16-10-2008 00:07:03 15 C 9.75 g/m*3 15 C 0 km/h
866 16-10-2008 00:12:03 15 C 9.75 g/m*3 15 C 0 km/h
867 16-10-2008 00:17:03 15 C 9.87 g/m*3 15 C 0 km/h
868 16-10-2008 00:22:03 14.8 C 9.88 g/m*3 14.8 C 0 km/h
869 16-10-2008 00:27:03 14.8 C 9.88 g/m*3 14.8 C 0 km/h
870 16-10-2008 00:32:03 14.8 C 9.88 g/m*3 14.8 C 0 km/h
871 16-10-2008 00:37:03 14.9 C 9.94 g/m*3 14.9 C 0 km/h
872 16-10-2008 00:42:03 14.9 C 9.81 g/m*3 14.9 C 0 km/h
873 16-10-2008 00:47:03 14.9 C 9.81 g/m*3 14.9 C 0 km/h
874 16-10-2008 00:52:03 15 C 9.75 g/m*3 15 C 0 km/h
875 16-10-2008 00:57:04 15 C 9.75 g/m*3 15 C 0 km/h
Sensor: Nr:Datum:Temp:Abs-Feuchte:Windchill:Wind:
Aussen-T/F 876 16-10-2008 01:02:04 15 C 9.75 g/m*3 15 C 0 km/h
877 16-10-2008 01:07:04 15 C 9.75 g/m*3 15 C 0 km/h
878 16-10-2008 01:12:04 15 C 9.75 g/m*3 15 C 0 km/h
879 16-10-2008 01:17:04 15 C 9.75 g/m*3 15 C 0 km/h
880 16-10-2008 01:22:04 15 C 9.75 g/m*3 15 C 0 km/h
881 16-10-2008 01:27:04 15 C 9.75 g/m*3 15 C 0 km/h
882 16-10-2008 01:32:04 15 C 9.75 g/m*3 15 C 0 km/h
883 16-10-2008 01:37:04 14.9 C 9.81 g/m*3 14.9 C 0 km/h
884 16-10-2008 01:42:04 15 C 9.75 g/m*3 15 C 0 km/h
885 16-10-2008 01:47:04 15 C 9.75 g/m*3 15 C 0 km/h
886 16-10-2008 01:52:04 15 C 9.75 g/m*3 15 C 0 km/h
887 16-10-2008 01:57:04 15 C 9.75 g/m*3 15 C 0 km/h
888 16-10-2008 02:02:04 15 C 9.75 g/m*3 15 C 0 km/h
889 16-10-2008 02:07:04 15 C 9.75 g/m*3 15 C 0 km/h
890 16-10-2008 02:12:04 15 C 9.75 g/m*3 15 C 0 km/h
891 16-10-2008 02:17:04 14.9 C 9.81 g/m*3 14.9 C 0 km/h
892 16-10-2008 02:22:04 14.8 C 9.75 g/m*3 14.8 C 0 km/h
893 16-10-2008 02:27:04 14.8 C 9.88 g/m*3 14.8 C 0 km/h
894 16-10-2008 02:32:04 14.8 C 9.88 g/m*3 14.8 C 0 km/h
895 16-10-2008 02:37:05 14.8 C 9.88 g/m*3 14.8 C 0 km/h
896 16-10-2008 02:42:05 14.8 C 9.75 g/m*3 14.8 C 0 km/h
897 16-10-2008 02:47:05 14.9 C 9.81 g/m*3 14.9 C 0 km/h
898 16-10-2008 02:52:05 15 C 9.62 g/m*3 15 C 0 km/h
899 16-10-2008 02:57:05 14.9 C 9.56 g/m*3 14.9 C 0 km/h
900 16-10-2008 03:02:05 14.9 C 9.56 g/m*3 14.9 C 0 km/h
Sensor: Nr:Datum:Temp:Abs-Feuchte:Windchill:Wind:
Aussen-T/F 901 16-10-2008 03:07:05 14.9 C 9.43 g/m*3 14.9 C 0 km/h
902 16-10-2008 03:12:05 14.9 C 9.43 g/m*3 14.9 C 0 km/h
903 16-10-2008 03:17:05 14.9 C 9.43 g/m*3 14.9 C 0 km/h
904 16-10-2008 03:22:05 14.9 C 9.43 g/m*3 14.9 C 0 km/h
905 16-10-2008 03:27:05 14.9 C 9.43 g/m*3 14.9 C 0 km/h
906 16-10-2008 03:32:05 14.9 C 9.43 g/m*3 14.9 C 0 km/h
907 16-10-2008 03:37:05 14.9 C 9.43 g/m*3 14.9 C 0 km/h
908 16-10-2008 03:42:05 14.8 C 9.37 g/m*3 14.8 C 0 km/h
909 16-10-2008 03:47:05 14.8 C 9.37 g/m*3 14.8 C 0 km/h
910 16-10-2008 03:52:05 14.8 C 9.37 g/m*3 14.8 C 0 km/h
911 16-10-2008 03:57:05 14.8 C 9.25 g/m*3 14.8 C 0 km/h
912 16-10-2008 04:02:05 14.7 C 9.32 g/m*3 14.7 C 0 km/h
913 16-10-2008 04:07:05 14.7 C 9.32 g/m*3 14.7 C 0 km/h
914 16-10-2008 04:12:06 14.7 C 9.19 g/m*3 14.7 C 0 km/h
915 16-10-2008 04:17:06 14.7 C 9.19 g/m*3 14.7 C 0 km/h
916 16-10-2008 04:22:06 14.7 C 9.19 g/m*3 14.7 C 0 km/h
917 16-10-2008 04:27:06 14.6 C 9.13 g/m*3 14.6 C 0 km/h
918 16-10-2008 04:32:06 14.5 C 9.2 g/m*3 14.5 C 0 km/h
919 16-10-2008 04:37:06 14.4 C 9.27 g/m*3 14.4 C 0 km/h
920 16-10-2008 04:42:06 14 C 9.17 g/m*3 14 C 0 km/h
921 16-10-2008 04:47:06 13.7 C 9.35 g/m*3 13.7 C 0 km/h
922 16-10-2008 04:52:06 13.6 C 9.3 g/m*3 13.6 C 0 km/h
923 16-10-2008 04:57:06 13.7 C 9.59 g/m*3 13.7 C 0 km/h
924 16-10-2008 05:02:06 13.6 C 9.53 g/m*3 13.6 C 0 km/h
925 16-10-2008 05:07:06 13.4 C 9.42 g/m*3 13.4 C 0 km/h
Sensor: Nr:Datum:Temp:Abs-Feuchte:Windchill:Wind:
Aussen-T/F 926 16-10-2008 05:12:06 13.4 C 9.42 g/m*3 13.4 C 0 km/h
927 16-10-2008 05:17:06 13.3 C 9.36 g/m*3 13.3 C 0 km/h
928 16-10-2008 05:22:06 13.3 C 9.47 g/m*3 13.3 C 0 km/h
929 16-10-2008 05:27:06 13.3 C 9.47 g/m*3 13.3 C 0 km/h
930 16-10-2008 05:32:06 13.2 C 9.42 g/m*3 13.2 C 0 km/h
931 16-10-2008 05:37:06 13.2 C 9.42 g/m*3 13.2 C 0 km/h
932 16-10-2008 05:42:06 13.2 C 9.53 g/m*3 13.2 C 0 km/h
933 16-10-2008 05:47:07 13.2 C 9.53 g/m*3 13.2 C 0 km/h
934 16-10-2008 05:52:07 13.2 C 9.53 g/m*3 13.2 C 0 km/h
935 16-10-2008 05:57:07 13.1 C 9.47 g/m*3 13.1 C 0 km/h
936 16-10-2008 06:02:07 13.1 C 9.47 g/m*3 13.1 C 0 km/h
937 16-10-2008 06:07:07 13.2 C 9.64 g/m*3 13.2 C 0 km/h
938 16-10-2008 06:12:07 13.2 C 9.64 g/m*3 13.2 C 0 km/h
939 16-10-2008 06:17:07 13.2 C 9.53 g/m*3 13.2 C 0 km/h
940 16-10-2008 06:22:07 13.2 C 9.53 g/m*3 13.2 C 0 km/h
941 16-10-2008 06:27:07 13.1 C 9.47 g/m*3 13.1 C 0 km/h
942 16-10-2008 06:32:07 13.1 C 9.36 g/m*3 13.1 C 0 km/h
943 16-10-2008 06:37:07 13.1 C 9.36 g/m*3 13.1 C 0 km/h
944 16-10-2008 06:42:07 13.1 C 9.24 g/m*3 13.1 C 0 km/h
945 16-10-2008 06:47:07 13.2 C 9.07 g/m*3 13.2 C 0 km/h
946 16-10-2008 06:52:07 13.2 C 8.96 g/m*3 13.2 C 0 km/h
947 16-10-2008 06:57:07 13.2 C 8.73 g/m*3 13.2 C 0 km/h
948 16-10-2008 07:02:02 13.2 C 8.61 g/m*3 13.2 C 0 km/h
949 16-10-2008 07:07:02 13.2 C 8.5 g/m*3 13.2 C 0 km/h
950 16-10-2008 07:12:02 13.3 C 8.32 g/m*3 13.3 C 0 km/h
Sensor: Nr:Datum:Temp:Abs-Feuchte:Windchill:Wind:
Aussen-T/F 951 16-10-2008 07:17:01 13.3 C 8.2 g/m*3 13.3 C 0 km/h
952 16-10-2008 07:22:01 13.3 C 8.2 g/m*3 13.3 C 0 km/h
953 16-10-2008 07:27:01 13.3 C 8.09 g/m*3 13.3 C 0 km/h
954 16-10-2008 07:32:02 13.2 C 7.92 g/m*3 13.2 C 0 km/h
955 16-10-2008 07:37:02 13.1 C 7.87 g/m*3 13.1 C 0 km/h
956 16-10-2008 07:42:02 13.1 C 7.99 g/m*3 13.1 C 0 km/h
957 16-10-2008 07:47:02 13 C 7.94 g/m*3 13 C 0 km/h
958 16-10-2008 07:52:02 13 C 8.05 g/m*3 13 C 0 km/h
959 16-10-2008 07:57:02 13 C 8.05 g/m*3 13 C 0 km/h
960 16-10-2008 08:02:02 12.9 C 8.11 g/m*3 12.9 C 0 km/h
961 16-10-2008 08:07:02 12.9 C 8.11 g/m*3 12.9 C 0 km/h
962 16-10-2008 08:12:02 12.9 C 8.11 g/m*3 12.9 C 0 km/h
963 16-10-2008 08:17:02 12.9 C 8.11 g/m*3 12.9 C 0 km/h
964 16-10-2008 08:22:02 13 C 8.17 g/m*3 13 C 0 km/h
965 16-10-2008 08:27:02 12.9 C 8.23 g/m*3 12.9 C 0 km/h
966 16-10-2008 08:32:02 12.9 C 8.23 g/m*3 12.9 C 0 km/h
967 16-10-2008 08:37:02 13 C 8.17 g/m*3 13 C 0 km/h
968 16-10-2008 08:42:02 13 C 8.17 g/m*3 13 C 0 km/h
969 16-10-2008 08:47:02 13 C 8.17 g/m*3 13 C 0 km/h
970 16-10-2008 08:52:02 13 C 8.05 g/m*3 13 C 0 km/h
971 16-10-2008 08:57:02 13 C 8.05 g/m*3 13 C 0 km/h
972 16-10-2008 09:02:03 13.1 C 8.1 g/m*3 13.1 C 0 km/h
973 16-10-2008 09:07:03 13 C 8.17 g/m*3 13 C 0 km/h
974 16-10-2008 09:12:03 13 C 8.05 g/m*3 13 C 0 km/h
975 16-10-2008 09:17:02 13.1 C 8.1 g/m*3 13.1 C 0 km/h
Sensor: Nr:Datum:Temp:Abs-Feuchte:Windchill:Wind:
Aussen-T/F 976 16-10-2008 09:22:02 13.1 C 8.1 g/m*3 13.1 C 0 km/h
977 16-10-2008 09:27:02 13.1 C 8.1 g/m*3 13.1 C 0 km/h
978 16-10-2008 09:32:03 13 C 8.05 g/m*3 13 C 0 km/h
979 16-10-2008 09:37:03 13 C 8.05 g/m*3 13 C 0 km/h
980 16-10-2008 09:42:03 13 C 8.17 g/m*3 13 C 0 km/h
981 16-10-2008 09:47:02 13 C 8.17 g/m*3 13 C 0 km/h
982 16-10-2008 09:52:02 13 C 8.17 g/m*3 13 C 0 km/h
983 16-10-2008 09:57:02 13 C 8.17 g/m*3 13 C 0 km/h
984 16-10-2008 10:02:02 12.7 C 8.24 g/m*3 12.7 C 0 km/h
985 16-10-2008 10:07:02 12.6 C 8.41 g/m*3 12.6 C 0 km/h
986 16-10-2008 10:12:02 12.3 C 8.47 g/m*3 12.3 C 0 km/h
987 16-10-2008 10:17:02 12.2 C 8.63 g/m*3 12.2 C 0 km/h
988 16-10-2008 10:22:02 12.2 C 8.74 g/m*3 12.2 C 0 km/h
989 16-10-2008 10:27:02 12.1 C 8.79 g/m*3 12.1 C 0 km/h
990 16-10-2008 10:32:02 12.1 C 8.9 g/m*3 12.1 C 0 km/h
991 16-10-2008 10:37:02 12 C 8.85 g/m*3 12 C 0 km/h
992 16-10-2008 10:42:03 12 C 8.85 g/m*3 12 C 0 km/h
993 16-10-2008 10:47:01 11.9 C 8.9 g/m*3 11.9 C 0 km/h
994 16-10-2008 10:52:01 12 C 8.85 g/m*3 12 C 0 km/h
995 16-10-2008 10:57:01 12 C 8.85 g/m*3 12 C 0 km/h
996 16-10-2008 11:02:02 12.1 C 8.9 g/m*3 12.1 C 0 km/h
997 16-10-2008 11:07:02 12.1 C 8.9 g/m*3 12.1 C 0 km/h
998 16-10-2008 11:12:02 12.1 C 9.01 g/m*3 12.1 C 0 km/h
999 16-10-2008 11:17:02 12.1 C 9.01 g/m*3 12.1 C 0 km/h
1000 16-10-2008 11:22:03 12.1 C 9.12 g/m*3 12.1 C 0 km/h
Sensor: Nr:Datum:Temp:Abs-Feuchte:Windchill:Wind:
Aussen-T/F 1001 16-10-2008 11:27:03 12 C 9.06 g/m*3 12 C 0 km/h
1002 16-10-2008 11:32:01 11.9 C 9.11 g/m*3 11.9 C 0 km/h
1003 16-10-2008 11:37:01 12 C 9.17 g/m*3 12 C 0 km/h
1004 16-10-2008 11:42:01 11.8 C 9.16 g/m*3 11.8 C 0 km/h
1005 16-10-2008 11:47:01 11.9 C 9.32 g/m*3 11.9 C 0 km/h
1006 16-10-2008 11:52:01 12.1 C 9.33 g/m*3 12.1 C 0 km/h
1007 16-10-2008 11:57:01 12.1 C 9.33 g/m*3 12.1 C 0 km/h
1008 16-10-2008 12:02:02 12.1 C 9.33 g/m*3 12.1 C 0 km/h
1009 16-10-2008 12:07:02 12.1 C 9.33 g/m*3 12.1 C 0 km/h
1010 16-10-2008 12:12:03 12 C 9.27 g/m*3 12 C 0 km/h
1011 16-10-2008 12:17:01 12 C 9.27 g/m*3 12 C 0 km/h
1012 16-10-2008 12:22:01 12 C 9.27 g/m*3 12 C 0 km/h
1013 16-10-2008 12:27:01 12.2 C 9.39 g/m*3 12.2 C 0 km/h
1014 16-10-2008 12:32:02 12.3 C 9.45 g/m*3 12.3 C 0 km/h
1015 16-10-2008 12:37:02 12.3 C 9.45 g/m*3 12.3 C 0 km/h
1016 16-10-2008 12:42:02 12.4 C 9.51 g/m*3 12.4 C 0 km/h
1017 16-10-2008 12:47:02 12.6 C 9.62 g/m*3 12.6 C 0 km/h
1018 16-10-2008 12:52:02 12.5 C 9.57 g/m*3 12.5 C 0 km/h
1019 16-10-2008 12:57:03 12.4 C 9.51 g/m*3 12.4 C 0 km/h
1020 16-10-2008 13:02:02 12.3 C 9.34 g/m*3 12.3 C 0 km/h
1021 16-10-2008 13:07:02 12.3 C 9.34 g/m*3 12.3 C 0 km/h
1022 16-10-2008 13:12:02 12.3 C 9.34 g/m*3 12.3 C 0 km/h
1023 16-10-2008 13:17:02 12.3 C 9.34 g/m*3 12.3 C 0 km/h
1024 16-10-2008 13:22:02 12.3 C 9.34 g/m*3 12.3 C 0 km/h
1025 16-10-2008 13:27:02 12.3 C 9.45 g/m*3 12.3 C 0 km/h
Sensor: Nr:Datum:Temp:Abs-Feuchte:Windchill:Wind:
Aussen-T/F 1026 16-10-2008 13:32:02 12.1 C 9.33 g/m*3 12.1 C 0 km/h
1027 16-10-2008 13:37:02 11.9 C 9.21 g/m*3 11.9 C 0 km/h
1028 16-10-2008 13:42:02 11.9 C 9.21 g/m*3 11.9 C 0 km/h
1029 16-10-2008 13:47:01 11.8 C 9.16 g/m*3 11.8 C 0 km/h
1030 16-10-2008 13:52:01 11.8 C 9.16 g/m*3 11.8 C 0 km/h
1031 16-10-2008 13:57:01 11.8 C 9.16 g/m*3 11.8 C 0 km/h
1032 16-10-2008 14:02:02 11.8 C 9.16 g/m*3 11.8 C 0 km/h
1033 16-10-2008 14:07:02 11.7 C 9.2 g/m*3 11.7 C 0 km/h
1034 16-10-2008 14:12:02 11.6 C 9.15 g/m*3 11.6 C 0 km/h
1035 16-10-2008 14:17:01 11.5 C 9.09 g/m*3 11.5 C 0 km/h
1036 16-10-2008 14:22:01 11.4 C 9.14 g/m*3 11.4 C 0 km/h
1037 16-10-2008 14:27:01 11.4 C 9.14 g/m*3 11.4 C 0 km/h
1038 16-10-2008 14:32:02 11.4 C 9.24 g/m*3 11.4 C 0 km/h
1039 16-10-2008 14:37:02 10.4 C 8.58 g/m*3 10.4 C 0 km/h
1040 16-10-2008 14:42:02 10.1 C 8.32 g/m*3 10.1 C 0 km/h
1041 16-10-2008 14:47:03 10 C 8.36 g/m*3 10 C 0 km/h
1042 16-10-2008 14:52:03 9.9 C 8.4 g/m*3 9.9 C 0 km/h
1043 16-10-2008 14:57:03 9.9 C 8.5 g/m*3 9.9 C 0 km/h
1044 16-10-2008 15:02:02 9.8 C 8.44 g/m*3 9.8 C 0 km/h
1045 16-10-2008 15:07:02 9.7 C 8.39 g/m*3 9.7 C 0 km/h
1046 16-10-2008 15:12:02 9.7 C 8.39 g/m*3 9.7 C 0 km/h
1047 16-10-2008 15:17:02 9.6 C 8.34 g/m*3 9.6 C 0 km/h
1048 16-10-2008 15:22:02 9.8 C 8.54 g/m*3 9.8 C 0 km/h
1049 16-10-2008 15:27:02 9.8 C 8.54 g/m*3 9.8 C 0 km/h
1050 16-10-2008 15:32:02 9.6 C 8.43 g/m*3 9.6 C 0 km/h
Sensor: Nr:Datum:Temp:Abs-Feuchte:Windchill:Wind:
Aussen-T/F 1051 16-10-2008 15:37:02 9.6 C 8.43 g/m*3 9.6 C 0 km/h
1052 16-10-2008 15:42:03 9.6 C 8.43 g/m*3 9.6 C 0 km/h
1053 16-10-2008 15:47:02 9.6 C 8.52 g/m*3 9.6 C 0 km/h
1054 16-10-2008 15:52:02 9.6 C 8.52 g/m*3 9.6 C 0 km/h
1055 16-10-2008 15:57:02 9.5 C 8.47 g/m*3 9.5 C 0 km/h
1056 16-10-2008 16:02:02 9.4 C 8.41 g/m*3 9.4 C 0 km/h
1057 16-10-2008 16:07:02 9.4 C 8.41 g/m*3 9.4 C 0 km/h
1058 16-10-2008 16:12:02 9.5 C 8.47 g/m*3 9.5 C 0 km/h
1059 16-10-2008 16:17:02 9.5 C 8.47 g/m*3 9.5 C 0 km/h
1060 16-10-2008 16:22:02 9.5 C 8.47 g/m*3 9.5 C 0 km/h
1061 16-10-2008 16:27:03 9.4 C 8.41 g/m*3 9.4 C 0 km/h
1062 16-10-2008 16:32:01 9.4 C 8.41 g/m*3 9.4 C 0 km/h
1063 16-10-2008 16:37:01 9.5 C 8.47 g/m*3 9.5 C 0 km/h
1064 16-10-2008 16:42:01 9.6 C 8.43 g/m*3 9.6 C 0 km/h
1065 16-10-2008 16:47:02 9.8 C 8.54 g/m*3 9.8 C 0 km/h
1066 16-10-2008 16:52:02 9.6 C 8.24 g/m*3 9.6 C 0 km/h
1067 16-10-2008 16:57:02 9.6 C 8.24 g/m*3 9.6 C 0 km/h
1068 16-10-2008 17:02:02 9.6 C 8.15 g/m*3 9.6 C 0 km/h
1069 16-10-2008 17:07:02 9.8 C 8.16 g/m*3 9.8 C 0 km/h
1070 16-10-2008 17:12:02 9.6 C 8.06 g/m*3 9.6 C 0 km/h
1071 16-10-2008 17:17:02 9.7 C 8.11 g/m*3 9.7 C 0 km/h
1072 16-10-2008 17:22:03 9.8 C 8.07 g/m*3 9.8 C 0 km/h
1073 16-10-2008 17:27:03 9.8 C 8.07 g/m*3 9.8 C 0 km/h
1074 16-10-2008 17:32:01 9.9 C 8.12 g/m*3 9.9 C 0 km/h
1075 16-10-2008 17:37:01 10.2 C 8.09 g/m*3 10.2 C 0 km/h
Sensor: Nr:Datum:Temp:Abs-Feuchte:Windchill:Wind:
Aussen-T/F 1076 16-10-2008 17:42:01 10.4 C 8.1 g/m*3 10.4 C 0 km/h
1077 16-10-2008 17:47:02 10.4 C 8.1 g/m*3 10.4 C 0 km/h
1078 16-10-2008 17:52:02 10.8 C 8.01 g/m*3 10.8 C 0 km/h
1079 16-10-2008 17:57:02 10.7 C 7.76 g/m*3 10.7 C 0 km/h
1080 16-10-2008 18:02:02 10.5 C 7.66 g/m*3 10.5 C 0 km/h
1081 16-10-2008 18:07:02 10.3 C 7.47 g/m*3 10.3 C 0 km/h
1082 16-10-2008 18:12:02 10 C 7.42 g/m*3 10 C 0 km/h
1083 16-10-2008 18:17:02 9.9 C 7.47 g/m*3 9.9 C 0 km/h
1084 16-10-2008 18:22:02 9.8 C 7.42 g/m*3 9.8 C 0 km/h
1085 16-10-2008 18:27:02 9.8 C 7.42 g/m*3 9.8 C 0 km/h
1086 16-10-2008 18:32:02 9.8 C 7.42 g/m*3 9.8 C 0 km/h
1087 16-10-2008 18:37:02 9.8 C 7.42 g/m*3 9.8 C 0 km/h
1088 16-10-2008 18:42:02 9.7 C 7.56 g/m*3 9.7 C 0 km/h
1089 16-10-2008 18:47:02 9.7 C 7.56 g/m*3 9.7 C 0 km/h
1090 16-10-2008 18:52:02 9.7 C 7.56 g/m*3 9.7 C 0 km/h
1091 16-10-2008 18:57:02 9.4 C 7.51 g/m*3 9.4 C 0 km/h
1092 16-10-2008 19:02:02 9.2 C 7.5 g/m*3 9.2 C 0 km/h
1093 16-10-2008 19:07:03 9.1 C 7.45 g/m*3 9.1 C 0 km/h
1094 16-10-2008 19:12:03 9 C 7.49 g/m*3 9 C 0 km/h
1095 16-10-2008 19:17:02 9 C 7.58 g/m*3 9 C 0 km/h
1096 16-10-2008 19:22:02 8.8 C 7.57 g/m*3 8.8 C 0 km/h
1097 16-10-2008 19:27:03 8.7 C 7.61 g/m*3 8.7 C 0 km/h
1098 16-10-2008 19:32:02 8.6 C 7.56 g/m*3 8.6 C 0 km/h
1099 16-10-2008 19:37:02 8.6 C 7.48 g/m*3 8.6 C 0 km/h
1100 16-10-2008 19:42:02 8.5 C 7.43 g/m*3 8.5 C 0 km/h
Sensor: Nr:Datum:Temp:Abs-Feuchte:Windchill:Wind:
Aussen-T/F 1101 16-10-2008 19:47:03 8.5 C 7.43 g/m*3 8.5 C 0 km/h
1102 16-10-2008 19:52:03 8.5 C 7.43 g/m*3 8.5 C 0 km/h
1103 16-10-2008 19:57:03 8.5 C 7.43 g/m*3 8.5 C 0 km/h
1104 16-10-2008 20:02:02 8.5 C 7.34 g/m*3 8.5 C 0 km/h
1105 16-10-2008 20:07:02 8.5 C 7.17 g/m*3 8.5 C 0 km/h
1106 16-10-2008 20:12:02 8.4 C 7.13 g/m*3 8.4 C 0 km/h
1107 16-10-2008 20:17:02 8.3 C 7 g/m*3 8.3 C 0 km/h
1108 16-10-2008 20:22:03 8.3 C 6.91 g/m*3 8.3 C 0 km/h
1109 16-10-2008 20:27:03 8.3 C 6.83 g/m*3 8.3 C 0 km/h
1110 16-10-2008 20:32:02 8.4 C 6.79 g/m*3 8.4 C 0 km/h
1111 16-10-2008 20:37:02 8.4 C 6.7 g/m*3 8.4 C 0 km/h
1112 16-10-2008 20:42:02 8.5 C 6.74 g/m*3 8.5 C 0 km/h
1113 16-10-2008 20:47:02 8.5 C 6.66 g/m*3 8.5 C 0 km/h
1114 16-10-2008 20:52:02 8.5 C 6.66 g/m*3 8.5 C 0 km/h
1115 16-10-2008 20:57:02 8.5 C 6.74 g/m*3 8.5 C 0 km/h
1116 16-10-2008 21:02:02 8.5 C 6.66 g/m*3 8.5 C 0 km/h
1117 16-10-2008 21:07:02 8.4 C 6.62 g/m*3 8.4 C 0 km/h
1118 16-10-2008 21:12:02 8.4 C 6.62 g/m*3 8.4 C 0 km/h
1119 16-10-2008 21:17:02 8.5 C 6.74 g/m*3 8.5 C 0 km/h
1120 16-10-2008 21:22:03 8.5 C 6.66 g/m*3 8.5 C 0 km/h
1121 16-10-2008 21:27:03 8.5 C 6.66 g/m*3 8.5 C 0 km/h
1122 16-10-2008 21:32:02 8.3 C 6.66 g/m*3 8.3 C 0 km/h
1123 16-10-2008 21:37:02 8.2 C 6.62 g/m*3 8.2 C 0 km/h
1124 16-10-2008 21:42:02 8 C 6.61 g/m*3 8 C 0 km/h
1125 16-10-2008 21:47:03 8.1 C 6.66 g/m*3 8.1 C 0 km/h
Sensor: Nr:Datum:Temp:Abs-Feuchte:Windchill:Wind:
Aussen-T/F 1126 16-10-2008 21:52:03 8.1 C 6.66 g/m*3 8.1 C 0 km/h
1127 16-10-2008 21:57:03 8 C 6.53 g/m*3 8 C 0 km/h
1128 16-10-2008 22:02:03 7.9 C 6.65 g/m*3 7.9 C 0 km/h
1129 16-10-2008 22:07:03 7.9 C 6.65 g/m*3 7.9 C 0 km/h
1130 16-10-2008 22:12:03 7.8 C 6.61 g/m*3 7.8 C 0 km/h
1131 16-10-2008 22:17:02 7.7 C 6.65 g/m*3 7.7 C 0 km/h
1132 16-10-2008 22:22:02 7.7 C 6.65 g/m*3 7.7 C 0 km/h
1133 16-10-2008 22:27:02 7.7 C 6.65 g/m*3 7.7 C 0 km/h
1134 16-10-2008 22:32:03 7.7 C 6.65 g/m*3 7.7 C 0 km/h
1135 16-10-2008 22:37:03 7.6 C 6.53 g/m*3 7.6 C 0 km/h
1136 16-10-2008 22:42:03 7.6 C 6.61 g/m*3 7.6 C 0 km/h
1137 16-10-2008 22:47:02 7.5 C 6.56 g/m*3 7.5 C 0 km/h
1138 16-10-2008 22:52:02 7.4 C 6.52 g/m*3 7.4 C 0 km/h
1139 16-10-2008 22:57:02 7.4 C 6.52 g/m*3 7.4 C 0 km/h
1140 16-10-2008 23:02:02 7.3 C 6.56 g/m*3 7.3 C 0 km/h
1141 16-10-2008 23:07:02 7.3 C 6.56 g/m*3 7.3 C 0 km/h
1142 16-10-2008 23:12:02 7.3 C 6.56 g/m*3 7.3 C 0 km/h
1143 16-10-2008 23:17:03 7.1 C 6.55 g/m*3 7.1 C 0 km/h
1144 16-10-2008 23:22:03 7 C 6.43 g/m*3 7 C 0 km/h
1145 16-10-2008 23:27:03 6.9 C 6.54 g/m*3 6.9 C 0 km/h
1146 16-10-2008 23:33:26 6.9 C 6.54 g/m*3 6.9 C 0 km/h
1147 16-10-2008 23:38:26 6.8 C 6.5 g/m*3 6.8 C 0 km/h
1148 16-10-2008 23:43:26 6.8 C 6.5 g/m*3 6.8 C 0 km/h
1149 16-10-2008 23:48:26 6.8 C 6.5 g/m*3 6.8 C 0 km/h
1150 16-10-2008 23:53:26 6.8 C 6.5 g/m*3 6.8 C 0 km/h
Sensor: Nr:Datum:Temp:Abs-Feuchte:Windchill:Wind:
Aussen-T/F 1151 16-10-2008 23:58:26 6.8 C 6.5 g/m*3 6.8 C 0 km/h
1152 17-10-2008 00:03:26 6.8 C 6.5 g/m*3 6.8 C 0 km/h
1153 17-10-2008 00:08:26 6.8 C 6.42 g/m*3 6.8 C 0 km/h
1154 17-10-2008 00:13:26 6.8 C 6.42 g/m*3 6.8 C 0 km/h
1155 17-10-2008 00:18:26 7 C 6.35 g/m*3 7 C 0 km/h
1156 17-10-2008 00:23:26 6.9 C 6.31 g/m*3 6.9 C 0 km/h
1157 17-10-2008 00:28:26 6.9 C 6.31 g/m*3 6.9 C 0 km/h
1158 17-10-2008 00:33:26 6.8 C 6.19 g/m*3 6.8 C 0 km/h
1159 17-10-2008 00:38:26 6.9 C 6.24 g/m*3 6.9 C 0 km/h
1160 17-10-2008 00:43:26 6.8 C 6.19 g/m*3 6.8 C 0 km/h
1161 17-10-2008 00:48:26 6.8 C 6.19 g/m*3 6.8 C 0 km/h
1162 17-10-2008 00:53:26 6.7 C 6.15 g/m*3 6.7 C 0 km/h
1163 17-10-2008 00:58:26 6.7 C 6.15 g/m*3 6.7 C 0 km/h
1164 17-10-2008 01:03:26 6.7 C 6.23 g/m*3 6.7 C 0 km/h
1165 17-10-2008 01:08:27 6.6 C 6.19 g/m*3 6.6 C 0 km/h
1166 17-10-2008 01:13:27 6.6 C 6.19 g/m*3 6.6 C 0 km/h
1167 17-10-2008 01:18:27 6.6 C 6.19 g/m*3 6.6 C 0 km/h
1168 17-10-2008 01:23:27 6.6 C 6.19 g/m*3 6.6 C 0 km/h
1169 17-10-2008 01:28:27 6.7 C 6.23 g/m*3 6.7 C 0 km/h
1170 17-10-2008 01:33:27 6.6 C 6.19 g/m*3 6.6 C 0 km/h
1171 17-10-2008 01:38:27 6.5 C 6.15 g/m*3 6.5 C 0 km/h
1172 17-10-2008 01:43:27 6.5 C 6.15 g/m*3 6.5 C 0 km/h
1173 17-10-2008 01:48:27 6.5 C 6.15 g/m*3 6.5 C 0 km/h
1174 17-10-2008 01:53:27 6.4 C 6.18 g/m*3 6.4 C 0 km/h
1175 17-10-2008 01:58:27 6.4 C 6.18 g/m*3 6.4 C 0 km/h
Sensor: Nr:Datum:Temp:Abs-Feuchte:Windchill:Wind:
Aussen-T/F 1176 17-10-2008 02:03:27 6.4 C 6.18 g/m*3 6.4 C 0 km/h
1177 17-10-2008 02:08:27 6.3 C 6.14 g/m*3 6.3 C 0 km/h
1178 17-10-2008 02:13:27 6.3 C 6.14 g/m*3 6.3 C 0 km/h
1179 17-10-2008 02:18:27 6.2 C 6.18 g/m*3 6.2 C 0 km/h
1180 17-10-2008 02:23:27 6.2 C 6.18 g/m*3 6.2 C 0 km/h
1181 17-10-2008 02:28:27 6.2 C 6.18 g/m*3 6.2 C 0 km/h
1182 17-10-2008 02:33:27 6.1 C 6.14 g/m*3 6.1 C 0 km/h
1183 17-10-2008 02:38:27 6.1 C 6.21 g/m*3 6.1 C 0 km/h
1184 17-10-2008 02:43:27 6.1 C 6.21 g/m*3 6.1 C 0 km/h
1185 17-10-2008 02:48:28 6.1 C 6.21 g/m*3 6.1 C 0 km/h
1186 17-10-2008 02:53:28 6 C 6.17 g/m*3 6 C 0 km/h
1187 17-10-2008 02:58:28 6 C 6.17 g/m*3 6 C 0 km/h
1188 17-10-2008 03:03:28 6 C 6.17 g/m*3 6 C 0 km/h
1189 17-10-2008 03:08:28 6 C 6.17 g/m*3 6 C 0 km/h
1190 17-10-2008 03:13:28 6 C 6.17 g/m*3 6 C 0 km/h
1191 17-10-2008 03:18:28 5.9 C 6.2 g/m*3 5.9 C 0 km/h
1192 17-10-2008 03:23:28 5.9 C 6.2 g/m*3 5.9 C 0 km/h
1193 17-10-2008 03:28:28 5.9 C 6.2 g/m*3 5.9 C 0 km/h
1194 17-10-2008 03:33:28 5.9 C 6.2 g/m*3 5.9 C 0 km/h
1195 17-10-2008 03:38:28 5.8 C 6.16 g/m*3 5.8 C 0 km/h
1196 17-10-2008 03:43:28 5.7 C 6.12 g/m*3 5.7 C 0 km/h
1197 17-10-2008 03:48:28 5.6 C 6.15 g/m*3 5.6 C 0 km/h
1198 17-10-2008 03:53:28 5.7 C 6.19 g/m*3 5.7 C 0 km/h
1199 17-10-2008 03:58:28 5.7 C 6.19 g/m*3 5.7 C 0 km/h
1200 17-10-2008 04:03:28 5.7 C 6.19 g/m*3 5.7 C 0 km/h
Sensor: Nr:Datum:Temp:Abs-Feuchte:Windchill:Wind:
Aussen-T/F 1201 17-10-2008 04:08:28 5.7 C 6.19 g/m*3 5.7 C 0 km/h
1202 17-10-2008 04:13:28 5.8 C 6.23 g/m*3 5.8 C 0 km/h
1203 17-10-2008 04:18:28 5.8 C 6.23 g/m*3 5.8 C 0 km/h
1204 17-10-2008 04:23:29 5.9 C 6.2 g/m*3 5.9 C 0 km/h
1205 17-10-2008 04:28:29 5.9 C 6.2 g/m*3 5.9 C 0 km/h
1206 17-10-2008 04:33:29 5.9 C 6.2 g/m*3 5.9 C 0 km/h
1207 17-10-2008 04:38:29 6 C 6.1 g/m*3 6 C 0 km/h
1208 17-10-2008 04:43:29 6 C 6.1 g/m*3 6 C 0 km/h
1209 17-10-2008 04:48:29 6 C 6.1 g/m*3 6 C 0 km/h
1210 17-10-2008 04:53:29 6 C 6.1 g/m*3 6 C 0 km/h
1211 17-10-2008 04:58:29 6 C 6.1 g/m*3 6 C 0 km/h
1212 17-10-2008 05:03:29 6 C 6.1 g/m*3 6 C 0 km/h
1213 17-10-2008 05:08:29 6.3 C 6.22 g/m*3 6.3 C 0 km/h
1214 17-10-2008 05:13:29 6.4 C 6.18 g/m*3 6.4 C 0 km/h
1215 17-10-2008 05:18:29 6.4 C 6.11 g/m*3 6.4 C 0 km/h
1216 17-10-2008 05:23:29 6.5 C 6.15 g/m*3 6.5 C 0 km/h
1217 17-10-2008 05:28:29 6.5 C 6.15 g/m*3 6.5 C 0 km/h
1218 17-10-2008 05:33:29 6.5 C 6.07 g/m*3 6.5 C 0 km/h
1219 17-10-2008 05:38:29 6.5 C 6.07 g/m*3 6.5 C 0 km/h
1220 17-10-2008 05:43:29 6.5 C 6.07 g/m*3 6.5 C 0 km/h
1221 17-10-2008 05:48:29 6.4 C 6.04 g/m*3 6.4 C 0 km/h
1222 17-10-2008 05:53:29 6.4 C 6.04 g/m*3 6.4 C 0 km/h
1223 17-10-2008 05:58:30 6.4 C 6.04 g/m*3 6.4 C 0 km/h
1224 17-10-2008 06:03:30 6.3 C 6 g/m*3 6.3 C 0 km/h
1225 17-10-2008 06:08:30 6.3 C 6 g/m*3 6.3 C 0 km/h
Sensor: Nr:Datum:Temp:Abs-Feuchte:Windchill:Wind:
Aussen-T/F 1226 17-10-2008 06:13:30 6.1 C 5.99 g/m*3 6.1 C 0 km/h
1227 17-10-2008 06:18:30 6 C 5.95 g/m*3 6 C 0 km/h
1228 17-10-2008 06:23:30 6 C 5.95 g/m*3 6 C 0 km/h
1229 17-10-2008 06:28:30 5.9 C 5.98 g/m*3 5.9 C 0 km/h
1230 17-10-2008 06:33:30 5.9 C 6.06 g/m*3 5.9 C 0 km/h
1231 17-10-2008 06:38:30 5.9 C 6.06 g/m*3 5.9 C 0 km/h
1232 17-10-2008 06:43:30 5.9 C 6.06 g/m*3 5.9 C 0 km/h
1233 17-10-2008 06:48:03 5.8 C 6.09 g/m*3 5.8 C 0 km/h
1234 17-10-2008 06:53:03 5.7 C 6.05 g/m*3 5.7 C 0 km/h
1235 17-10-2008 06:58:03 5.7 C 6.05 g/m*3 5.7 C 0 km/h
1236 17-10-2008 07:03:03 5.7 C 6.05 g/m*3 5.7 C 0 km/h
1237 17-10-2008 07:08:03 5.6 C 6.01 g/m*3 5.6 C 0 km/h
1238 17-10-2008 07:13:03 5.6 C 6.08 g/m*3 5.6 C 0 km/h
1239 17-10-2008 07:18:03 5.5 C 6.04 g/m*3 5.5 C 0 km/h
1240 17-10-2008 07:23:03 5.4 C 6 g/m*3 5.4 C 0 km/h
1241 17-10-2008 07:28:03 5.4 C 6 g/m*3 5.4 C 0 km/h
1242 17-10-2008 07:33:03 5.3 C 5.96 g/m*3 5.3 C 0 km/h
1243 17-10-2008 07:38:03 5.3 C 6.03 g/m*3 5.3 C 0 km/h
1244 17-10-2008 07:43:03 5.2 C 5.99 g/m*3 5.2 C 0 km/h
1245 17-10-2008 07:48:02 5.2 C 5.99 g/m*3 5.2 C 0 km/h
1246 17-10-2008 07:53:02 5.1 C 5.95 g/m*3 5.1 C 0 km/h
1247 17-10-2008 07:58:02 5.2 C 5.99 g/m*3 5.2 C 0 km/h
1248 17-10-2008 08:03:02 5.2 C 5.99 g/m*3 5.2 C 0 km/h
1249 17-10-2008 08:08:02 5.1 C 5.95 g/m*3 5.1 C 0 km/h
1250 17-10-2008 08:13:02 5.1 C 5.95 g/m*3 5.1 C 0 km/h
Sensor: Nr:Datum:Temp:Abs-Feuchte:Windchill:Wind:
Aussen-T/F 1251 17-10-2008 08:18:03 5.2 C 6.06 g/m*3 5.2 C 0 km/h
1252 17-10-2008 08:23:03 5.2 C 6.06 g/m*3 5.2 C 0 km/h
1253 17-10-2008 08:28:03 5.2 C 6.06 g/m*3 5.2 C 0 km/h
1254 17-10-2008 08:33:03 5.2 C 6.06 g/m*3 5.2 C 0 km/h
1255 17-10-2008 08:38:03 5.2 C 6.06 g/m*3 5.2 C 0 km/h
1256 17-10-2008 08:43:04 5.4 C 6.14 g/m*3 5.4 C 0 km/h
1257 17-10-2008 08:48:02 5.5 C 6.18 g/m*3 5.5 C 0 km/h
1258 17-10-2008 08:53:02 5.6 C 6.22 g/m*3 5.6 C 0 km/h
1259 17-10-2008 08:58:02 5.5 C 6.11 g/m*3 5.5 C 0 km/h
1260 17-10-2008 09:03:02 5.7 C 6.26 g/m*3 5.7 C 0 km/h
1261 17-10-2008 09:08:02 5.9 C 6.27 g/m*3 5.9 C 0 km/h
1262 17-10-2008 09:13:02 5.9 C 6.27 g/m*3 5.9 C 0 km/h
1263 17-10-2008 09:18:02 6.1 C 6.28 g/m*3 6.1 C 0 km/h
1264 17-10-2008 09:23:02 6.2 C 6.25 g/m*3 6.2 C 0 km/h
1265 17-10-2008 09:28:02 6.2 C 6.25 g/m*3 6.2 C 0 km/h
1266 17-10-2008 09:33:02 6.3 C 6.22 g/m*3 6.3 C 0 km/h
1267 17-10-2008 09:38:02 6.7 C 6.38 g/m*3 6.7 C 0 km/h
1268 17-10-2008 09:43:02 6.8 C 6.35 g/m*3 6.8 C 0 km/h
1269 17-10-2008 09:48:02 6.8 C 6.35 g/m*3 6.8 C 0 km/h
1270 17-10-2008 09:53:03 7 C 6.28 g/m*3 7 C 0 km/h
1271 17-10-2008 09:58:03 7 C 6.28 g/m*3 7 C 0 km/h
1272 17-10-2008 10:03:03 7.3 C 6.32 g/m*3 7.3 C 0 km/h
1273 17-10-2008 10:08:03 7.4 C 6.28 g/m*3 7.4 C 0 km/h
1274 17-10-2008 10:13:03 7.5 C 6.32 g/m*3 7.5 C 0 km/h
1275 17-10-2008 10:18:02 7.4 C 6.2 g/m*3 7.4 C 0 km/h
Sensor: Nr:Datum:Temp:Abs-Feuchte:Windchill:Wind:
Aussen-T/F 1276 17-10-2008 10:23:02 7.6 C 6.28 g/m*3 7.6 C 0 km/h
1277 17-10-2008 10:28:03 7.8 C 6.37 g/m*3 7.8 C 0 km/h
1278 17-10-2008 10:33:03 7.9 C 6.41 g/m*3 7.9 C 0 km/h
1279 17-10-2008 10:38:03 8.1 C 6.32 g/m*3 8.1 C 0 km/h
1280 17-10-2008 10:43:03 8.2 C 6.28 g/m*3 8.2 C 0 km/h
1281 17-10-2008 10:48:02 8.2 C 6.2 g/m*3 8.2 C 0 km/h
1282 17-10-2008 10:53:02 8.2 C 6.28 g/m*3 8.2 C 0 km/h
1283 17-10-2008 10:58:02 8.2 C 6.28 g/m*3 8.2 C 0 km/h
1284 17-10-2008 11:03:02 8.2 C 6.36 g/m*3 8.2 C 0 km/h
1285 17-10-2008 11:08:02 8.1 C 6.24 g/m*3 8.1 C 0 km/h
1286 17-10-2008 11:13:02 8.1 C 6.24 g/m*3 8.1 C 0 km/h
1287 17-10-2008 11:18:02 8 C 6.2 g/m*3 8 C 0 km/h
1288 17-10-2008 11:23:02 8.1 C 6.32 g/m*3 8.1 C 0 km/h
1289 17-10-2008 11:28:02 8.2 C 6.36 g/m*3 8.2 C 0 km/h
1290 17-10-2008 11:33:02 8.2 C 6.28 g/m*3 8.2 C 0 km/h
1291 17-10-2008 11:38:02 8.3 C 6.41 g/m*3 8.3 C 0 km/h
1292 17-10-2008 11:43:02 8.5 C 6.49 g/m*3 8.5 C 0 km/h
1293 17-10-2008 11:48:02 8.6 C 6.44 g/m*3 8.6 C 0 km/h
1294 17-10-2008 11:53:03 8.7 C 6.49 g/m*3 8.7 C 0 km/h
1295 17-10-2008 11:58:03 8.9 C 6.57 g/m*3 8.9 C 0 km/h
1296 17-10-2008 12:03:01 9 C 6.52 g/m*3 9 C 0 km/h
1297 17-10-2008 12:08:01 9.3 C 6.56 g/m*3 9.3 C 0 km/h
1298 17-10-2008 12:13:01 9.4 C 6.6 g/m*3 9.4 C 0 km/h
1299 17-10-2008 12:18:02 9.5 C 6.64 g/m*3 9.5 C 0 km/h
1300 17-10-2008 12:23:02 9.7 C 6.55 g/m*3 9.7 C 0 km/h
Sensor: Nr:Datum:Temp:Abs-Feuchte:Windchill:Wind:
Aussen-T/F 1301 17-10-2008 12:28:02 9.8 C 6.59 g/m*3 9.8 C 0 km/h
1302 17-10-2008 12:33:01 10.1 C 6.52 g/m*3 10.1 C 0 km/h
1303 17-10-2008 12:38:01 10.6 C 6.64 g/m*3 10.6 C 0 km/h
1304 17-10-2008 12:43:01 10.7 C 6.48 g/m*3 10.7 C 0 km/h
1305 17-10-2008 12:48:02 11.2 C 6.39 g/m*3 11.2 C 0 km/h
1306 17-10-2008 12:53:02 11.6 C 6.44 g/m*3 11.6 C 0 km/h
1307 17-10-2008 12:58:02 11.6 C 6.34 g/m*3 11.6 C 0 km/h
1308 17-10-2008 13:03:02 11.7 C 6.38 g/m*3 11.7 C 0 km/h
1309 17-10-2008 13:08:02 11.8 C 6.31 g/m*3 11.8 C 0 km/h
1310 17-10-2008 13:13:02 12 C 6.29 g/m*3 12 C 0 km/h
1311 17-10-2008 13:18:02 12 C 6.18 g/m*3 12 C 0 km/h
1312 17-10-2008 13:23:02 12.4 C 6.01 g/m*3 12.4 C 0 km/h
1313 17-10-2008 13:28:02 12.8 C 5.71 g/m*3 12.8 C 0 km/h
1314 17-10-2008 13:33:01 13 C 5.78 g/m*3 13 C 0 km/h
1315 17-10-2008 13:38:01 12.6 C 5.64 g/m*3 12.6 C 0 km/h
1316 17-10-2008 13:43:01 12.5 C 5.5 g/m*3 12.5 C 0 km/h
1317 17-10-2008 13:48:01 12.7 C 5.45 g/m*3 12.7 C 0 km/h
1318 17-10-2008 13:53:01 13 C 5.33 g/m*3 13 C 0 km/h
1319 17-10-2008 13:58:01 13 C 5.22 g/m*3 13 C 0 km/h
1320 17-10-2008 14:03:02 13 C 5.22 g/m*3 13 C 0 km/h
1321 17-10-2008 14:08:02 12.6 C 5.2 g/m*3 12.6 C 0 km/h
1322 17-10-2008 14:13:03 12.4 C 5.24 g/m*3 12.4 C 0 km/h
1323 17-10-2008 14:18:01 12.2 C 5.29 g/m*3 12.2 C 0 km/h
1324 17-10-2008 14:23:01 12.2 C 5.5 g/m*3 12.2 C 0 km/h
1325 17-10-2008 14:28:01 12.2 C 5.5 g/m*3 12.2 C 0 km/h
Sensor: Nr:Datum:Temp:Abs-Feuchte:Windchill:Wind:
Aussen-T/F 1326 17-10-2008 14:33:02 12.3 C 5.43 g/m*3 12.3 C 0 km/h
1327 17-10-2008 14:38:02 12.4 C 5.46 g/m*3 12.4 C 0 km/h
1328 17-10-2008 14:43:02 12.5 C 5.39 g/m*3 12.5 C 0 km/h
1329 17-10-2008 14:48:02 12.6 C 5.42 g/m*3 12.6 C 0 km/h
1330 17-10-2008 14:53:02 12.6 C 5.42 g/m*3 12.6 C 0 km/h
1331 17-10-2008 14:58:02 12.8 C 5.49 g/m*3 12.8 C 0 km/h
1332 17-10-2008 15:03:02 13 C 5.22 g/m*3 13 C 0 km/h
1333 17-10-2008 15:08:02 13.5 C 5.26 g/m*3 13.5 C 0 km/h
1334 17-10-2008 15:13:02 13.3 C 5.2 g/m*3 13.3 C 0 km/h
1335 17-10-2008 15:18:02 13.2 C 5.17 g/m*3 13.2 C 0 km/h
1336 17-10-2008 15:23:02 13.2 C 5.28 g/m*3 13.2 C 0 km/h
1337 17-10-2008 15:28:02 13.2 C 5.28 g/m*3 13.2 C 0 km/h
1338 17-10-2008 15:33:02 13.4 C 5.11 g/m*3 13.4 C 0 km/h
1339 17-10-2008 15:38:02 13.1 C 5.02 g/m*3 13.1 C 0 km/h
1340 17-10-2008 15:43:02 13.1 C 5.02 g/m*3 13.1 C 0 km/h
1341 17-10-2008 15:48:02 12.9 C 5.07 g/m*3 12.9 C 0 km/h
1342 17-10-2008 15:53:02 12.8 C 5.15 g/m*3 12.8 C 0 km/h
1343 17-10-2008 15:58:02 13 C 5.1 g/m*3 13 C 0 km/h
1344 17-10-2008 16:03:03 13 C 5.22 g/m*3 13 C 0 km/h
1345 17-10-2008 16:08:03 12.8 C 5.04 g/m*3 12.8 C 0 km/h
1346 17-10-2008 16:13:03 12.6 C 5.09 g/m*3 12.6 C 0 km/h
1347 17-10-2008 16:18:02 12.5 C 5.06 g/m*3 12.5 C 0 km/h
1348 17-10-2008 16:23:02 12.4 C 5.14 g/m*3 12.4 C 0 km/h
1349 17-10-2008 16:28:02 12.3 C 5.43 g/m*3 12.3 C 0 km/h
1350 17-10-2008 16:33:04 12.2 C 5.5 g/m*3 12.2 C 0 km/h
Sensor: Nr:Datum:Temp:Abs-Feuchte:Windchill:Wind:
Aussen-T/F 1351 17-10-2008 16:38:04 12.1 C 5.68 g/m*3 12.1 C 0 km/h
1352 17-10-2008 16:43:04 12.1 C 5.58 g/m*3 12.1 C 0 km/h
1353 17-10-2008 16:48:02 12.2 C 5.72 g/m*3 12.2 C 0 km/h
1354 17-10-2008 16:53:02 12.2 C 5.83 g/m*3 12.2 C 0 km/h
1355 17-10-2008 16:58:02 12 C 5.86 g/m*3 12 C 0 km/h
1356 17-10-2008 17:03:03 12.1 C 6.01 g/m*3 12.1 C 0 km/h
1357 17-10-2008 17:08:03 12.1 C 6.01 g/m*3 12.1 C 0 km/h
1358 17-10-2008 17:13:03 12 C 6.07 g/m*3 12 C 0 km/h
1359 17-10-2008 17:18:03 11.9 C 6.35 g/m*3 11.9 C 0 km/h
1360 17-10-2008 17:23:03 11.8 C 6.21 g/m*3 11.8 C 0 km/h
1361 17-10-2008 17:28:03 11.8 C 6.31 g/m*3 11.8 C 0 km/h
1362 17-10-2008 17:33:02 12.1 C 6.33 g/m*3 12.1 C 0 km/h
1363 17-10-2008 17:38:03 12 C 6.29 g/m*3 12 C 0 km/h
1364 17-10-2008 17:43:03 12.1 C 6.22 g/m*3 12.1 C 0 km/h
1365 17-10-2008 17:48:02 11.6 C 6.13 g/m*3 11.6 C 0 km/h
1366 17-10-2008 17:53:02 11.5 C 6.09 g/m*3 11.5 C 0 km/h
1367 17-10-2008 17:58:02 11.4 C 6.06 g/m*3 11.4 C 0 km/h
1368 17-10-2008 18:03:02 11.3 C 6.02 g/m*3 11.3 C 0 km/h
1369 17-10-2008 18:08:02 11 C 6.01 g/m*3 11 C 0 km/h
1370 17-10-2008 18:13:02 10.8 C 6.13 g/m*3 10.8 C 0 km/h
1371 17-10-2008 18:18:02 10.6 C 6.15 g/m*3 10.6 C 0 km/h
1372 17-10-2008 18:23:02 10.3 C 6.22 g/m*3 10.3 C 0 km/h
1373 17-10-2008 18:28:02 10.3 C 6.22 g/m*3 10.3 C 0 km/h
1374 17-10-2008 18:33:02 9.8 C 6.22 g/m*3 9.8 C 0 km/h
1375 17-10-2008 18:38:02 9.6 C 6.23 g/m*3 9.6 C 0 km/h
Sensor: Nr:Datum:Temp:Abs-Feuchte:Windchill:Wind:
Aussen-T/F 1376 17-10-2008 18:43:02 9.5 C 6.19 g/m*3 9.5 C 0 km/h
1377 17-10-2008 18:48:02 9.3 C 6.11 g/m*3 9.3 C 0 km/h
1378 17-10-2008 18:53:02 9.1 C 6.12 g/m*3 9.1 C 0 km/h
1379 17-10-2008 18:58:02 8.9 C 6.22 g/m*3 8.9 C 0 km/h
1380 17-10-2008 19:03:02 8.8 C 6.18 g/m*3 8.8 C 0 km/h
1381 17-10-2008 19:08:02 8.7 C 6.14 g/m*3 8.7 C 0 km/h
1382 17-10-2008 19:13:02 8.5 C 6.15 g/m*3 8.5 C 0 km/h
1383 17-10-2008 19:18:02 8.5 C 6.15 g/m*3 8.5 C 0 km/h
1384 17-10-2008 19:23:02 8.4 C 6.11 g/m*3 8.4 C 0 km/h
1385 17-10-2008 19:28:02 8.2 C 6.03 g/m*3 8.2 C 0 km/h
1386 17-10-2008 19:33:02 8.2 C 6.03 g/m*3 8.2 C 0 km/h
1387 17-10-2008 19:38:02 8.1 C 5.99 g/m*3 8.1 C 0 km/h
1388 17-10-2008 19:43:03 7.9 C 6.08 g/m*3 7.9 C 0 km/h
1389 17-10-2008 19:48:02 7.9 C 6.08 g/m*3 7.9 C 0 km/h
1390 17-10-2008 19:53:02 7.8 C 6.12 g/m*3 7.8 C 0 km/h
1391 17-10-2008 19:58:02 7.6 C 6.04 g/m*3 7.6 C 0 km/h
1392 17-10-2008 20:03:03 7.5 C 6.08 g/m*3 7.5 C 0 km/h
1393 17-10-2008 20:08:03 7.5 C 6.08 g/m*3 7.5 C 0 km/h
1394 17-10-2008 20:13:03 7.4 C 5.96 g/m*3 7.4 C 0 km/h
1395 17-10-2008 20:18:02 7.4 C 6.04 g/m*3 7.4 C 0 km/h
1396 17-10-2008 20:23:02 7.4 C 6.12 g/m*3 7.4 C 0 km/h
1397 17-10-2008 20:28:02 7.2 C 5.97 g/m*3 7.2 C 0 km/h
1398 17-10-2008 20:33:02 7.2 C 6.04 g/m*3 7.2 C 0 km/h
1399 17-10-2008 20:38:02 7.2 C 6.04 g/m*3 7.2 C 0 km/h
1400 17-10-2008 20:43:02 6.9 C 6 g/m*3 6.9 C 0 km/h
Sensor: Nr:Datum:Temp:Abs-Feuchte:Windchill:Wind:
Aussen-T/F 1401 17-10-2008 20:48:02 6.8 C 5.97 g/m*3 6.8 C 0 km/h
1402 17-10-2008 20:53:02 6.8 C 6.04 g/m*3 6.8 C 0 km/h
1403 17-10-2008 20:58:02 6.8 C 6.04 g/m*3 6.8 C 0 km/h
1404 17-10-2008 21:03:01 6.7 C 6 g/m*3 6.7 C 0 km/h
1405 17-10-2008 21:08:01 6.7 C 6 g/m*3 6.7 C 0 km/h
1406 17-10-2008 21:13:01 6.6 C 5.96 g/m*3 6.6 C 0 km/h
1407 17-10-2008 21:18:01 6.5 C 5.92 g/m*3 6.5 C 0 km/h
1408 17-10-2008 21:23:01 6.5 C 6 g/m*3 6.5 C 0 km/h
1409 17-10-2008 21:28:01 6.5 C 6.07 g/m*3 6.5 C 0 km/h
1410 17-10-2008 21:33:02 6.4 C 6.04 g/m*3 6.4 C 0 km/h
1411 17-10-2008 21:38:02 6.4 C 6.04 g/m*3 6.4 C 0 km/h
1412 17-10-2008 21:43:02 6.5 C 6.15 g/m*3 6.5 C 0 km/h
1413 17-10-2008 21:48:02 6.4 C 6.11 g/m*3 6.4 C 0 km/h
1414 17-10-2008 21:53:02 6.3 C 6.07 g/m*3 6.3 C 0 km/h
1415 17-10-2008 21:58:02 6.2 C 6.03 g/m*3 6.2 C 0 km/h
1416 17-10-2008 22:03:03 6.2 C 6.03 g/m*3 6.2 C 0 km/h
1417 17-10-2008 22:08:03 6 C 5.95 g/m*3 6 C 0 km/h
1418 17-10-2008 22:13:03 5.9 C 5.98 g/m*3 5.9 C 0 km/h
1419 17-10-2008 22:18:03 5.8 C 5.95 g/m*3 5.8 C 0 km/h
1420 17-10-2008 22:23:03 5.7 C 5.91 g/m*3 5.7 C 0 km/h
1421 17-10-2008 22:28:03 5.7 C 5.98 g/m*3 5.7 C 0 km/h
1422 17-10-2008 22:33:03 5.6 C 5.94 g/m*3 5.6 C 0 km/h
1423 17-10-2008 22:38:03 5.6 C 5.94 g/m*3 5.6 C 0 km/h
1424 17-10-2008 22:43:03 5.5 C 5.97 g/m*3 5.5 C 0 km/h
1425 17-10-2008 22:48:02 5.5 C 5.97 g/m*3 5.5 C 0 km/h
Sensor: Nr:Datum:Temp:Abs-Feuchte:Windchill:Wind:
Aussen-T/F 1426 17-10-2008 22:53:02 5.4 C 5.93 g/m*3 5.4 C 0 km/h
1427 17-10-2008 22:58:02 5.4 C 5.93 g/m*3 5.4 C 0 km/h
1428 17-10-2008 23:03:03 5.3 C 5.89 g/m*3 5.3 C 0 km/h
1429 17-10-2008 23:08:03 5.3 C 5.89 g/m*3 5.3 C 0 km/h
1430 17-10-2008 23:13:03 5.3 C 5.96 g/m*3 5.3 C 0 km/h
1431 17-10-2008 23:18:02 5.2 C 5.92 g/m*3 5.2 C 0 km/h
1432 17-10-2008 23:23:02 5.2 C 5.92 g/m*3 5.2 C 0 km/h
1433 17-10-2008 23:28:03 5.1 C 5.88 g/m*3 5.1 C 0 km/h
1434 17-10-2008 23:33:02 5 C 5.84 g/m*3 5 C 0 km/h
1435 17-10-2008 23:38:02 5 C 5.84 g/m*3 5 C 0 km/h
1436 17-10-2008 23:43:02 5.1 C 5.95 g/m*3 5.1 C 0 km/h
1437 17-10-2008 23:48:02 5 C 5.91 g/m*3 5 C 0 km/h
1438 17-10-2008 23:53:03 5 C 5.91 g/m*3 5 C 0 km/h
1439 17-10-2008 23:58:03 5 C 5.91 g/m*3 5 C 0 km/h
1440 18-10-2008 00:03:02 5 C 5.91 g/m*3 5 C 0 km/h
1441 18-10-2008 00:08:02 4.8 C 5.9 g/m*3 4.8 C 0 km/h
1442 18-10-2008 00:13:02 4.7 C 5.86 g/m*3 4.7 C 0 km/h
1443 18-10-2008 00:18:02 4.6 C 5.82 g/m*3 4.6 C 0 km/h
1444 18-10-2008 00:23:02 4.7 C 5.93 g/m*3 4.7 C 0 km/h
1445 18-10-2008 00:28:02 4.7 C 5.93 g/m*3 4.7 C 0 km/h
1446 18-10-2008 00:33:02 4.6 C 5.89 g/m*3 4.6 C 0 km/h
1447 18-10-2008 00:38:02 4.4 C 5.81 g/m*3 4.4 C 0 km/h
1448 18-10-2008 00:43:02 4.4 C 5.81 g/m*3 4.4 C 0 km/h
1449 18-10-2008 00:48:02 4.3 C 5.77 g/m*3 4.3 C 0 km/h
1450 18-10-2008 00:53:03 4.4 C 5.81 g/m*3 4.4 C 0 km/h
Sensor: Nr:Datum:Temp:Abs-Feuchte:Windchill:Wind:
Aussen-T/F 1451 18-10-2008 00:58:03 4.3 C 5.77 g/m*3 4.3 C 0 km/h
1452 18-10-2008 01:03:02 4.3 C 5.77 g/m*3 4.3 C 0 km/h
1453 18-10-2008 01:08:03 4.2 C 5.73 g/m*3 4.2 C 0 km/h
1454 18-10-2008 01:13:03 4.2 C 5.8 g/m*3 4.2 C 0 km/h
1455 18-10-2008 01:18:02 4.2 C 5.8 g/m*3 4.2 C 0 km/h
1456 18-10-2008 01:23:02 4.2 C 5.8 g/m*3 4.2 C 0 km/h
1457 18-10-2008 01:28:02 4.1 C 5.76 g/m*3 4.1 C 0 km/h
1458 18-10-2008 01:33:02 4 C 5.72 g/m*3 4 C 0 km/h
1459 18-10-2008 01:38:02 4 C 5.72 g/m*3 4 C 0 km/h
1460 18-10-2008 01:43:02 4 C 5.72 g/m*3 4 C 0 km/h
1461 18-10-2008 01:48:02 4 C 5.72 g/m*3 4 C 0 km/h
1462 18-10-2008 01:53:02 3.9 C 5.75 g/m*3 3.9 C 0 km/h
1463 18-10-2008 01:58:02 3.8 C 5.71 g/m*3 3.8 C 0 km/h
1464 18-10-2008 02:03:02 3.8 C 5.71 g/m*3 3.8 C 0 km/h
1465 18-10-2008 02:08:02 3.8 C 5.71 g/m*3 3.8 C 0 km/h
1466 18-10-2008 02:13:02 3.7 C 5.67 g/m*3 3.7 C 0 km/h
1467 18-10-2008 02:18:01 3.6 C 5.63 g/m*3 3.6 C 0 km/h
1468 18-10-2008 02:23:01 3.6 C 5.63 g/m*3 3.6 C 0 km/h
1469 18-10-2008 02:28:01 3.5 C 5.6 g/m*3 3.5 C 0 km/h
1470 18-10-2008 02:33:02 3.4 C 5.56 g/m*3 3.4 C 0 km/h
1471 18-10-2008 02:38:02 3.4 C 5.56 g/m*3 3.4 C 0 km/h
1472 18-10-2008 02:43:02 3.4 C 5.56 g/m*3 3.4 C 0 km/h
1473 18-10-2008 02:49:03 3.3 C 5.52 g/m*3 3.3 C 0 km/h
1474 18-10-2008 02:54:03 3.2 C 5.48 g/m*3 3.2 C 0 km/h
1475 18-10-2008 02:59:03 3.2 C 5.48 g/m*3 3.2 C 0 km/h
Sensor: Nr:Datum:Temp:Abs-Feuchte:Windchill:Wind:
Aussen-T/F 1476 18-10-2008 03:04:03 3.2 C 5.48 g/m*3 3.2 C 0 km/h
1477 18-10-2008 03:09:03 3.2 C 5.48 g/m*3 3.2 C 0 km/h
1478 18-10-2008 03:14:03 3.2 C 5.48 g/m*3 3.2 C 0 km/h
1479 18-10-2008 03:19:03 3.3 C 5.52 g/m*3 3.3 C 0 km/h
1480 18-10-2008 03:24:03 3.4 C 5.62 g/m*3 3.4 C 0 km/h
1481 18-10-2008 03:29:03 3.5 C 5.66 g/m*3 3.5 C 0 km/h
1482 18-10-2008 03:34:01 3.5 C 5.66 g/m*3 3.5 C 0 km/h
1483 18-10-2008 03:39:01 3.6 C 5.69 g/m*3 3.6 C 0 km/h
1484 18-10-2008 03:44:01 3.7 C 5.73 g/m*3 3.7 C 0 km/h
1485 18-10-2008 03:49:01 3.7 C 5.8 g/m*3 3.7 C 0 km/h
1486 18-10-2008 03:54:01 3.7 C 5.8 g/m*3 3.7 C 0 km/h
1487 18-10-2008 03:59:01 3.7 C 5.8 g/m*3 3.7 C 0 km/h
1488 18-10-2008 04:04:01 3.8 C 5.83 g/m*3 3.8 C 0 km/h
1489 18-10-2008 04:09:01 3.8 C 5.83 g/m*3 3.8 C 0 km/h
1490 18-10-2008 04:14:01 3.8 C 5.83 g/m*3 3.8 C 0 km/h
1491 18-10-2008 04:19:01 3.8 C 5.83 g/m*3 3.8 C 0 km/h
1492 18-10-2008 04:24:01 3.9 C 5.87 g/m*3 3.9 C 0 km/h
1493 18-10-2008 04:29:01 3.9 C 5.87 g/m*3 3.9 C 0 km/h
1494 18-10-2008 04:34:01 3.9 C 5.87 g/m*3 3.9 C 0 km/h
1495 18-10-2008 04:39:01 3.8 C 5.83 g/m*3 3.8 C 0 km/h
1496 18-10-2008 04:44:01 3.8 C 5.83 g/m*3 3.8 C 0 km/h
1497 18-10-2008 04:49:03 3.7 C 5.8 g/m*3 3.7 C 0 km/h
1498 18-10-2008 04:54:03 3.7 C 5.8 g/m*3 3.7 C 0 km/h
1499 18-10-2008 04:59:03 3.7 C 5.8 g/m*3 3.7 C 0 km/h
1500 18-10-2008 05:04:02 3.7 C 5.8 g/m*3 3.7 C 0 km/h
Sensor: Nr:Datum:Temp:Abs-Feuchte:Windchill:Wind:
Aussen-T/F 1501 18-10-2008 05:09:02 3.7 C 5.8 g/m*3 3.7 C 0 km/h
1502 18-10-2008 05:14:02 3.7 C 5.8 g/m*3 3.7 C 0 km/h
1503 18-10-2008 05:19:02 3.7 C 5.8 g/m*3 3.7 C 0 km/h
1504 18-10-2008 05:24:02 3.7 C 5.8 g/m*3 3.7 C 0 km/h
1505 18-10-2008 05:29:02 3.7 C 5.8 g/m*3 3.7 C 0 km/h
1506 18-10-2008 05:34:02 3.7 C 5.8 g/m*3 3.7 C 0 km/h
1507 18-10-2008 05:39:03 3.7 C 5.8 g/m*3 3.7 C 0 km/h
1508 18-10-2008 05:44:03 3.7 C 5.8 g/m*3 3.7 C 0 km/h
1509 18-10-2008 05:49:02 3.7 C 5.8 g/m*3 3.7 C 0 km/h
1510 18-10-2008 05:54:02 3.6 C 5.76 g/m*3 3.6 C 0 km/h
1511 18-10-2008 05:59:03 3.4 C 5.62 g/m*3 3.4 C 0 km/h
1512 18-10-2008 06:04:01 3.4 C 5.62 g/m*3 3.4 C 0 km/h
1513 18-10-2008 06:09:01 3.4 C 5.62 g/m*3 3.4 C 0 km/h
1514 18-10-2008 06:14:01 3.4 C 5.62 g/m*3 3.4 C 0 km/h
1515 18-10-2008 06:19:02 3.5 C 5.66 g/m*3 3.5 C 0 km/h
1516 18-10-2008 06:24:02 3.5 C 5.66 g/m*3 3.5 C 0 km/h
1517 18-10-2008 06:29:02 3.4 C 5.62 g/m*3 3.4 C 0 km/h
1518 18-10-2008 06:34:01 3.3 C 5.58 g/m*3 3.3 C 0 km/h
1519 18-10-2008 06:39:01 3.4 C 5.62 g/m*3 3.4 C 0 km/h
1520 18-10-2008 06:44:01 3.2 C 5.48 g/m*3 3.2 C 0 km/h
1521 18-10-2008 06:49:01 3.2 C 5.48 g/m*3 3.2 C 0 km/h
1522 18-10-2008 06:54:01 3.2 C 5.48 g/m*3 3.2 C 0 km/h
1523 18-10-2008 06:59:01 3.1 C 5.45 g/m*3 3.1 C 0 km/h
1524 18-10-2008 07:04:02 3 C 5.41 g/m*3 3 C 0 km/h
1525 18-10-2008 07:09:02 3 C 5.41 g/m*3 3 C 0 km/h
Sensor: Nr:Datum:Temp:Abs-Feuchte:Windchill:Wind:
Aussen-T/F 1526 18-10-2008 07:14:02 2.8 C 5.4 g/m*3 2.8 C 0 km/h
1527 18-10-2008 07:19:01 2.7 C 5.36 g/m*3 2.7 C 0 km/h
1528 18-10-2008 07:24:01 2.7 C 5.36 g/m*3 2.7 C 0 km/h
1529 18-10-2008 07:29:01 2.7 C 5.42 g/m*3 2.7 C 0 km/h
1530 18-10-2008 07:34:02 2.7 C 5.42 g/m*3 2.7 C 0 km/h
1531 18-10-2008 07:39:02 2.6 C 5.38 g/m*3 2.6 C 0 km/h
1532 18-10-2008 07:44:02 2.5 C 5.35 g/m*3 2.5 C 0 km/h
1533 18-10-2008 07:49:02 2.7 C 5.42 g/m*3 2.7 C 0 km/h
1534 18-10-2008 07:54:03 2.7 C 5.42 g/m*3 2.7 C 0 km/h
1535 18-10-2008 07:59:03 2.7 C 5.42 g/m*3 2.7 C 0 km/h
1536 18-10-2008 08:04:02 2.7 C 5.42 g/m*3 2.7 C 0 km/h
1537 18-10-2008 08:09:02 2.7 C 5.42 g/m*3 2.7 C 0 km/h
1538 18-10-2008 08:14:02 2.7 C 5.42 g/m*3 2.7 C 0 km/h
1539 18-10-2008 08:19:02 2.7 C 5.42 g/m*3 2.7 C 0 km/h
1540 18-10-2008 08:24:02 2.8 C 5.46 g/m*3 2.8 C 0 km/h
1541 18-10-2008 08:29:02 2.7 C 5.42 g/m*3 2.7 C 0 km/h
1542 18-10-2008 08:34:02 2.7 C 5.42 g/m*3 2.7 C 0 km/h
1543 18-10-2008 08:39:02 2.8 C 5.46 g/m*3 2.8 C 0 km/h
1544 18-10-2008 08:44:02 2.8 C 5.46 g/m*3 2.8 C 0 km/h
1545 18-10-2008 08:49:02 3 C 5.47 g/m*3 3 C 0 km/h
1546 18-10-2008 08:54:02 3 C 5.47 g/m*3 3 C 0 km/h
1547 18-10-2008 08:59:02 3 C 5.47 g/m*3 3 C 0 km/h
1548 18-10-2008 09:04:02 3 C 5.47 g/m*3 3 C 0 km/h
1549 18-10-2008 09:09:02 2.9 C 5.43 g/m*3 2.9 C 0 km/h
1550 18-10-2008 09:14:02 2.8 C 5.4 g/m*3 2.8 C 0 km/h
Sensor: Nr:Datum:Temp:Abs-Feuchte:Windchill:Wind:
Aussen-T/F 1551 18-10-2008 09:19:02 2.9 C 5.43 g/m*3 2.9 C 0 km/h
1552 18-10-2008 09:24:02 3 C 5.41 g/m*3 3 C 0 km/h
1553 18-10-2008 09:29:02 3 C 5.41 g/m*3 3 C 0 km/h
1554 18-10-2008 09:34:02 3.1 C 5.45 g/m*3 3.1 C 0 km/h
1555 18-10-2008 09:39:02 3.1 C 5.45 g/m*3 3.1 C 0 km/h
1556 18-10-2008 09:44:02 3.2 C 5.54 g/m*3 3.2 C 0 km/h
1557 18-10-2008 09:49:02 3.3 C 5.58 g/m*3 3.3 C 0 km/h
1558 18-10-2008 09:54:02 3.3 C 5.58 g/m*3 3.3 C 0 km/h
1559 18-10-2008 09:59:02 3.4 C 5.62 g/m*3 3.4 C 0 km/h
1560 18-10-2008 10:04:02 3.4 C 5.62 g/m*3 3.4 C 0 km/h
1561 18-10-2008 10:09:03 3.5 C 5.66 g/m*3 3.5 C 0 km/h
1562 18-10-2008 10:14:03 3.5 C 5.66 g/m*3 3.5 C 0 km/h
1563 18-10-2008 10:19:02 3.6 C 5.69 g/m*3 3.6 C 0 km/h
1564 18-10-2008 10:24:02 3.7 C 5.73 g/m*3 3.7 C 0 km/h
1565 18-10-2008 10:29:02 3.7 C 5.67 g/m*3 3.7 C 0 km/h
1566 18-10-2008 10:34:01 3.7 C 5.67 g/m*3 3.7 C 0 km/h
1567 18-10-2008 10:39:01 3.8 C 5.71 g/m*3 3.8 C 0 km/h
1568 18-10-2008 10:44:01 3.9 C 5.75 g/m*3 3.9 C 0 km/h
1569 18-10-2008 10:49:02 4 C 5.72 g/m*3 4 C 0 km/h
1570 18-10-2008 10:54:02 4.2 C 5.8 g/m*3 4.2 C 0 km/h
1571 18-10-2008 10:59:02 4.3 C 5.84 g/m*3 4.3 C 0 km/h
1572 18-10-2008 11:04:02 4.4 C 5.81 g/m*3 4.4 C 0 km/h
1573 18-10-2008 11:09:02 4.4 C 5.81 g/m*3 4.4 C 0 km/h
1574 18-10-2008 11:14:02 4.5 C 5.78 g/m*3 4.5 C 0 km/h
1575 18-10-2008 11:19:02 4.7 C 5.86 g/m*3 4.7 C 0 km/h
Sensor: Nr:Datum:Temp:Abs-Feuchte:Windchill:Wind:
Aussen-T/F 1576 18-10-2008 11:24:02 4.7 C 5.8 g/m*3 4.7 C 0 km/h
1577 18-10-2008 11:29:02 4.8 C 5.83 g/m*3 4.8 C 0 km/h
1578 18-10-2008 11:34:02 5 C 5.84 g/m*3 5 C 0 km/h
1579 18-10-2008 11:39:02 5.2 C 5.92 g/m*3 5.2 C 0 km/h
1580 18-10-2008 11:44:02 5.2 C 5.85 g/m*3 5.2 C 0 km/h
1581 18-10-2008 11:49:02 5.2 C 5.85 g/m*3 5.2 C 0 km/h
1582 18-10-2008 11:54:02 5.2 C 5.78 g/m*3 5.2 C 0 km/h
1583 18-10-2008 11:59:02 5.5 C 5.9 g/m*3 5.5 C 0 km/h
1584 18-10-2008 12:04:02 5.7 C 5.98 g/m*3 5.7 C 0 km/h
1585 18-10-2008 12:09:03 6.2 C 6.1 g/m*3 6.2 C 0 km/h
1586 18-10-2008 12:14:03 6.5 C 6.22 g/m*3 6.5 C 0 km/h
1587 18-10-2008 12:19:02 6.5 C 6.15 g/m*3 6.5 C 0 km/h
1588 18-10-2008 12:24:02 6.5 C 6.07 g/m*3 6.5 C 0 km/h
1589 18-10-2008 12:29:02 6.7 C 6.15 g/m*3 6.7 C 0 km/h
1590 18-10-2008 12:34:03 6.7 C 6.15 g/m*3 6.7 C 0 km/h
1591 18-10-2008 12:39:03 6.9 C 6.31 g/m*3 6.9 C 0 km/h
1592 18-10-2008 12:44:03 7.2 C 6.36 g/m*3 7.2 C 0 km/h
1593 18-10-2008 12:49:02 7.5 C 6.48 g/m*3 7.5 C 0 km/h
1594 18-10-2008 12:54:02 7.8 C 6.61 g/m*3 7.8 C 0 km/h
1595 18-10-2008 12:59:02 8.1 C 6.57 g/m*3 8.1 C 0 km/h
1596 18-10-2008 13:04:03 8.5 C 6.66 g/m*3 8.5 C 0 km/h
1597 18-10-2008 13:09:03 8.5 C 6.66 g/m*3 8.5 C 0 km/h
1598 18-10-2008 13:14:03 9 C 6.61 g/m*3 9 C 0 km/h
1599 18-10-2008 13:19:02 9.5 C 6.74 g/m*3 9.5 C 0 km/h
1600 18-10-2008 13:24:02 9.6 C 6.69 g/m*3 9.6 C 0 km/h
Sensor: Nr:Datum:Temp:Abs-Feuchte:Windchill:Wind:
Aussen-T/F 1601 18-10-2008 13:29:02 10.1 C 6.62 g/m*3 10.1 C 0 km/h
1602 18-10-2008 13:34:06 10.5 C 6.69 g/m*3 10.5 C 0 km/h
1603 18-10-2008 13:39:06 10.7 C 6.68 g/m*3 10.7 C 0 km/h
1604 18-10-2008 13:44:06 11.1 C 6.55 g/m*3 11.1 C 0 km/h
1605 18-10-2008 13:49:02 11.4 C 6.67 g/m*3 11.4 C 0 km/h
1606 18-10-2008 13:54:02 11.7 C 6.69 g/m*3 11.7 C 0 km/h
1607 18-10-2008 13:59:02 12.1 C 6.86 g/m*3 12.1 C 0 km/h
1608 18-10-2008 14:04:02 12.6 C 7.08 g/m*3 12.6 C 0 km/h
1609 18-10-2008 14:09:02 13 C 7.03 g/m*3 13 C 0 km/h
1610 18-10-2008 14:14:02 13.2 C 7.12 g/m*3 13.2 C 0 km/h
1611 18-10-2008 14:19:02 13.5 C 7.02 g/m*3 13.5 C 0 km/h
1612 18-10-2008 14:24:02 13.8 C 7.03 g/m*3 13.8 C 0 km/h
1613 18-10-2008 14:29:02 13.9 C 6.83 g/m*3 13.9 C 0 km/h
1614 18-10-2008 14:34:02 14.5 C 6.84 g/m*3 14.5 C 0 km/h
1615 18-10-2008 14:39:02 14.8 C 6.84 g/m*3 14.8 C 0 km/h
1616 18-10-2008 14:44:02 15.1 C 6.45 g/m*3 15.1 C 0 km/h
1617 18-10-2008 14:49:02 15.2 C 6.36 g/m*3 15.2 C 0 km/h
1618 18-10-2008 14:54:02 15.5 C 6.21 g/m*3 15.5 C 0 km/h
1619 18-10-2008 14:59:02 15.8 C 6.06 g/m*3 15.8 C 0 km/h
1620 18-10-2008 15:04:02 15.9 C 6.09 g/m*3 15.9 C 0 km/h
1621 18-10-2008 15:09:02 16.1 C 6.03 g/m*3 16.1 C 0 km/h
1622 18-10-2008 15:14:02 16.1 C 5.21 g/m*3 16.1 C 0 km/h
1623 18-10-2008 15:19:02 16.2 C 5.52 g/m*3 16.2 C 0 km/h
1624 18-10-2008 15:24:02 16 C 5.04 g/m*3 16 C 0 km/h
1625 18-10-2008 15:29:03 15.8 C 5.12 g/m*3 15.8 C 0 km/h
Sensor: Nr:Datum:Temp:Abs-Feuchte:Windchill:Wind:
Aussen-T/F 1626 18-10-2008 15:34:01 15.7 C 4.82 g/m*3 15.7 C 0 km/h
1627 18-10-2008 15:39:01 15.6 C 4.79 g/m*3 15.6 C 0 km/h
1628 18-10-2008 15:44:01 15.4 C 4.73 g/m*3 15.4 C 0 km/h
1629 18-10-2008 15:49:02 15.7 C 4.55 g/m*3 15.7 C 0 km/h
1630 18-10-2008 15:54:02 15.8 C 4.58 g/m*3 15.8 C 0 km/h
1631 18-10-2008 15:59:02 15.8 C 4.58 g/m*3 15.8 C 0 km/h
1632 18-10-2008 16:04:02 16.2 C 4.96 g/m*3 16.2 C 0 km/h
1633 18-10-2008 16:09:02 16 C 4.5 g/m*3 16 C 0 km/h
1634 18-10-2008 16:14:02 15.3 C 4.57 g/m*3 15.3 C 0 km/h
1635 18-10-2008 16:19:01 15.4 C 4.47 g/m*3 15.4 C 0 km/h
1636 18-10-2008 16:24:01 15.4 C 4.34 g/m*3 15.4 C 0 km/h
1637 18-10-2008 16:29:01 15.6 C 4.52 g/m*3 15.6 C 0 km/h
1638 18-10-2008 16:34:02 15.5 C 4.63 g/m*3 15.5 C 0 km/h
1639 18-10-2008 16:39:02 15.6 C 4.65 g/m*3 15.6 C 0 km/h
1640 18-10-2008 16:44:02 15.6 C 4.79 g/m*3 15.6 C 0 km/h
1641 18-10-2008 16:49:02 15.6 C 4.92 g/m*3 15.6 C 0 km/h
1642 18-10-2008 16:54:02 15.8 C 4.98 g/m*3 15.8 C 0 km/h
1643 18-10-2008 16:59:03 15.8 C 4.98 g/m*3 15.8 C 0 km/h
1644 18-10-2008 17:04:02 15.5 C 4.76 g/m*3 15.5 C 0 km/h
1645 18-10-2008 17:09:02 15 C 4.87 g/m*3 15 C 0 km/h
1646 18-10-2008 17:14:02 14.7 C 4.78 g/m*3 14.7 C 0 km/h
1647 18-10-2008 17:19:02 14.2 C 4.64 g/m*3 14.2 C 0 km/h
1648 18-10-2008 17:24:02 13.8 C 4.77 g/m*3 13.8 C 0 km/h
1649 18-10-2008 17:29:02 13.7 C 4.74 g/m*3 13.7 C 0 km/h
1650 18-10-2008 17:34:02 13.7 C 4.86 g/m*3 13.7 C 0 km/h
Sensor: Nr:Datum:Temp:Abs-Feuchte:Windchill:Wind:
Aussen-T/F 1651 18-10-2008 17:39:02 13.3 C 4.85 g/m*3 13.3 C 0 km/h
1652 18-10-2008 17:44:02 12.9 C 5.07 g/m*3 12.9 C 0 km/h
1653 18-10-2008 17:49:02 12.7 C 4.9 g/m*3 12.7 C 0 km/h
1654 18-10-2008 17:54:02 12.5 C 4.95 g/m*3 12.5 C 0 km/h
1655 18-10-2008 17:59:02 12.5 C 5.06 g/m*3 12.5 C 0 km/h
1656 18-10-2008 18:04:03 12.4 C 5.03 g/m*3 12.4 C 0 km/h
1657 18-10-2008 18:09:03 12.3 C 5.1 g/m*3 12.3 C 0 km/h
1658 18-10-2008 18:14:03 12 C 5.12 g/m*3 12 C 0 km/h
1659 18-10-2008 18:19:02 12 C 5.12 g/m*3 12 C 0 km/h
1660 18-10-2008 18:24:02 11.5 C 5.16 g/m*3 11.5 C 0 km/h
1661 18-10-2008 18:29:02 11.3 C 5.1 g/m*3 11.3 C 0 km/h
1662 18-10-2008 18:34:03 11.2 C 5.17 g/m*3 11.2 C 0 km/h
1663 18-10-2008 18:39:03 11 C 5.1 g/m*3 11 C 0 km/h
1664 18-10-2008 18:44:03 10.9 C 5.27 g/m*3 10.9 C 0 km/h
1665 18-10-2008 18:49:02 10.8 C 5.44 g/m*3 10.8 C 0 km/h
1666 18-10-2008 18:54:02 10.8 C 5.44 g/m*3 10.8 C 0 km/h
1667 18-10-2008 18:59:02 10.8 C 5.54 g/m*3 10.8 C 0 km/h
1668 18-10-2008 19:04:02 10.6 C 5.47 g/m*3 10.6 C 0 km/h
1669 18-10-2008 19:09:02 10.5 C 5.53 g/m*3 10.5 C 0 km/h
1670 18-10-2008 19:14:02 10.3 C 5.46 g/m*3 10.3 C 0 km/h
1671 18-10-2008 19:19:02 10.2 C 5.61 g/m*3 10.2 C 0 km/h
1672 18-10-2008 19:24:02 10.1 C 5.58 g/m*3 10.1 C 0 km/h
1673 18-10-2008 19:29:02 9.9 C 5.6 g/m*3 9.9 C 0 km/h
1674 18-10-2008 19:34:02 9.7 C 5.62 g/m*3 9.7 C 0 km/h
1675 18-10-2008 19:39:02 9.5 C 5.64 g/m*3 9.5 C 0 km/h
Sensor: Nr:Datum:Temp:Abs-Feuchte:Windchill:Wind:
Aussen-T/F 1676 18-10-2008 19:44:02 9.5 C 5.73 g/m*3 9.5 C 0 km/h
1677 18-10-2008 19:49:02 9.2 C 5.63 g/m*3 9.2 C 0 km/h
1678 18-10-2008 19:54:02 9.2 C 5.71 g/m*3 9.2 C 0 km/h
1679 18-10-2008 19:59:02 9.1 C 5.77 g/m*3 9.1 C 0 km/h
1680 18-10-2008 20:04:03 9 C 5.73 g/m*3 9 C 0 km/h
1681 18-10-2008 20:09:03 8.8 C 5.83 g/m*3 8.8 C 0 km/h
1682 18-10-2008 20:14:03 8.7 C 5.79 g/m*3 8.7 C 0 km/h
1683 18-10-2008 20:19:02 8.6 C 5.84 g/m*3 8.6 C 0 km/h
1684 18-10-2008 20:24:02 8.6 C 5.84 g/m*3 8.6 C 0 km/h
1685 18-10-2008 20:29:02 8.5 C 5.81 g/m*3 8.5 C 0 km/h
1686 18-10-2008 20:34:02 8.5 C 5.72 g/m*3 8.5 C 0 km/h
1687 18-10-2008 20:39:02 8.5 C 5.72 g/m*3 8.5 C 0 km/h
1688 18-10-2008 20:44:02 8.4 C 5.77 g/m*3 8.4 C 0 km/h
1689 18-10-2008 20:49:03 8.4 C 5.77 g/m*3 8.4 C 0 km/h
1690 18-10-2008 20:54:03 8.3 C 5.82 g/m*3 8.3 C 0 km/h
1691 18-10-2008 20:59:03 8.3 C 5.82 g/m*3 8.3 C 0 km/h
1692 18-10-2008 21:04:02 8.2 C 5.78 g/m*3 8.2 C 0 km/h
1693 18-10-2008 21:09:02 8.1 C 5.74 g/m*3 8.1 C 0 km/h
1694 18-10-2008 21:14:03 8 C 5.79 g/m*3 8 C 0 km/h
1695 18-10-2008 21:19:02 7.9 C 5.83 g/m*3 7.9 C 0 km/h
1696 18-10-2008 21:24:02 7.8 C 5.79 g/m*3 7.8 C 0 km/h
1697 18-10-2008 21:29:02 7.8 C 5.88 g/m*3 7.8 C 0 km/h
1698 18-10-2008 21:34:03 7.7 C 5.84 g/m*3 7.7 C 0 km/h
1699 18-10-2008 21:39:03 7.6 C 5.88 g/m*3 7.6 C 0 km/h
1700 18-10-2008 21:44:03 7.4 C 5.81 g/m*3 7.4 C 0 km/h
Sensor: Nr:Datum:Temp:Abs-Feuchte:Windchill:Wind:
Aussen-T/F 1701 18-10-2008 21:49:02 7.3 C 5.77 g/m*3 7.3 C 0 km/h
1702 18-10-2008 21:54:02 7.3 C 5.85 g/m*3 7.3 C 0 km/h
1703 18-10-2008 21:59:03 7.3 C 5.85 g/m*3 7.3 C 0 km/h
1704 18-10-2008 22:04:01 7.2 C 5.89 g/m*3 7.2 C 0 km/h
1705 18-10-2008 22:09:01 7.2 C 5.89 g/m*3 7.2 C 0 km/h
1706 18-10-2008 22:14:01 7 C 5.81 g/m*3 7 C 0 km/h
1707 18-10-2008 22:20:03 7 C 5.81 g/m*3 7 C 0 km/h
1708 18-10-2008 22:25:03 6.9 C 5.93 g/m*3 6.9 C 0 km/h
1709 18-10-2008 22:30:03 6.8 C 5.89 g/m*3 6.8 C 0 km/h
1710 18-10-2008 22:35:03 6.7 C 5.85 g/m*3 6.7 C 0 km/h
1711 18-10-2008 22:40:03 6.6 C 5.81 g/m*3 6.6 C 0 km/h
1712 18-10-2008 22:45:03 6.6 C 5.81 g/m*3 6.6 C 0 km/h
1713 18-10-2008 22:50:03 6.4 C 5.81 g/m*3 6.4 C 0 km/h
1714 18-10-2008 22:55:03 6.3 C 5.77 g/m*3 6.3 C 0 km/h
1715 18-10-2008 23:00:03 6.3 C 5.77 g/m*3 6.3 C 0 km/h
1716 18-10-2008 23:05:03 6.2 C 5.81 g/m*3 6.2 C 0 km/h
1717 18-10-2008 23:10:03 6.2 C 5.88 g/m*3 6.2 C 0 km/h
1718 18-10-2008 23:15:03 6.2 C 5.88 g/m*3 6.2 C 0 km/h
1719 18-10-2008 23:20:03 6 C 5.88 g/m*3 6 C 0 km/h
1720 18-10-2008 23:25:03 6 C 5.81 g/m*3 6 C 0 km/h
1721 18-10-2008 23:30:04 5.9 C 5.84 g/m*3 5.9 C 0 km/h
1722 18-10-2008 23:35:04 5.8 C 5.8 g/m*3 5.8 C 0 km/h
1723 18-10-2008 23:40:04 5.8 C 5.87 g/m*3 5.8 C 0 km/h
1724 18-10-2008 23:45:04 5.8 C 5.87 g/m*3 5.8 C 0 km/h
1725 18-10-2008 23:50:04 5.8 C 5.95 g/m*3 5.8 C 0 km/h
Sensor: Nr:Datum:Temp:Abs-Feuchte:Windchill:Wind:
Aussen-T/F 1726 18-10-2008 23:55:04 5.8 C 5.95 g/m*3 5.8 C 0 km/h
1727 19-10-2008 00:00:04 5.8 C 5.95 g/m*3 5.8 C 0 km/h
1728 19-10-2008 00:05:04 5.7 C 5.91 g/m*3 5.7 C 0 km/h
1729 19-10-2008 00:10:04 5.7 C 5.91 g/m*3 5.7 C 0 km/h
1730 19-10-2008 00:15:04 5.7 C 5.98 g/m*3 5.7 C 0 km/h
1731 19-10-2008 00:20:04 5.7 C 5.98 g/m*3 5.7 C 0 km/h
1732 19-10-2008 00:25:04 5.7 C 5.98 g/m*3 5.7 C 0 km/h
1733 19-10-2008 00:30:04 5.6 C 5.94 g/m*3 5.6 C 0 km/h
1734 19-10-2008 00:35:04 5.6 C 5.94 g/m*3 5.6 C 0 km/h
1735 19-10-2008 00:40:04 5.5 C 5.9 g/m*3 5.5 C 0 km/h
1736 19-10-2008 00:45:04 5.5 C 5.9 g/m*3 5.5 C 0 km/h
1737 19-10-2008 00:50:04 5.4 C 5.86 g/m*3 5.4 C 0 km/h
1738 19-10-2008 00:55:04 5.4 C 5.86 g/m*3 5.4 C 0 km/h
1739 19-10-2008 01:00:04 5.4 C 5.93 g/m*3 5.4 C 0 km/h
1740 19-10-2008 01:05:05 5.3 C 5.89 g/m*3 5.3 C 0 km/h
1741 19-10-2008 01:10:05 5.3 C 5.89 g/m*3 5.3 C 0 km/h
1742 19-10-2008 01:15:05 5.2 C 5.85 g/m*3 5.2 C 0 km/h
1743 19-10-2008 01:20:05 5 C 5.78 g/m*3 5 C 0 km/h
1744 19-10-2008 01:25:05 5 C 5.71 g/m*3 5 C 0 km/h
1745 19-10-2008 01:30:05 4.9 C 5.74 g/m*3 4.9 C 0 km/h
1746 19-10-2008 01:35:05 4.9 C 5.81 g/m*3 4.9 C 0 km/h
1747 19-10-2008 01:40:05 4.8 C 5.83 g/m*3 4.8 C 0 km/h
1748 19-10-2008 01:45:05 4.7 C 5.8 g/m*3 4.7 C 0 km/h
1749 19-10-2008 01:50:05 4.6 C 5.82 g/m*3 4.6 C 0 km/h
1750 19-10-2008 01:55:05 4.5 C 5.78 g/m*3 4.5 C 0 km/h
Sensor: Nr:Datum:Temp:Abs-Feuchte:Windchill:Wind:
Aussen-T/F 1751 19-10-2008 02:00:05 4.5 C 5.78 g/m*3 4.5 C 0 km/h
1752 19-10-2008 02:05:05 4.5 C 5.85 g/m*3 4.5 C 0 km/h
1753 19-10-2008 02:10:05 4.6 C 5.89 g/m*3 4.6 C 0 km/h
1754 19-10-2008 02:15:05 4.6 C 5.89 g/m*3 4.6 C 0 km/h
1755 19-10-2008 02:20:05 4.6 C 5.89 g/m*3 4.6 C 0 km/h
1756 19-10-2008 02:25:05 4.5 C 5.85 g/m*3 4.5 C 0 km/h
1757 19-10-2008 02:30:05 4.5 C 5.85 g/m*3 4.5 C 0 km/h
1758 19-10-2008 02:35:05 4.6 C 5.89 g/m*3 4.6 C 0 km/h
1759 19-10-2008 02:40:05 4.6 C 5.96 g/m*3 4.6 C 0 km/h
1760 19-10-2008 02:45:05 4.6 C 5.96 g/m*3 4.6 C 0 km/h
1761 19-10-2008 02:50:06 4.6 C 5.96 g/m*3 4.6 C 0 km/h
1762 19-10-2008 02:55:06 4.6 C 5.96 g/m*3 4.6 C 0 km/h
1763 19-10-2008 03:00:06 4.5 C 5.92 g/m*3 4.5 C 0 km/h
1764 19-10-2008 03:05:06 4.5 C 5.92 g/m*3 4.5 C 0 km/h
1765 19-10-2008 03:10:06 4.3 C 5.84 g/m*3 4.3 C 0 km/h
1766 19-10-2008 03:15:06 4.3 C 5.84 g/m*3 4.3 C 0 km/h
1767 19-10-2008 03:20:06 4.4 C 5.88 g/m*3 4.4 C 0 km/h
1768 19-10-2008 03:25:06 4.5 C 5.92 g/m*3 4.5 C 0 km/h
1769 19-10-2008 03:30:06 4.6 C 6.02 g/m*3 4.6 C 0 km/h
1770 19-10-2008 03:35:06 4.6 C 6.02 g/m*3 4.6 C 0 km/h
1771 19-10-2008 03:40:06 4.6 C 6.02 g/m*3 4.6 C 0 km/h
1772 19-10-2008 03:45:06 4.6 C 6.02 g/m*3 4.6 C 0 km/h
1773 19-10-2008 03:50:06 4.6 C 5.96 g/m*3 4.6 C 0 km/h
1774 19-10-2008 03:55:06 4.6 C 5.96 g/m*3 4.6 C 0 km/h
1775 19-10-2008 04:00:06 4.6 C 5.96 g/m*3 4.6 C 0 km/h
Sensor: Nr:Datum:Temp:Abs-Feuchte:Windchill:Wind:
Aussen-T/F 1776 19-10-2008 04:05:06 4.6 C 5.96 g/m*3 4.6 C 0 km/h
1777 19-10-2008 04:10:06 4.6 C 5.96 g/m*3 4.6 C 0 km/h
1778 19-10-2008 04:15:06 4.5 C 5.92 g/m*3 4.5 C 0 km/h
1779 19-10-2008 04:20:06 4.6 C 5.96 g/m*3 4.6 C 0 km/h
1780 19-10-2008 04:25:06 4.4 C 5.88 g/m*3 4.4 C 0 km/h
1781 19-10-2008 04:30:07 4.3 C 5.84 g/m*3 4.3 C 0 km/h
1782 19-10-2008 04:35:07 4.2 C 5.8 g/m*3 4.2 C 0 km/h
1783 19-10-2008 04:40:07 4.4 C 5.88 g/m*3 4.4 C 0 km/h
1784 19-10-2008 04:45:07 4.6 C 6.02 g/m*3 4.6 C 0 km/h
1785 19-10-2008 04:50:07 4.6 C 6.02 g/m*3 4.6 C 0 km/h
1786 19-10-2008 04:55:07 4.7 C 6.06 g/m*3 4.7 C 0 km/h
1787 19-10-2008 05:00:07 4.8 C 6.1 g/m*3 4.8 C 0 km/h
1788 19-10-2008 05:05:07 4.8 C 6.1 g/m*3 4.8 C 0 km/h
1789 19-10-2008 05:10:07 4.8 C 6.04 g/m*3 4.8 C 0 km/h
1790 19-10-2008 05:15:07 4.8 C 6.04 g/m*3 4.8 C 0 km/h
1791 19-10-2008 05:20:07 5 C 6.05 g/m*3 5 C 0 km/h
1792 19-10-2008 05:25:07 5 C 6.05 g/m*3 5 C 0 km/h
1793 19-10-2008 05:30:07 5 C 5.98 g/m*3 5 C 0 km/h
1794 19-10-2008 05:35:07 4.8 C 5.97 g/m*3 4.8 C 0 km/h
1795 19-10-2008 05:40:07 4.8 C 5.97 g/m*3 4.8 C 0 km/h
1796 19-10-2008 05:45:07 4.7 C 5.93 g/m*3 4.7 C 0 km/h
1797 19-10-2008 05:50:07 4.4 C 5.81 g/m*3 4.4 C 0 km/h
1798 19-10-2008 05:55:07 4.3 C 5.77 g/m*3 4.3 C 0 km/h
1799 19-10-2008 06:00:07 4.2 C 5.73 g/m*3 4.2 C 0 km/h
1800 19-10-2008 06:05:07 4.1 C 5.7 g/m*3 4.1 C 0 km/h
Sensor: Nr:Datum:Temp:Abs-Feuchte:Windchill:Wind:
Aussen-T/F 1801 19-10-2008 06:10:07 4.1 C 5.7 g/m*3 4.1 C 0 km/h
1802 19-10-2008 06:15:08 4 C 5.72 g/m*3 4 C 0 km/h
1803 19-10-2008 06:20:08 3.8 C 5.71 g/m*3 3.8 C 0 km/h
1804 19-10-2008 06:25:08 3.9 C 5.75 g/m*3 3.9 C 0 km/h
1805 19-10-2008 06:30:08 3.8 C 5.71 g/m*3 3.8 C 0 km/h
1806 19-10-2008 06:35:08 3.8 C 5.77 g/m*3 3.8 C 0 km/h
1807 19-10-2008 06:40:08 3.7 C 5.73 g/m*3 3.7 C 0 km/h
1808 19-10-2008 06:45:08 3.6 C 5.69 g/m*3 3.6 C 0 km/h
1809 19-10-2008 06:50:08 3.5 C 5.66 g/m*3 3.5 C 0 km/h
1810 19-10-2008 06:55:08 3.5 C 5.66 g/m*3 3.5 C 0 km/h
1811 19-10-2008 07:00:08 3.4 C 5.62 g/m*3 3.4 C 0 km/h
1812 19-10-2008 07:05:08 3.3 C 5.58 g/m*3 3.3 C 0 km/h
1813 19-10-2008 07:10:08 3.2 C 5.48 g/m*3 3.2 C 0 km/h
1814 19-10-2008 07:15:08 3.2 C 5.54 g/m*3 3.2 C 0 km/h
1815 19-10-2008 07:20:08 3.2 C 5.54 g/m*3 3.2 C 0 km/h
1816 19-10-2008 07:25:08 3.1 C 5.51 g/m*3 3.1 C 0 km/h
1817 19-10-2008 07:30:08 3.1 C 5.51 g/m*3 3.1 C 0 km/h
1818 19-10-2008 07:35:08 3.1 C 5.51 g/m*3 3.1 C 0 km/h
1819 19-10-2008 07:40:08 3.1 C 5.51 g/m*3 3.1 C 0 km/h
1820 19-10-2008 07:45:08 3.1 C 5.51 g/m*3 3.1 C 0 km/h
1821 19-10-2008 07:50:08 3.1 C 5.51 g/m*3 3.1 C 0 km/h
1822 19-10-2008 07:55:08 3.1 C 5.51 g/m*3 3.1 C 0 km/h
1823 19-10-2008 08:00:09 3.1 C 5.51 g/m*3 3.1 C 0 km/h
1824 19-10-2008 08:05:09 3.1 C 5.51 g/m*3 3.1 C 0 km/h
1825 19-10-2008 08:10:09 3.1 C 5.51 g/m*3 3.1 C 0 km/h
Sensor: Nr:Datum:Temp:Abs-Feuchte:Windchill:Wind:
Aussen-T/F 1826 19-10-2008 08:15:09 3.1 C 5.51 g/m*3 3.1 C 0 km/h
1827 19-10-2008 08:20:09 3.1 C 5.51 g/m*3 3.1 C 0 km/h
1828 19-10-2008 08:25:09 3.1 C 5.51 g/m*3 3.1 C 0 km/h
1829 19-10-2008 08:30:09 3.2 C 5.54 g/m*3 3.2 C 0 km/h
1830 19-10-2008 08:35:09 3.2 C 5.6 g/m*3 3.2 C 0 km/h
1831 19-10-2008 08:40:09 3.2 C 5.6 g/m*3 3.2 C 0 km/h
1832 19-10-2008 08:45:09 3.3 C 5.64 g/m*3 3.3 C 0 km/h
1833 19-10-2008 08:50:09 3.4 C 5.68 g/m*3 3.4 C 0 km/h
1834 19-10-2008 08:55:09 3.4 C 5.68 g/m*3 3.4 C 0 km/h
1835 19-10-2008 09:00:09 3.5 C 5.72 g/m*3 3.5 C 0 km/h
1836 19-10-2008 09:05:09 3.5 C 5.72 g/m*3 3.5 C 0 km/h
1837 19-10-2008 09:10:09 3.6 C 5.76 g/m*3 3.6 C 0 km/h
1838 19-10-2008 09:15:09 3.7 C 5.8 g/m*3 3.7 C 0 km/h
1839 19-10-2008 09:20:09 3.7 C 5.8 g/m*3 3.7 C 0 km/h
1840 19-10-2008 09:25:09 3.9 C 5.87 g/m*3 3.9 C 0 km/h
1841 19-10-2008 09:30:09 4 C 5.91 g/m*3 4 C 0 km/h
1842 19-10-2008 09:35:03 4.1 C 5.95 g/m*3 4.1 C 0 km/h
1843 19-10-2008 09:40:03 4.2 C 5.99 g/m*3 4.2 C 0 km/h
1844 19-10-2008 09:45:02 4.3 C 6.03 g/m*3 4.3 C 0 km/h
1845 19-10-2008 09:50:02 4.4 C 6.07 g/m*3 4.4 C 0 km/h
1846 19-10-2008 09:55:02 4.5 C 6.11 g/m*3 4.5 C 0 km/h
1847 19-10-2008 10:00:02 4.5 C 6.11 g/m*3 4.5 C 0 km/h
1848 19-10-2008 10:05:02 4.7 C 6.19 g/m*3 4.7 C 0 km/h
1849 19-10-2008 10:10:02 4.9 C 6.28 g/m*3 4.9 C 0 km/h
1850 19-10-2008 10:15:02 4.9 C 6.28 g/m*3 4.9 C 0 km/h
Sensor: Nr:Datum:Temp:Abs-Feuchte:Windchill:Wind:
Aussen-T/F 1851 19-10-2008 10:20:02 5 C 6.32 g/m*3 5 C 0 km/h
1852 19-10-2008 10:25:02 5.2 C 6.4 g/m*3 5.2 C 0 km/h
1853 19-10-2008 10:30:02 5.4 C 6.49 g/m*3 5.4 C 0 km/h
1854 19-10-2008 10:35:03 5.5 C 6.53 g/m*3 5.5 C 0 km/h
1855 19-10-2008 10:40:03 5.8 C 6.66 g/m*3 5.8 C 0 km/h
1856 19-10-2008 10:45:02 6.2 C 6.84 g/m*3 6.2 C 0 km/h
1857 19-10-2008 10:50:02 6.4 C 6.93 g/m*3 6.4 C 0 km/h
1858 19-10-2008 10:55:02 6.8 C 7.11 g/m*3 6.8 C 0 km/h
1859 19-10-2008 11:00:02 7.3 C 7.35 g/m*3 7.3 C 0 km/h
1860 19-10-2008 11:05:02 7.3 C 7.27 g/m*3 7.3 C 0 km/h
1861 19-10-2008 11:10:02 7.7 C 7.46 g/m*3 7.7 C 0 km/h
1862 19-10-2008 11:15:02 7.9 C 7.47 g/m*3 7.9 C 0 km/h
1863 19-10-2008 11:20:02 8 C 7.36 g/m*3 8 C 0 km/h
1864 19-10-2008 11:25:02 8.3 C 7.33 g/m*3 8.3 C 0 km/h
1865 19-10-2008 11:30:02 8.5 C 7.26 g/m*3 8.5 C 0 km/h
1866 19-10-2008 11:35:02 8.8 C 7.14 g/m*3 8.8 C 0 km/h
1867 19-10-2008 11:40:02 8.8 C 7.05 g/m*3 8.8 C 0 km/h
1868 19-10-2008 11:45:02 9 C 6.88 g/m*3 9 C 0 km/h
1869 19-10-2008 11:50:02 9.2 C 6.79 g/m*3 9.2 C 0 km/h
1870 19-10-2008 11:55:02 9.2 C 6.7 g/m*3 9.2 C 0 km/h
1871 19-10-2008 12:00:02 9.5 C 6.64 g/m*3 9.5 C 0 km/h
1872 19-10-2008 12:05:02 9.7 C 6.55 g/m*3 9.7 C 0 km/h
1873 19-10-2008 12:10:02 9.8 C 6.59 g/m*3 9.8 C 0 km/h
1874 19-10-2008 12:15:02 10 C 6.39 g/m*3 10 C 0 km/h
1875 19-10-2008 12:20:02 10.2 C 6.47 g/m*3 10.2 C 0 km/h
Sensor: Nr:Datum:Temp:Abs-Feuchte:Windchill:Wind:
Aussen-T/F 1876 19-10-2008 12:25:02 10.5 C 6.4 g/m*3 10.5 C 0 km/h
1877 19-10-2008 12:30:02 10.6 C 6.44 g/m*3 10.6 C 0 km/h
1878 19-10-2008 12:35:02 10.9 C 6.47 g/m*3 10.9 C 0 km/h
1879 19-10-2008 12:40:03 11.2 C 6.39 g/m*3 11.2 C 0 km/h
1880 19-10-2008 12:45:02 11.4 C 6.26 g/m*3 11.4 C 0 km/h
1881 19-10-2008 12:50:02 11.6 C 6.13 g/m*3 11.6 C 0 km/h
1882 19-10-2008 12:55:02 12 C 6.07 g/m*3 12 C 0 km/h
1883 19-10-2008 13:00:02 12 C 5.97 g/m*3 12 C 0 km/h
1884 19-10-2008 13:05:02 12.2 C 5.94 g/m*3 12.2 C 0 km/h
1885 19-10-2008 13:10:02 12.6 C 6.08 g/m*3 12.6 C 0 km/h
1886 19-10-2008 13:15:02 12.8 C 6.16 g/m*3 12.8 C 0 km/h
1887 19-10-2008 13:20:03 13 C 6.01 g/m*3 13 C 0 km/h
1888 19-10-2008 13:25:03 13.2 C 5.86 g/m*3 13.2 C 0 km/h
1889 19-10-2008 13:30:03 13.4 C 5.93 g/m*3 13.4 C 0 km/h
1890 19-10-2008 13:35:02 13.4 C 5.81 g/m*3 13.4 C 0 km/h
1891 19-10-2008 13:40:02 13.5 C 5.85 g/m*3 13.5 C 0 km/h
1892 19-10-2008 13:45:02 13.7 C 5.92 g/m*3 13.7 C 0 km/h
1893 19-10-2008 13:50:02 13.7 C 5.92 g/m*3 13.7 C 0 km/h
1894 19-10-2008 13:55:02 13.8 C 5.96 g/m*3 13.8 C 0 km/h
1895 19-10-2008 14:00:02 13.9 C 5.87 g/m*3 13.9 C 0 km/h
1896 19-10-2008 14:05:02 13.9 C 5.75 g/m*3 13.9 C 0 km/h
1897 19-10-2008 14:10:02 14.1 C 5.7 g/m*3 14.1 C 0 km/h
1898 19-10-2008 14:15:02 14.2 C 5.74 g/m*3 14.2 C 0 km/h
1899 19-10-2008 14:20:02 14.4 C 5.81 g/m*3 14.4 C 0 km/h
1900 19-10-2008 14:25:02 14.3 C 5.77 g/m*3 14.3 C 0 km/h
Sensor: Nr:Datum:Temp:Abs-Feuchte:Windchill:Wind:
Aussen-T/F 1901 19-10-2008 14:30:02 14.5 C 5.85 g/m*3 14.5 C 0 km/h
1902 19-10-2008 14:35:02 14.5 C 5.72 g/m*3 14.5 C 0 km/h
1903 19-10-2008 14:40:02 14.5 C 5.72 g/m*3 14.5 C 0 km/h
1904 19-10-2008 14:45:02 14.8 C 5.7 g/m*3 14.8 C 0 km/h
1905 19-10-2008 14:50:02 15 C 5.64 g/m*3 15 C 0 km/h
1906 19-10-2008 14:55:02 15.1 C 5.55 g/m*3 15.1 C 0 km/h
1907 19-10-2008 15:00:02 15.3 C 5.35 g/m*3 15.3 C 0 km/h
1908 19-10-2008 15:05:02 15.5 C 5.42 g/m*3 15.5 C 0 km/h
1909 19-10-2008 15:10:02 15.4 C 5.39 g/m*3 15.4 C 0 km/h
1910 19-10-2008 15:15:02 15.4 C 5.39 g/m*3 15.4 C 0 km/h
1911 19-10-2008 15:20:02 15.3 C 5.35 g/m*3 15.3 C 0 km/h
1912 19-10-2008 15:25:02 15.2 C 5.32 g/m*3 15.2 C 0 km/h
1913 19-10-2008 15:30:02 15.2 C 5.32 g/m*3 15.2 C 0 km/h
1914 19-10-2008 15:35:02 15.2 C 5.32 g/m*3 15.2 C 0 km/h
1915 19-10-2008 15:40:02 15.3 C 5.35 g/m*3 15.3 C 0 km/h
1916 19-10-2008 15:45:02 15.4 C 5.39 g/m*3 15.4 C 0 km/h
1917 19-10-2008 15:50:02 15.7 C 5.35 g/m*3 15.7 C 0 km/h
1918 19-10-2008 15:55:02 15.9 C 5.28 g/m*3 15.9 C 0 km/h
1919 19-10-2008 16:00:02 15.8 C 5.25 g/m*3 15.8 C 0 km/h
1920 19-10-2008 16:05:02 16.2 C 5.24 g/m*3 16.2 C 0 km/h
1921 19-10-2008 16:10:02 16.3 C 5.13 g/m*3 16.3 C 0 km/h
1922 19-10-2008 16:15:02 16.4 C 5.16 g/m*3 16.4 C 0 km/h
1923 19-10-2008 16:20:02 16.3 C 5.13 g/m*3 16.3 C 0 km/h
1924 19-10-2008 16:25:02 16.3 C 5.27 g/m*3 16.3 C 0 km/h
1925 19-10-2008 16:30:02 16.2 C 5.24 g/m*3 16.2 C 0 km/h
Sensor: Nr:Datum:Temp:Abs-Feuchte:Windchill:Wind:
Aussen-T/F 1926 19-10-2008 16:35:02 16.2 C 5.24 g/m*3 16.2 C 0 km/h
1927 19-10-2008 16:40:02 16.4 C 5.3 g/m*3 16.4 C 0 km/h
1928 19-10-2008 16:45:03 16.2 C 5.1 g/m*3 16.2 C 0 km/h
1929 19-10-2008 16:50:03 16.1 C 5.21 g/m*3 16.1 C 0 km/h
1930 19-10-2008 16:55:03 15.9 C 5.28 g/m*3 15.9 C 0 km/h
1931 19-10-2008 17:00:03 15.7 C 5.35 g/m*3 15.7 C 0 km/h
1932 19-10-2008 17:05:02 15.6 C 5.45 g/m*3 15.6 C 0 km/h
1933 19-10-2008 17:10:02 15.4 C 5.39 g/m*3 15.4 C 0 km/h
1934 19-10-2008 17:15:02 15.3 C 5.62 g/m*3 15.3 C 0 km/h
1935 19-10-2008 17:20:02 15.2 C 5.71 g/m*3 15.2 C 0 km/h
1936 19-10-2008 17:25:03 15.1 C 5.81 g/m*3 15.1 C 0 km/h
1937 19-10-2008 17:30:03 14.8 C 5.95 g/m*3 14.8 C 0 km/h
1938 19-10-2008 17:35:02 14.5 C 5.85 g/m*3 14.5 C 0 km/h
1939 19-10-2008 17:40:02 14.2 C 5.86 g/m*3 14.2 C 0 km/h
1940 19-10-2008 17:45:02 13.8 C 5.96 g/m*3 13.8 C 0 km/h
1941 19-10-2008 17:50:02 13.5 C 5.97 g/m*3 13.5 C 0 km/h
1942 19-10-2008 17:55:02 13.4 C 5.93 g/m*3 13.4 C 0 km/h
1943 19-10-2008 18:00:02 13.3 C 6.01 g/m*3 13.3 C 0 km/h
1944 19-10-2008 18:05:02 13.1 C 5.93 g/m*3 13.1 C 0 km/h
1945 19-10-2008 18:10:02 13 C 5.9 g/m*3 13 C 0 km/h
1946 19-10-2008 18:15:02 12.8 C 6.16 g/m*3 12.8 C 0 km/h
1947 19-10-2008 18:20:02 12.4 C 6.12 g/m*3 12.4 C 0 km/h
1948 19-10-2008 18:25:02 12.1 C 6.11 g/m*3 12.1 C 0 km/h
1949 19-10-2008 18:30:02 12 C 6.07 g/m*3 12 C 0 km/h
1950 19-10-2008 18:35:03 11.8 C 6.21 g/m*3 11.8 C 0 km/h
Sensor: Nr:Datum:Temp:Abs-Feuchte:Windchill:Wind:
Aussen-T/F 1951 19-10-2008 18:40:03 11.5 C 6.09 g/m*3 11.5 C 0 km/h
1952 19-10-2008 18:45:02 11.4 C 6.16 g/m*3 11.4 C 0 km/h
1953 19-10-2008 18:50:03 11.2 C 6.18 g/m*3 11.2 C 0 km/h
1954 19-10-2008 18:55:03 11.1 C 6.14 g/m*3 11.1 C 0 km/h
1955 19-10-2008 19:00:03 11 C 6.21 g/m*3 11 C 0 km/h
1956 19-10-2008 19:05:02 10.8 C 6.33 g/m*3 10.8 C 0 km/h
1957 19-10-2008 19:10:02 10.6 C 6.34 g/m*3 10.6 C 0 km/h
1958 19-10-2008 19:15:02 10.4 C 6.36 g/m*3 10.4 C 0 km/h
1959 19-10-2008 19:20:02 10.4 C 6.36 g/m*3 10.4 C 0 km/h
1960 19-10-2008 19:25:02 10.2 C 6.38 g/m*3 10.2 C 0 km/h
1961 19-10-2008 19:30:02 10.1 C 6.43 g/m*3 10.1 C 0 km/h
1962 19-10-2008 19:35:02 10.1 C 6.43 g/m*3 10.1 C 0 km/h
1963 19-10-2008 19:40:02 10.1 C 6.43 g/m*3 10.1 C 0 km/h
1964 19-10-2008 19:45:02 10 C 6.39 g/m*3 10 C 0 km/h
1965 19-10-2008 19:50:02 9.9 C 6.44 g/m*3 9.9 C 0 km/h
1966 19-10-2008 19:55:02 9.7 C 6.45 g/m*3 9.7 C 0 km/h
1967 19-10-2008 20:00:02 9.6 C 6.41 g/m*3 9.6 C 0 km/h
1968 19-10-2008 20:05:02 9.6 C 6.5 g/m*3 9.6 C 0 km/h
1969 19-10-2008 20:10:02 9.5 C 6.55 g/m*3 9.5 C 0 km/h
1970 19-10-2008 20:15:02 9.3 C 6.47 g/m*3 9.3 C 0 km/h
1971 19-10-2008 20:20:02 9.3 C 6.56 g/m*3 9.3 C 0 km/h
1972 19-10-2008 20:25:02 9.3 C 6.47 g/m*3 9.3 C 0 km/h
1973 19-10-2008 20:30:02 9.2 C 6.52 g/m*3 9.2 C 0 km/h
1974 19-10-2008 20:35:02 9.1 C 6.48 g/m*3 9.1 C 0 km/h
1975 19-10-2008 20:40:02 9 C 6.44 g/m*3 9 C 0 km/h
Sensor: Nr:Datum:Temp:Abs-Feuchte:Windchill:Wind:
Aussen-T/F 1976 19-10-2008 20:45:02 8.9 C 6.48 g/m*3 8.9 C 0 km/h
1977 19-10-2008 20:50:02 8.8 C 6.44 g/m*3 8.8 C 0 km/h
1978 19-10-2008 20:55:02 8.7 C 6.49 g/m*3 8.7 C 0 km/h
1979 19-10-2008 21:00:02 8.6 C 6.44 g/m*3 8.6 C 0 km/h
1980 19-10-2008 21:05:02 8.5 C 6.4 g/m*3 8.5 C 0 km/h
1981 19-10-2008 21:10:02 8.4 C 6.36 g/m*3 8.4 C 0 km/h
1982 19-10-2008 21:15:02 8.2 C 6.36 g/m*3 8.2 C 0 km/h
1983 19-10-2008 21:20:02 8.1 C 6.32 g/m*3 8.1 C 0 km/h
1984 19-10-2008 21:25:02 8.1 C 6.41 g/m*3 8.1 C 0 km/h
1985 19-10-2008 21:30:02 8.1 C 6.41 g/m*3 8.1 C 0 km/h
1986 19-10-2008 21:35:02 8 C 6.37 g/m*3 8 C 0 km/h
1987 19-10-2008 21:40:02 7.9 C 6.41 g/m*3 7.9 C 0 km/h
1988 19-10-2008 21:45:02 7.9 C 6.49 g/m*3 7.9 C 0 km/h
1989 19-10-2008 21:50:02 7.8 C 6.53 g/m*3 7.8 C 0 km/h
1990 19-10-2008 21:55:02 7.6 C 6.44 g/m*3 7.6 C 0 km/h
1991 19-10-2008 22:00:02 7.6 C 6.44 g/m*3 7.6 C 0 km/h
1992 19-10-2008 22:05:01 7.5 C 6.4 g/m*3 7.5 C 0 km/h
1993 19-10-2008 22:10:01 7.3 C 6.32 g/m*3 7.3 C 0 km/h
1994 19-10-2008 22:15:02 7.3 C 6.32 g/m*3 7.3 C 0 km/h
1995 19-10-2008 22:20:02 7.2 C 6.28 g/m*3 7.2 C 0 km/h
1996 19-10-2008 22:25:03 7.1 C 6.24 g/m*3 7.1 C 0 km/h
1997 19-10-2008 22:30:03 7.2 C 6.36 g/m*3 7.2 C 0 km/h
1998 19-10-2008 22:35:02 7.2 C 6.36 g/m*3 7.2 C 0 km/h
1999 19-10-2008 22:40:02 6.9 C 6.31 g/m*3 6.9 C 0 km/h
2000 19-10-2008 22:46:02 6.9 C 6.31 g/m*3 6.9 C 0 km/h
Sensor: Nr:Datum:Temp:Abs-Feuchte:Windchill:Wind:
Aussen-T/F 2001 19-10-2008 22:51:03 6.8 C 6.35 g/m*3 6.8 C 0 km/h
2002 19-10-2008 22:56:03 6.9 C 6.39 g/m*3 6.9 C 0 km/h
2003 19-10-2008 23:01:03 6.7 C 6.31 g/m*3 6.7 C 0 km/h
2004 19-10-2008 23:06:03 6.7 C 6.31 g/m*3 6.7 C 0 km/h
2005 19-10-2008 23:11:03 6.6 C 6.34 g/m*3 6.6 C 0 km/h
2006 19-10-2008 23:16:03 6.6 C 6.34 g/m*3 6.6 C 0 km/h
2007 19-10-2008 23:21:03 6.5 C 6.3 g/m*3 6.5 C 0 km/h
2008 19-10-2008 23:26:03 6.4 C 6.26 g/m*3 6.4 C 0 km/h
2009 19-10-2008 23:31:03 6.3 C 6.29 g/m*3 6.3 C 0 km/h
2010 19-10-2008 23:36:03 6.2 C 6.25 g/m*3 6.2 C 0 km/h
2011 19-10-2008 23:41:03 6.2 C 6.25 g/m*3 6.2 C 0 km/h
2012 19-10-2008 23:46:03 6.1 C 6.21 g/m*3 6.1 C 0 km/h
2013 19-10-2008 23:51:03 6 C 6.24 g/m*3 6 C 0 km/h
2014 19-10-2008 23:56:03 6 C 6.24 g/m*3 6 C 0 km/h
2015 20-10-2008 00:01:03 6 C 6.24 g/m*3 6 C 0 km/h
2016 20-10-2008 00:06:03 5.9 C 6.27 g/m*3 5.9 C 0 km/h
2017 20-10-2008 00:11:03 5.9 C 6.27 g/m*3 5.9 C 0 km/h
2018 20-10-2008 00:16:03 5.9 C 6.27 g/m*3 5.9 C 0 km/h
2019 20-10-2008 00:21:03 5.9 C 6.27 g/m*3 5.9 C 0 km/h
2020 20-10-2008 00:26:04 5.8 C 6.23 g/m*3 5.8 C 0 km/h
2021 20-10-2008 00:31:04 5.7 C 6.19 g/m*3 5.7 C 0 km/h
2022 20-10-2008 00:36:04 5.6 C 6.15 g/m*3 5.6 C 0 km/h
2023 20-10-2008 00:41:04 5.4 C 6.07 g/m*3 5.4 C 0 km/h
2024 20-10-2008 00:46:04 5.4 C 6.07 g/m*3 5.4 C 0 km/h
2025 20-10-2008 00:51:04 5.4 C 6.07 g/m*3 5.4 C 0 km/h
Sensor: Nr:Datum:Temp:Abs-Feuchte:Windchill:Wind:
Aussen-T/F 2026 20-10-2008 00:56:04 5.3 C 6.03 g/m*3 5.3 C 0 km/h
2027 20-10-2008 01:01:04 5.2 C 5.99 g/m*3 5.2 C 0 km/h
2028 20-10-2008 01:06:04 5.2 C 6.06 g/m*3 5.2 C 0 km/h
2029 20-10-2008 01:11:04 5.1 C 6.02 g/m*3 5.1 C 0 km/h
2030 20-10-2008 01:16:04 5.1 C 6.02 g/m*3 5.1 C 0 km/h
2031 20-10-2008 01:21:04 5.1 C 6.02 g/m*3 5.1 C 0 km/h
2032 20-10-2008 01:26:04 5 C 5.98 g/m*3 5 C 0 km/h
2033 20-10-2008 01:31:04 5 C 5.98 g/m*3 5 C 0 km/h
2034 20-10-2008 01:36:04 4.9 C 6.01 g/m*3 4.9 C 0 km/h
2035 20-10-2008 01:41:04 4.8 C 5.97 g/m*3 4.8 C 0 km/h
2036 20-10-2008 01:46:04 4.9 C 6.01 g/m*3 4.9 C 0 km/h
2037 20-10-2008 01:51:04 4.9 C 6.01 g/m*3 4.9 C 0 km/h
2038 20-10-2008 01:56:04 4.9 C 6.01 g/m*3 4.9 C 0 km/h
2039 20-10-2008 02:01:05 4.7 C 5.93 g/m*3 4.7 C 0 km/h
2040 20-10-2008 02:06:05 4.7 C 5.93 g/m*3 4.7 C 0 km/h
2041 20-10-2008 02:11:05 4.6 C 5.89 g/m*3 4.6 C 0 km/h
2042 20-10-2008 02:16:05 4.5 C 5.85 g/m*3 4.5 C 0 km/h
2043 20-10-2008 02:21:05 4.4 C 5.81 g/m*3 4.4 C 0 km/h
2044 20-10-2008 02:26:05 4.3 C 5.77 g/m*3 4.3 C 0 km/h
2045 20-10-2008 02:31:05 4.3 C 5.77 g/m*3 4.3 C 0 km/h
2046 20-10-2008 02:36:05 4.1 C 5.7 g/m*3 4.1 C 0 km/h
2047 20-10-2008 02:41:05 4.1 C 5.7 g/m*3 4.1 C 0 km/h
2048 20-10-2008 02:46:05 4.2 C 5.73 g/m*3 4.2 C 0 km/h
2049 20-10-2008 02:51:05 4.2 C 5.73 g/m*3 4.2 C 0 km/h
2050 20-10-2008 02:56:05 4.2 C 5.73 g/m*3 4.2 C 0 km/h
Sensor: Nr:Datum:Temp:Abs-Feuchte:Windchill:Wind:
Aussen-T/F 2051 20-10-2008 03:01:05 4 C 5.66 g/m*3 4 C 0 km/h
2052 20-10-2008 03:06:05 4 C 5.66 g/m*3 4 C 0 km/h
2053 20-10-2008 03:11:05 4 C 5.66 g/m*3 4 C 0 km/h
2054 20-10-2008 03:16:05 4 C 5.72 g/m*3 4 C 0 km/h
2055 20-10-2008 03:21:05 4 C 5.72 g/m*3 4 C 0 km/h
2056 20-10-2008 03:26:05 3.8 C 5.71 g/m*3 3.8 C 0 km/h
2057 20-10-2008 03:31:05 3.8 C 5.71 g/m*3 3.8 C 0 km/h
2058 20-10-2008 03:36:06 3.7 C 5.67 g/m*3 3.7 C 0 km/h
2059 20-10-2008 03:41:06 3.7 C 5.67 g/m*3 3.7 C 0 km/h
2060 20-10-2008 03:46:06 3.7 C 5.67 g/m*3 3.7 C 0 km/h
2061 20-10-2008 03:51:06 3.6 C 5.63 g/m*3 3.6 C 0 km/h
2062 20-10-2008 03:56:06 3.7 C 5.67 g/m*3 3.7 C 0 km/h
2063 20-10-2008 04:01:06 3.7 C 5.67 g/m*3 3.7 C 0 km/h
2064 20-10-2008 04:06:06 3.7 C 5.67 g/m*3 3.7 C 0 km/h
2065 20-10-2008 04:11:06 3.5 C 5.6 g/m*3 3.5 C 0 km/h
2066 20-10-2008 04:16:06 3.4 C 5.56 g/m*3 3.4 C 0 km/h
2067 20-10-2008 04:21:06 3.3 C 5.52 g/m*3 3.3 C 0 km/h
2068 20-10-2008 04:26:06 3.3 C 5.52 g/m*3 3.3 C 0 km/h
2069 20-10-2008 04:31:06 3.2 C 5.48 g/m*3 3.2 C 0 km/h
2070 20-10-2008 04:36:06 3.1 C 5.45 g/m*3 3.1 C 0 km/h
2071 20-10-2008 04:41:06 3.1 C 5.45 g/m*3 3.1 C 0 km/h
2072 20-10-2008 04:46:06 3.2 C 5.48 g/m*3 3.2 C 0 km/h
2073 20-10-2008 04:51:06 3.1 C 5.45 g/m*3 3.1 C 0 km/h
2074 20-10-2008 04:56:06 3.1 C 5.45 g/m*3 3.1 C 0 km/h
2075 20-10-2008 05:01:06 3.1 C 5.45 g/m*3 3.1 C 0 km/h
Sensor: Nr:Datum:Temp:Abs-Feuchte:Windchill:Wind:
Aussen-T/F 2076 20-10-2008 05:06:06 3 C 5.41 g/m*3 3 C 0 km/h
2077 20-10-2008 05:11:06 3 C 5.41 g/m*3 3 C 0 km/h
2078 20-10-2008 05:16:07 3 C 5.41 g/m*3 3 C 0 km/h
2079 20-10-2008 05:21:07 3 C 5.41 g/m*3 3 C 0 km/h
2080 20-10-2008 05:26:07 3 C 5.41 g/m*3 3 C 0 km/h
2081 20-10-2008 05:31:07 3 C 5.41 g/m*3 3 C 0 km/h
2082 20-10-2008 05:36:07 2.8 C 5.4 g/m*3 2.8 C 0 km/h
2083 20-10-2008 05:41:07 2.8 C 5.4 g/m*3 2.8 C 0 km/h
2084 20-10-2008 05:46:07 2.8 C 5.4 g/m*3 2.8 C 0 km/h
2085 20-10-2008 05:51:07 2.8 C 5.46 g/m*3 2.8 C 0 km/h
2086 20-10-2008 05:56:07 2.7 C 5.42 g/m*3 2.7 C 0 km/h
2087 20-10-2008 06:01:07 2.8 C 5.46 g/m*3 2.8 C 0 km/h
2088 20-10-2008 06:06:07 2.7 C 5.42 g/m*3 2.7 C 0 km/h
2089 20-10-2008 06:11:07 2.7 C 5.42 g/m*3 2.7 C 0 km/h
2090 20-10-2008 06:16:07 2.7 C 5.42 g/m*3 2.7 C 0 km/h
2091 20-10-2008 06:21:07 2.6 C 5.38 g/m*3 2.6 C 0 km/h
2092 20-10-2008 06:26:07 2.7 C 5.42 g/m*3 2.7 C 0 km/h
2093 20-10-2008 06:31:07 2.7 C 5.42 g/m*3 2.7 C 0 km/h
2094 20-10-2008 06:36:07 2.7 C 5.42 g/m*3 2.7 C 0 km/h
2095 20-10-2008 06:41:07 2.6 C 5.38 g/m*3 2.6 C 0 km/h
2096 20-10-2008 06:46:07 2.6 C 5.38 g/m*3 2.6 C 0 km/h
2097 20-10-2008 06:51:08 2.7 C 5.42 g/m*3 2.7 C 0 km/h
2098 20-10-2008 06:56:08 2.7 C 5.42 g/m*3 2.7 C 0 km/h
2099 20-10-2008 07:01:02 2.7 C 5.42 g/m*3 2.7 C 0 km/h
2100 20-10-2008 07:06:02 2.6 C 5.38 g/m*3 2.6 C 0 km/h
Sensor: Nr:Datum:Temp:Abs-Feuchte:Windchill:Wind:
Aussen-T/F 2101 20-10-2008 07:11:02 2.6 C 5.38 g/m*3 2.6 C 0 km/h
2102 20-10-2008 07:16:01 2.7 C 5.48 g/m*3 2.7 C 0 km/h
2103 20-10-2008 07:21:01 2.7 C 5.48 g/m*3 2.7 C 0 km/h
2104 20-10-2008 07:26:01 2.7 C 5.48 g/m*3 2.7 C 0 km/h
2105 20-10-2008 07:31:02 2.7 C 5.42 g/m*3 2.7 C 0 km/h
2106 20-10-2008 07:36:02 2.7 C 5.42 g/m*3 2.7 C 0 km/h
2107 20-10-2008 07:41:02 2.7 C 5.42 g/m*3 2.7 C 0 km/h
2108 20-10-2008 07:46:02 2.6 C 5.38 g/m*3 2.6 C 0 km/h
2109 20-10-2008 07:51:02 2.6 C 5.38 g/m*3 2.6 C 0 km/h
2110 20-10-2008 07:56:02 2.6 C 5.38 g/m*3 2.6 C 0 km/h
2111 20-10-2008 08:01:01 2.6 C 5.38 g/m*3 2.6 C 0 km/h
2112 20-10-2008 08:06:01 2.7 C 5.42 g/m*3 2.7 C 0 km/h
2113 20-10-2008 08:11:01 2.7 C 5.48 g/m*3 2.7 C 0 km/h
2114 20-10-2008 08:16:02 2.7 C 5.48 g/m*3 2.7 C 0 km/h
2115 20-10-2008 08:21:02 2.6 C 5.38 g/m*3 2.6 C 0 km/h
2116 20-10-2008 08:26:02 2.6 C 5.38 g/m*3 2.6 C 0 km/h
2117 20-10-2008 08:31:02 2.6 C 5.38 g/m*3 2.6 C 0 km/h
2118 20-10-2008 08:36:02 2.6 C 5.38 g/m*3 2.6 C 0 km/h
2119 20-10-2008 08:41:02 2.7 C 5.42 g/m*3 2.7 C 0 km/h
2120 20-10-2008 08:46:02 2.6 C 5.38 g/m*3 2.6 C 0 km/h
2121 20-10-2008 08:51:02 2.6 C 5.38 g/m*3 2.6 C 0 km/h
2122 20-10-2008 08:56:02 2.6 C 5.38 g/m*3 2.6 C 0 km/h
2123 20-10-2008 09:01:02 2.7 C 5.42 g/m*3 2.7 C 0 km/h
2124 20-10-2008 09:06:02 2.7 C 5.42 g/m*3 2.7 C 0 km/h
2125 20-10-2008 09:11:02 2.8 C 5.51 g/m*3 2.8 C 0 km/h
Sensor: Nr:Datum:Temp:Abs-Feuchte:Windchill:Wind:
Aussen-T/F 2126 20-10-2008 09:16:02 2.8 C 5.51 g/m*3 2.8 C 0 km/h
2127 20-10-2008 09:21:02 2.9 C 5.55 g/m*3 2.9 C 0 km/h
2128 20-10-2008 09:26:02 3.1 C 5.57 g/m*3 3.1 C 0 km/h
2129 20-10-2008 09:31:03 3.3 C 5.64 g/m*3 3.3 C 0 km/h
2130 20-10-2008 09:36:03 3.4 C 5.74 g/m*3 3.4 C 0 km/h
2131 20-10-2008 09:41:03 3.3 C 5.64 g/m*3 3.3 C 0 km/h
2132 20-10-2008 09:46:01 3.2 C 5.6 g/m*3 3.2 C 0 km/h
2133 20-10-2008 09:51:01 3.2 C 5.6 g/m*3 3.2 C 0 km/h
2134 20-10-2008 09:56:02 3.2 C 5.6 g/m*3 3.2 C 0 km/h
2135 20-10-2008 10:01:01 3.3 C 5.64 g/m*3 3.3 C 0 km/h
2136 20-10-2008 10:06:01 3.4 C 5.68 g/m*3 3.4 C 0 km/h
2137 20-10-2008 10:11:01 3.4 C 5.68 g/m*3 3.4 C 0 km/h
2138 20-10-2008 10:16:02 3.4 C 5.68 g/m*3 3.4 C 0 km/h
2139 20-10-2008 10:21:02 3.4 C 5.68 g/m*3 3.4 C 0 km/h
2140 20-10-2008 10:26:02 3.5 C 5.72 g/m*3 3.5 C 0 km/h
2141 20-10-2008 10:31:01 3.6 C 5.76 g/m*3 3.6 C 0 km/h
2142 20-10-2008 10:36:01 3.6 C 5.76 g/m*3 3.6 C 0 km/h
2143 20-10-2008 10:41:01 3.6 C 5.76 g/m*3 3.6 C 0 km/h
2144 20-10-2008 10:46:01 3.8 C 5.83 g/m*3 3.8 C 0 km/h
2145 20-10-2008 10:51:01 4 C 5.91 g/m*3 4 C 0 km/h
2146 20-10-2008 10:56:01 4.1 C 5.95 g/m*3 4.1 C 0 km/h
2147 20-10-2008 11:01:02 4.4 C 6.07 g/m*3 4.4 C 0 km/h
2148 20-10-2008 11:06:02 4.7 C 6.26 g/m*3 4.7 C 0 km/h
2149 20-10-2008 11:11:02 5.1 C 6.36 g/m*3 5.1 C 0 km/h
2150 20-10-2008 11:16:01 5.2 C 6.4 g/m*3 5.2 C 0 km/h
Sensor: Nr:Datum:Temp:Abs-Feuchte:Windchill:Wind:
Aussen-T/F 2151 20-10-2008 11:21:01 5.4 C 6.56 g/m*3 5.4 C 0 km/h
2152 20-10-2008 11:26:01 5.7 C 6.69 g/m*3 5.7 C 0 km/h
2153 20-10-2008 11:31:02 5.8 C 6.73 g/m*3 5.8 C 0 km/h
2154 20-10-2008 11:36:02 6.1 C 6.87 g/m*3 6.1 C 0 km/h
2155 20-10-2008 11:41:02 6.4 C 7 g/m*3 6.4 C 0 km/h
2156 20-10-2008 11:46:03 6.5 C 7.05 g/m*3 6.5 C 0 km/h
2157 20-10-2008 11:51:03 7 C 7.28 g/m*3 7 C 0 km/h
2158 20-10-2008 11:56:03 7.6 C 7.57 g/m*3 7.6 C 0 km/h
2159 20-10-2008 12:01:02 8.2 C 7.87 g/m*3 8.2 C 0 km/h
2160 20-10-2008 12:06:02 8.5 C 8.03 g/m*3 8.5 C 0 km/h
2161 20-10-2008 12:11:02 9 C 8.2 g/m*3 9 C 0 km/h
2162 20-10-2008 12:16:03 9.3 C 8.27 g/m*3 9.3 C 0 km/h
2163 20-10-2008 12:21:03 9.6 C 8.43 g/m*3 9.6 C 0 km/h
2164 20-10-2008 12:26:03 9.7 C 8.39 g/m*3 9.7 C 0 km/h
2165 20-10-2008 12:31:02 10 C 8.36 g/m*3 10 C 0 km/h
2166 20-10-2008 12:36:02 10.3 C 8.33 g/m*3 10.3 C 0 km/h
2167 20-10-2008 12:41:03 10.8 C 8.2 g/m*3 10.8 C 0 km/h
2168 20-10-2008 12:46:02 11.2 C 7.91 g/m*3 11.2 C 0 km/h
2169 20-10-2008 12:51:02 11.4 C 7.8 g/m*3 11.4 C 0 km/h
2170 20-10-2008 12:56:02 11.8 C 7.58 g/m*3 11.8 C 0 km/h
2171 20-10-2008 13:01:01 12.2 C 7.55 g/m*3 12.2 C 0 km/h
2172 20-10-2008 13:06:01 12.7 C 7.46 g/m*3 12.7 C 0 km/h
2173 20-10-2008 13:11:01 12.9 C 7.44 g/m*3 12.9 C 0 km/h
2174 20-10-2008 13:16:02 13.4 C 7.32 g/m*3 13.4 C 0 km/h
2175 20-10-2008 13:21:02 13.6 C 7.41 g/m*3 13.6 C 0 km/h
Sensor: Nr:Datum:Temp:Abs-Feuchte:Windchill:Wind:
Aussen-T/F 2176 20-10-2008 13:26:02 13.8 C 7.51 g/m*3 13.8 C 0 km/h
2177 20-10-2008 13:31:01 14.1 C 7.4 g/m*3 14.1 C 0 km/h
2178 20-10-2008 13:36:01 14.6 C 7.51 g/m*3 14.6 C 0 km/h
2179 20-10-2008 13:41:01 14.8 C 7.47 g/m*3 14.8 C 0 km/h
2180 20-10-2008 13:46:01 15.1 C 7.48 g/m*3 15.1 C 0 km/h
2181 20-10-2008 13:51:01 15.6 C 7.45 g/m*3 15.6 C 0 km/h
2182 20-10-2008 13:56:01 15.8 C 7.67 g/m*3 15.8 C 0 km/h
2183 20-10-2008 14:01:02 16 C 7.49 g/m*3 16 C 0 km/h
2184 20-10-2008 14:06:02 16.4 C 7.54 g/m*3 16.4 C 0 km/h
2185 20-10-2008 14:11:02 16.7 C 7.53 g/m*3 16.7 C 0 km/h
2186 20-10-2008 14:16:02 16.9 C 7.62 g/m*3 16.9 C 0 km/h
2187 20-10-2008 14:21:02 17.3 C 7.51 g/m*3 17.3 C 0 km/h
2188 20-10-2008 14:26:02 17.7 C 7.85 g/m*3 17.7 C 0 km/h
2189 20-10-2008 14:31:02 17.9 C 7.94 g/m*3 17.9 C 0 km/h
2190 20-10-2008 14:36:02 18.2 C 7.62 g/m*3 18.2 C 0 km/h
2191 20-10-2008 14:41:02 18.5 C 7.91 g/m*3 18.5 C 0 km/h
2192 20-10-2008 14:46:02 18.7 C 7.68 g/m*3 18.7 C 0 km/h
2193 20-10-2008 14:51:02 18.9 C 7.61 g/m*3 18.9 C 0 km/h
2194 20-10-2008 14:56:02 19.1 C 7.7 g/m*3 19.1 C 0 km/h
2195 20-10-2008 15:01:01 19.3 C 7.63 g/m*3 19.3 C 0 km/h
2196 20-10-2008 15:06:01 19.4 C 7.67 g/m*3 19.4 C 0 km/h
2197 20-10-2008 15:11:01 19.6 C 7.6 g/m*3 19.6 C 0 km/h
2198 20-10-2008 15:16:01 19.7 C 7.64 g/m*3 19.7 C 0 km/h
2199 20-10-2008 15:21:01 19.6 C 7.43 g/m*3 19.6 C 0 km/h
2200 20-10-2008 15:26:01 19.7 C 7.47 g/m*3 19.7 C 0 km/h
Sensor: Nr:Datum:Temp:Abs-Feuchte:Windchill:Wind:
Aussen-T/F 2201 20-10-2008 15:31:01 19.9 C 7.56 g/m*3 19.9 C 0 km/h
2202 20-10-2008 15:36:01 19.8 C 7.34 g/m*3 19.8 C 0 km/h
2203 20-10-2008 15:41:02 19.8 C 7.52 g/m*3 19.8 C 0 km/h
2204 20-10-2008 15:46:02 19.8 C 7.52 g/m*3 19.8 C 0 km/h
2205 20-10-2008 15:51:02 20 C 7.43 g/m*3 20 C 0 km/h
2206 20-10-2008 15:56:02 20 C 7.43 g/m*3 20 C 0 km/h
2207 20-10-2008 16:01:02 20.1 C 7.47 g/m*3 20.1 C 0 km/h
2208 20-10-2008 16:06:02 20.3 C 7.56 g/m*3 20.3 C 0 km/h
2209 20-10-2008 16:11:02 20.3 C 7.56 g/m*3 20.3 C 0 km/h
2210 20-10-2008 16:16:02 20.2 C 7.52 g/m*3 20.2 C 0 km/h
2211 20-10-2008 16:21:03 20.2 C 7.52 g/m*3 20.2 C 0 km/h
2212 20-10-2008 16:26:03 20.3 C 7.56 g/m*3 20.3 C 0 km/h
2213 20-10-2008 16:31:01 20.3 C 7.56 g/m*3 20.3 C 0 km/h
2214 20-10-2008 16:36:01 20.2 C 7.52 g/m*3 20.2 C 0 km/h
2215 20-10-2008 16:41:01 20.2 C 7.52 g/m*3 20.2 C 0 km/h
2216 20-10-2008 16:46:01 20.3 C 7.74 g/m*3 20.3 C 0 km/h
2217 20-10-2008 16:51:01 20.5 C 8.01 g/m*3 20.5 C 0 km/h
2218 20-10-2008 16:56:01 20.4 C 7.78 g/m*3 20.4 C 0 km/h
2219 20-10-2008 17:01:02 20.4 C 7.61 g/m*3 20.4 C 0 km/h
2220 20-10-2008 17:06:03 20.2 C 7.52 g/m*3 20.2 C 0 km/h
2221 20-10-2008 17:11:03 20.2 C 7.52 g/m*3 20.2 C 0 km/h
2222 20-10-2008 17:16:01 20.1 C 7.47 g/m*3 20.1 C 0 km/h
2223 20-10-2008 17:21:01 20.1 C 7.65 g/m*3 20.1 C 0 km/h
2224 20-10-2008 17:26:01 20.2 C 7.87 g/m*3 20.2 C 0 km/h
2225 20-10-2008 17:31:02 20.2 C 7.69 g/m*3 20.2 C 0 km/h
Sensor: Nr:Datum:Temp:Abs-Feuchte:Windchill:Wind:
Aussen-T/F 2226 20-10-2008 17:36:02 20.2 C 7.87 g/m*3 20.2 C 0 km/h
2227 20-10-2008 17:41:02 20 C 7.6 g/m*3 20 C 0 km/h
2228 20-10-2008 17:46:02 19.9 C 7.73 g/m*3 19.9 C 0 km/h
2229 20-10-2008 17:51:02 19.7 C 7.81 g/m*3 19.7 C 0 km/h
2230 20-10-2008 17:56:02 19.3 C 7.63 g/m*3 19.3 C 0 km/h
2231 20-10-2008 18:01:02 18.9 C 7.78 g/m*3 18.9 C 0 km/h
2232 20-10-2008 18:06:02 18.6 C 7.8 g/m*3 18.6 C 0 km/h
2233 20-10-2008 18:11:02 18.2 C 7.77 g/m*3 18.2 C 0 km/h
2234 20-10-2008 18:16:02 17.8 C 7.89 g/m*3 17.8 C 0 km/h
2235 20-10-2008 18:21:02 17.6 C 7.95 g/m*3 17.6 C 0 km/h
2236 20-10-2008 18:26:02 17.2 C 8.05 g/m*3 17.2 C 0 km/h
2237 20-10-2008 18:31:02 17 C 8.1 g/m*3 17 C 0 km/h
2238 20-10-2008 18:36:02 16.9 C 8.34 g/m*3 16.9 C 0 km/h
2239 20-10-2008 18:41:02 16.7 C 8.38 g/m*3 16.7 C 0 km/h
2240 20-10-2008 18:46:02 16.6 C 8.33 g/m*3 16.6 C 0 km/h
2241 20-10-2008 18:51:02 16.5 C 8.43 g/m*3 16.5 C 0 km/h
2242 20-10-2008 18:56:02 16.3 C 8.46 g/m*3 16.3 C 0 km/h
2243 20-10-2008 19:01:02 16.2 C 8.55 g/m*3 16.2 C 0 km/h
2244 20-10-2008 19:06:02 16 C 8.45 g/m*3 16 C 0 km/h
2245 20-10-2008 19:11:02 16 C 8.58 g/m*3 16 C 0 km/h
2246 20-10-2008 19:16:01 15.8 C 8.62 g/m*3 15.8 C 0 km/h
2247 20-10-2008 19:21:01 15.8 C 8.75 g/m*3 15.8 C 0 km/h
2248 20-10-2008 19:26:01 15.7 C 8.7 g/m*3 15.7 C 0 km/h
2249 20-10-2008 19:31:02 15.6 C 8.78 g/m*3 15.6 C 0 km/h
2250 20-10-2008 19:36:02 15.5 C 8.86 g/m*3 15.5 C 0 km/h
Sensor: Nr:Datum:Temp:Abs-Feuchte:Windchill:Wind:
Aussen-T/F 2251 20-10-2008 19:41:02 15.5 C 8.99 g/m*3 15.5 C 0 km/h
2252 20-10-2008 19:46:03 15.6 C 9.04 g/m*3 15.6 C 0 km/h
2253 20-10-2008 19:51:03 15.7 C 9.1 g/m*3 15.7 C 0 km/h
2254 20-10-2008 19:56:03 15.8 C 9.15 g/m*3 15.8 C 0 km/h
2255 20-10-2008 20:01:02 15.8 C 9.15 g/m*3 15.8 C 0 km/h
2256 20-10-2008 20:06:02 15.8 C 9.15 g/m*3 15.8 C 0 km/h
2257 20-10-2008 20:11:02 15.8 C 9.15 g/m*3 15.8 C 0 km/h
2258 20-10-2008 20:16:03 15.8 C 9.15 g/m*3 15.8 C 0 km/h
2259 20-10-2008 20:21:03 15.5 C 8.99 g/m*3 15.5 C 0 km/h
2260 20-10-2008 20:26:03 15.2 C 8.96 g/m*3 15.2 C 0 km/h
2261 20-10-2008 20:31:02 15.2 C 9.09 g/m*3 15.2 C 0 km/h
2262 20-10-2008 20:36:02 15 C 8.98 g/m*3 15 C 0 km/h
2263 20-10-2008 20:41:02 14.9 C 9.18 g/m*3 14.9 C 0 km/h
2264 20-10-2008 20:46:02 14.8 C 9.12 g/m*3 14.8 C 0 km/h
2265 20-10-2008 20:51:02 14.7 C 9.19 g/m*3 14.7 C 0 km/h
2266 20-10-2008 20:56:02 14.6 C 9.26 g/m*3 14.6 C 0 km/h
2267 20-10-2008 21:01:02 14.6 C 9.39 g/m*3 14.6 C 0 km/h
2268 20-10-2008 21:06:02 14.5 C 9.33 g/m*3 14.5 C 0 km/h
2269 20-10-2008 21:11:02 14.4 C 9.27 g/m*3 14.4 C 0 km/h
2270 20-10-2008 21:16:02 14.4 C 9.39 g/m*3 14.4 C 0 km/h
2271 20-10-2008 21:21:02 14.4 C 9.39 g/m*3 14.4 C 0 km/h
2272 20-10-2008 21:26:02 14.4 C 9.39 g/m*3 14.4 C 0 km/h
2273 20-10-2008 21:31:01 14.2 C 9.4 g/m*3 14.2 C 0 km/h
2274 20-10-2008 21:36:01 14.2 C 9.4 g/m*3 14.2 C 0 km/h
2275 20-10-2008 21:41:01 14 C 9.29 g/m*3 14 C 0 km/h
Sensor: Nr:Datum:Temp:Abs-Feuchte:Windchill:Wind:
Aussen-T/F 2276 20-10-2008 21:47:02 13.8 C 9.29 g/m*3 13.8 C 0 km/h
2277 20-10-2008 21:52:02 13.7 C 9.24 g/m*3 13.7 C 0 km/h
2278 20-10-2008 21:57:02 13.7 C 9.35 g/m*3 13.7 C 0 km/h
2279 20-10-2008 22:02:02 13.6 C 9.3 g/m*3 13.6 C 0 km/h
2280 20-10-2008 22:07:03 13.4 C 9.18 g/m*3 13.4 C 0 km/h
2281 20-10-2008 22:12:03 13.4 C 9.3 g/m*3 13.4 C 0 km/h
2282 20-10-2008 22:17:03 13.3 C 9.24 g/m*3 13.3 C 0 km/h
2283 20-10-2008 22:22:03 13.3 C 9.36 g/m*3 13.3 C 0 km/h
2284 20-10-2008 22:27:03 13.3 C 9.36 g/m*3 13.3 C 0 km/h
2285 20-10-2008 22:32:03 13.3 C 9.36 g/m*3 13.3 C 0 km/h
2286 20-10-2008 22:37:03 13.2 C 9.3 g/m*3 13.2 C 0 km/h
2287 20-10-2008 22:42:03 13.2 C 9.3 g/m*3 13.2 C 0 km/h
2288 20-10-2008 22:47:03 13.1 C 9.36 g/m*3 13.1 C 0 km/h
2289 20-10-2008 22:52:03 13.1 C 9.36 g/m*3 13.1 C 0 km/h
2290 20-10-2008 22:57:03 13 C 9.3 g/m*3 13 C 0 km/h
2291 20-10-2008 23:02:03 13 C 9.3 g/m*3 13 C 0 km/h
2292 20-10-2008 23:07:03 12.9 C 9.35 g/m*3 12.9 C 0 km/h
2293 20-10-2008 23:12:03 13 C 9.41 g/m*3 13 C 0 km/h
2294 20-10-2008 23:17:03 13 C 9.41 g/m*3 13 C 0 km/h
2295 20-10-2008 23:22:03 12.9 C 9.47 g/m*3 12.9 C 0 km/h
2296 20-10-2008 23:27:03 12.8 C 9.41 g/m*3 12.8 C 0 km/h
2297 20-10-2008 23:32:03 12.9 C 9.47 g/m*3 12.9 C 0 km/h
2298 20-10-2008 23:37:03 12.8 C 9.52 g/m*3 12.8 C 0 km/h
2299 20-10-2008 23:42:04 12.9 C 9.58 g/m*3 12.9 C 0 km/h
2300 20-10-2008 23:47:04 12.9 C 9.58 g/m*3 12.9 C 0 km/h
Sensor: Nr:Datum:Temp:Abs-Feuchte:Windchill:Wind:
Aussen-T/F 2301 20-10-2008 23:52:04 13 C 9.64 g/m*3 13 C 0 km/h
2302 20-10-2008 23:57:04 13 C 9.64 g/m*3 13 C 0 km/h
2303 21-10-2008 00:02:04 12.9 C 9.69 g/m*3 12.9 C 0 km/h
2304 21-10-2008 00:07:04 12.9 C 9.81 g/m*3 12.9 C 0 km/h
2305 21-10-2008 00:12:04 13 C 9.75 g/m*3 13 C 0 km/h
2306 21-10-2008 00:17:04 13.1 C 9.81 g/m*3 13.1 C 0 km/h
2307 21-10-2008 00:22:04 13.3 C 9.94 g/m*3 13.3 C 0 km/h
2308 21-10-2008 00:27:04 13.8 C 10.37 g/m*3 13.8 C 0 km/h
2309 21-10-2008 00:32:04 14 C 10.37 g/m*3 14 C 0 km/h
2310 21-10-2008 00:37:04 14.2 C 10.38 g/m*3 14.2 C 0 km/h
2311 21-10-2008 00:42:04 14.6 C 10.51 g/m*3 14.6 C 0 km/h
2312 21-10-2008 00:47:04 15.1 C 10.45 g/m*3 15.1 C 0 km/h
2313 21-10-2008 00:52:04 15.1 C 10.06 g/m*3 15.1 C 0 km/h
2314 21-10-2008 00:57:04 15.1 C 10.06 g/m*3 15.1 C 0 km/h
2315 21-10-2008 01:02:04 15 C 10 g/m*3 15 C 0 km/h
2316 21-10-2008 01:07:04 14.7 C 9.95 g/m*3 14.7 C 0 km/h
2317 21-10-2008 01:12:04 14.7 C 9.95 g/m*3 14.7 C 0 km/h
2318 21-10-2008 01:17:05 14.4 C 9.89 g/m*3 14.4 C 0 km/h
2319 21-10-2008 01:22:05 14.4 C 9.89 g/m*3 14.4 C 0 km/h
2320 21-10-2008 01:27:05 14.1 C 9.71 g/m*3 14.1 C 0 km/h
2321 21-10-2008 01:32:05 13.8 C 9.65 g/m*3 13.8 C 0 km/h
2322 21-10-2008 01:37:05 13.6 C 9.65 g/m*3 13.6 C 0 km/h
2323 21-10-2008 01:42:05 13.6 C 9.65 g/m*3 13.6 C 0 km/h
2324 21-10-2008 01:47:05 13.4 C 9.65 g/m*3 13.4 C 0 km/h
2325 21-10-2008 01:52:05 13.3 C 9.59 g/m*3 13.3 C 0 km/h
Sensor: Nr:Datum:Temp:Abs-Feuchte:Windchill:Wind:
Aussen-T/F 2326 21-10-2008 01:57:05 13.2 C 9.64 g/m*3 13.2 C 0 km/h
2327 21-10-2008 02:02:05 13.1 C 9.59 g/m*3 13.1 C 0 km/h
2328 21-10-2008 02:07:05 13.1 C 9.59 g/m*3 13.1 C 0 km/h
2329 21-10-2008 02:12:05 13.1 C 9.59 g/m*3 13.1 C 0 km/h
2330 21-10-2008 02:17:05 13.1 C 9.7 g/m*3 13.1 C 0 km/h
2331 21-10-2008 02:22:05 13.1 C 9.7 g/m*3 13.1 C 0 km/h
2332 21-10-2008 02:27:05 13.2 C 9.87 g/m*3 13.2 C 0 km/h
2333 21-10-2008 02:32:05 13.2 C 9.87 g/m*3 13.2 C 0 km/h
2334 21-10-2008 02:37:05 13.3 C 10.05 g/m*3 13.3 C 0 km/h
2335 21-10-2008 02:42:05 13.4 C 10.11 g/m*3 13.4 C 0 km/h
2336 21-10-2008 02:47:05 13.4 C 10.11 g/m*3 13.4 C 0 km/h
2337 21-10-2008 02:52:05 13.5 C 10.18 g/m*3 13.5 C 0 km/h
2338 21-10-2008 02:57:06 13.5 C 10.18 g/m*3 13.5 C 0 km/h
2339 21-10-2008 03:02:06 13.2 C 9.87 g/m*3 13.2 C 0 km/h
2340 21-10-2008 03:07:06 13.2 C 9.87 g/m*3 13.2 C 0 km/h
2341 21-10-2008 03:12:06 13.2 C 9.87 g/m*3 13.2 C 0 km/h
2342 21-10-2008 03:17:06 13.2 C 9.87 g/m*3 13.2 C 0 km/h
2343 21-10-2008 03:22:06 13.2 C 9.87 g/m*3 13.2 C 0 km/h
2344 21-10-2008 03:27:06 13.2 C 9.87 g/m*3 13.2 C 0 km/h
2345 21-10-2008 03:32:06 13.1 C 9.81 g/m*3 13.1 C 0 km/h
2346 21-10-2008 03:37:06 13.2 C 9.87 g/m*3 13.2 C 0 km/h
2347 21-10-2008 03:42:06 13.2 C 9.87 g/m*3 13.2 C 0 km/h
2348 21-10-2008 03:47:06 13.6 C 10.24 g/m*3 13.6 C 0 km/h
2349 21-10-2008 03:52:06 13.7 C 10.3 g/m*3 13.7 C 0 km/h
2350 21-10-2008 03:57:06 13.9 C 10.31 g/m*3 13.9 C 0 km/h
Sensor: Nr:Datum:Temp:Abs-Feuchte:Windchill:Wind:
Aussen-T/F 2351 21-10-2008 04:02:06 14 C 10.25 g/m*3 14 C 0 km/h
2352 21-10-2008 04:07:06 13.9 C 10.19 g/m*3 13.9 C 0 km/h
2353 21-10-2008 04:12:06 13.9 C 10.19 g/m*3 13.9 C 0 km/h
2354 21-10-2008 04:17:06 14 C 10.13 g/m*3 14 C 0 km/h
2355 21-10-2008 04:22:06 13.9 C 10.07 g/m*3 13.9 C 0 km/h
2356 21-10-2008 04:27:06 14 C 10.01 g/m*3 14 C 0 km/h
2357 21-10-2008 04:32:07 13.9 C 10.07 g/m*3 13.9 C 0 km/h
2358 21-10-2008 04:37:07 13.8 C 10.01 g/m*3 13.8 C 0 km/h
2359 21-10-2008 04:42:07 13.8 C 10.01 g/m*3 13.8 C 0 km/h
2360 21-10-2008 04:47:07 13.8 C 10.01 g/m*3 13.8 C 0 km/h
2361 21-10-2008 04:52:07 13.9 C 10.07 g/m*3 13.9 C 0 km/h
2362 21-10-2008 04:57:07 13.9 C 10.07 g/m*3 13.9 C 0 km/h
2363 21-10-2008 05:02:07 14.3 C 10.32 g/m*3 14.3 C 0 km/h
2364 21-10-2008 05:07:07 14.2 C 10.26 g/m*3 14.2 C 0 km/h
2365 21-10-2008 05:12:07 14.6 C 10.39 g/m*3 14.6 C 0 km/h
2366 21-10-2008 05:17:07 14.7 C 10.45 g/m*3 14.7 C 0 km/h
2367 21-10-2008 05:22:07 14.8 C 10.51 g/m*3 14.8 C 0 km/h
2368 21-10-2008 05:27:07 15 C 10.51 g/m*3 15 C 0 km/h
2369 21-10-2008 05:32:07 15.1 C 10.32 g/m*3 15.1 C 0 km/h
2370 21-10-2008 05:37:07 15.2 C 10.38 g/m*3 15.2 C 0 km/h
2371 21-10-2008 05:42:07 15.2 C 10.38 g/m*3 15.2 C 0 km/h
2372 21-10-2008 05:47:07 15.4 C 10.38 g/m*3 15.4 C 0 km/h
2373 21-10-2008 05:52:07 15.6 C 10.51 g/m*3 15.6 C 0 km/h
2374 21-10-2008 05:57:07 15.6 C 10.37 g/m*3 15.6 C 0 km/h
2375 21-10-2008 06:02:07 15.7 C 10.44 g/m*3 15.7 C 0 km/h
Sensor: Nr:Datum:Temp:Abs-Feuchte:Windchill:Wind:
Aussen-T/F 2376 21-10-2008 06:07:08 15.9 C 10.43 g/m*3 15.9 C 0 km/h
2377 21-10-2008 06:12:08 16 C 10.22 g/m*3 16 C 0 km/h
2378 21-10-2008 06:17:08 16.1 C 10.14 g/m*3 16.1 C 0 km/h
2379 21-10-2008 06:22:08 16.2 C 10.07 g/m*3 16.2 C 0 km/h
2380 21-10-2008 06:27:08 16.3 C 10.13 g/m*3 16.3 C 0 km/h
2381 21-10-2008 06:32:03 16.4 C 10.05 g/m*3 16.4 C 0 km/h
2382 21-10-2008 06:37:03 16.5 C 10.11 g/m*3 16.5 C 0 km/h
2383 21-10-2008 06:42:03 16.5 C 10.11 g/m*3 16.5 C 0 km/h
2384 21-10-2008 06:47:02 16.7 C 10.09 g/m*3 16.7 C 0 km/h
2385 21-10-2008 06:52:02 16.6 C 10.03 g/m*3 16.6 C 0 km/h
2386 21-10-2008 06:57:02 16.6 C 10.03 g/m*3 16.6 C 0 km/h
2387 21-10-2008 07:02:02 16.6 C 10.03 g/m*3 16.6 C 0 km/h
2388 21-10-2008 07:07:02 16.6 C 10.03 g/m*3 16.6 C 0 km/h
2389 21-10-2008 07:12:02 16.5 C 9.97 g/m*3 16.5 C 0 km/h
2390 21-10-2008 07:17:02 16.5 C 9.97 g/m*3 16.5 C 0 km/h
2391 21-10-2008 07:22:02 16.5 C 9.97 g/m*3 16.5 C 0 km/h
2392 21-10-2008 07:27:02 16.4 C 9.91 g/m*3 16.4 C 0 km/h
2393 21-10-2008 07:32:02 16.4 C 9.91 g/m*3 16.4 C 0 km/h
2394 21-10-2008 07:37:02 16.4 C 10.05 g/m*3 16.4 C 0 km/h
2395 21-10-2008 07:42:03 16.6 C 10.03 g/m*3 16.6 C 0 km/h
2396 21-10-2008 07:47:01 16.9 C 9.92 g/m*3 16.9 C 0 km/h
2397 21-10-2008 07:52:01 17 C 9.84 g/m*3 17 C 0 km/h
2398 21-10-2008 07:57:01 16.9 C 9.92 g/m*3 16.9 C 0 km/h
2399 21-10-2008 08:02:01 16.9 C 9.92 g/m*3 16.9 C 0 km/h
2400 21-10-2008 08:07:01 16.9 C 9.92 g/m*3 16.9 C 0 km/h
Sensor: Nr:Datum:Temp:Abs-Feuchte:Windchill:Wind:
Aussen-T/F 2401 21-10-2008 08:12:01 16.9 C 9.78 g/m*3 16.9 C 0 km/h
2402 21-10-2008 08:17:02 16.9 C 9.64 g/m*3 16.9 C 0 km/h
2403 21-10-2008 08:22:03 17.2 C 9.67 g/m*3 17.2 C 0 km/h
2404 21-10-2008 08:27:03 17.1 C 9.46 g/m*3 17.1 C 0 km/h
2405 21-10-2008 08:32:01 17.2 C 9.37 g/m*3 17.2 C 0 km/h
2406 21-10-2008 08:37:01 17.1 C 9.32 g/m*3 17.1 C 0 km/h
2407 21-10-2008 08:42:01 17.1 C 9.17 g/m*3 17.1 C 0 km/h
2408 21-10-2008 08:47:01 17.1 C 9.17 g/m*3 17.1 C 0 km/h
2409 21-10-2008 08:52:01 17.1 C 9.17 g/m*3 17.1 C 0 km/h
2410 21-10-2008 08:57:01 17.1 C 9.17 g/m*3 17.1 C 0 km/h
2411 21-10-2008 09:02:02 17.2 C 9.08 g/m*3 17.2 C 0 km/h
2412 21-10-2008 09:07:03 17.1 C 9.03 g/m*3 17.1 C 0 km/h
2413 21-10-2008 09:12:03 17.2 C 9.08 g/m*3 17.2 C 0 km/h
2414 21-10-2008 09:17:01 17.1 C 9.03 g/m*3 17.1 C 0 km/h
2415 21-10-2008 09:22:01 17.2 C 9.08 g/m*3 17.2 C 0 km/h
2416 21-10-2008 09:27:01 17.1 C 9.03 g/m*3 17.1 C 0 km/h
2417 21-10-2008 09:32:02 17.2 C 8.93 g/m*3 17.2 C 0 km/h
2418 21-10-2008 09:37:02 17.2 C 8.93 g/m*3 17.2 C 0 km/h
2419 21-10-2008 09:42:02 17.3 C 8.99 g/m*3 17.3 C 0 km/h
2420 21-10-2008 09:47:02 17.3 C 8.84 g/m*3 17.3 C 0 km/h
2421 21-10-2008 09:52:02 17.3 C 8.84 g/m*3 17.3 C 0 km/h
2422 21-10-2008 09:57:02 17.3 C 8.84 g/m*3 17.3 C 0 km/h
2423 21-10-2008 10:02:02 17.3 C 8.84 g/m*3 17.3 C 0 km/h
2424 21-10-2008 10:07:02 17.4 C 8.89 g/m*3 17.4 C 0 km/h
2425 21-10-2008 10:12:02 17.5 C 8.8 g/m*3 17.5 C 0 km/h
Sensor: Nr:Datum:Temp:Abs-Feuchte:Windchill:Wind:
Aussen-T/F 2426 21-10-2008 10:17:02 17.5 C 8.8 g/m*3 17.5 C 0 km/h
2427 21-10-2008 10:22:03 17.5 C 8.8 g/m*3 17.5 C 0 km/h
2428 21-10-2008 10:27:03 17.5 C 8.8 g/m*3 17.5 C 0 km/h
2429 21-10-2008 10:32:01 17.4 C 8.74 g/m*3 17.4 C 0 km/h
2430 21-10-2008 10:37:01 17.5 C 8.65 g/m*3 17.5 C 0 km/h
2431 21-10-2008 10:42:01 17.5 C 8.65 g/m*3 17.5 C 0 km/h
2432 21-10-2008 10:47:01 17.6 C 8.7 g/m*3 17.6 C 0 km/h
2433 21-10-2008 10:52:01 17.6 C 8.7 g/m*3 17.6 C 0 km/h
2434 21-10-2008 10:57:01 17.6 C 8.55 g/m*3 17.6 C 0 km/h
2435 21-10-2008 11:02:02 17.7 C 8.6 g/m*3 17.7 C 0 km/h
2436 21-10-2008 11:07:03 17.7 C 8.6 g/m*3 17.7 C 0 km/h
2437 21-10-2008 11:12:03 17.8 C 8.5 g/m*3 17.8 C 0 km/h
2438 21-10-2008 11:17:01 17.8 C 8.65 g/m*3 17.8 C 0 km/h
2439 21-10-2008 11:22:01 17.9 C 8.7 g/m*3 17.9 C 0 km/h
2440 21-10-2008 11:27:01 18 C 8.6 g/m*3 18 C 0 km/h
2441 21-10-2008 11:32:02 18.1 C 8.34 g/m*3 18.1 C 0 km/h
2442 21-10-2008 11:37:02 18.1 C 8.34 g/m*3 18.1 C 0 km/h
2443 21-10-2008 11:42:02 18.1 C 8.34 g/m*3 18.1 C 0 km/h
2444 21-10-2008 11:47:02 18.1 C 8.34 g/m*3 18.1 C 0 km/h
2445 21-10-2008 11:52:03 18.1 C 8.34 g/m*3 18.1 C 0 km/h
2446 21-10-2008 11:57:03 18.1 C 8.34 g/m*3 18.1 C 0 km/h
2447 21-10-2008 12:02:02 18.3 C 8.44 g/m*3 18.3 C 0 km/h
2448 21-10-2008 12:07:02 18.2 C 8.39 g/m*3 18.2 C 0 km/h
2449 21-10-2008 12:12:02 18.2 C 8.39 g/m*3 18.2 C 0 km/h
2450 21-10-2008 12:17:02 18.1 C 8.5 g/m*3 18.1 C 0 km/h
Sensor: Nr:Datum:Temp:Abs-Feuchte:Windchill:Wind:
Aussen-T/F 2451 21-10-2008 12:22:02 17.7 C 8.45 g/m*3 17.7 C 0 km/h
2452 21-10-2008 12:27:02 16.1 C 7.26 g/m*3 16.1 C 0 km/h
2453 21-10-2008 12:32:02 14.8 C 7.6 g/m*3 14.8 C 0 km/h
2454 21-10-2008 12:37:02 14.1 C 7.65 g/m*3 14.1 C 0 km/h
2455 21-10-2008 12:42:02 13.7 C 7.93 g/m*3 13.7 C 0 km/h
2456 21-10-2008 12:47:02 13.2 C 7.92 g/m*3 13.2 C 0 km/h
2457 21-10-2008 12:52:02 12.6 C 8.19 g/m*3 12.6 C 0 km/h
2458 21-10-2008 12:57:02 12.1 C 8.36 g/m*3 12.1 C 0 km/h
2459 21-10-2008 13:02:02 12.1 C 8.47 g/m*3 12.1 C 0 km/h
2460 21-10-2008 13:07:02 12 C 8.63 g/m*3 12 C 0 km/h
2461 21-10-2008 13:12:02 12 C 8.74 g/m*3 12 C 0 km/h
2462 21-10-2008 13:17:02 12 C 8.74 g/m*3 12 C 0 km/h
2463 21-10-2008 13:22:02 11.8 C 8.74 g/m*3 11.8 C 0 km/h
2464 21-10-2008 13:27:02 11.7 C 8.79 g/m*3 11.7 C 0 km/h
2465 21-10-2008 13:32:03 11.7 C 8.89 g/m*3 11.7 C 0 km/h
2466 21-10-2008 13:37:03 11.6 C 8.94 g/m*3 11.6 C 0 km/h
2467 21-10-2008 13:42:03 11.6 C 8.94 g/m*3 11.6 C 0 km/h
2468 21-10-2008 13:47:02 11.6 C 9.04 g/m*3 11.6 C 0 km/h
2469 21-10-2008 13:52:02 11.7 C 9.2 g/m*3 11.7 C 0 km/h
2470 21-10-2008 13:57:02 11.5 C 9.09 g/m*3 11.5 C 0 km/h
2471 21-10-2008 14:02:02 11.3 C 8.98 g/m*3 11.3 C 0 km/h
2472 21-10-2008 14:07:02 11.4 C 9.03 g/m*3 11.4 C 0 km/h
2473 21-10-2008 14:12:02 11.4 C 9.03 g/m*3 11.4 C 0 km/h
2474 21-10-2008 14:17:01 11.6 C 9.15 g/m*3 11.6 C 0 km/h
2475 21-10-2008 14:22:01 11.6 C 9.15 g/m*3 11.6 C 0 km/h
Sensor: Nr:Datum:Temp:Abs-Feuchte:Windchill:Wind:
Aussen-T/F 2476 21-10-2008 14:27:01 11.5 C 9.09 g/m*3 11.5 C 0 km/h
2477 21-10-2008 14:32:02 11.4 C 9.14 g/m*3 11.4 C 0 km/h
2478 21-10-2008 14:37:02 11.4 C 9.14 g/m*3 11.4 C 0 km/h
2479 21-10-2008 14:42:03 11.4 C 9.14 g/m*3 11.4 C 0 km/h
2480 21-10-2008 14:47:02 11.5 C 9.19 g/m*3 11.5 C 0 km/h
2481 21-10-2008 14:52:02 11.5 C 9.19 g/m*3 11.5 C 0 km/h
2482 21-10-2008 14:57:02 11.5 C 9.19 g/m*3 11.5 C 0 km/h
2483 21-10-2008 15:02:02 11.5 C 9.19 g/m*3 11.5 C 0 km/h
2484 21-10-2008 15:07:02 11.7 C 9.41 g/m*3 11.7 C 0 km/h
2485 21-10-2008 15:12:02 11.7 C 9.41 g/m*3 11.7 C 0 km/h
2486 21-10-2008 15:17:03 11.7 C 9.41 g/m*3 11.7 C 0 km/h
2487 21-10-2008 15:22:03 11.7 C 9.41 g/m*3 11.7 C 0 km/h
2488 21-10-2008 15:27:03 11.7 C 9.31 g/m*3 11.7 C 0 km/h
2489 21-10-2008 15:32:02 11.4 C 9.14 g/m*3 11.4 C 0 km/h
2490 21-10-2008 15:37:02 11.2 C 9.02 g/m*3 11.2 C 0 km/h
2491 21-10-2008 15:42:02 11.3 C 9.08 g/m*3 11.3 C 0 km/h
2492 21-10-2008 15:47:01 11.3 C 9.08 g/m*3 11.3 C 0 km/h
2493 21-10-2008 15:52:01 11.2 C 9.02 g/m*3 11.2 C 0 km/h
2494 21-10-2008 15:57:01 11.2 C 9.02 g/m*3 11.2 C 0 km/h
2495 21-10-2008 16:02:02 11.2 C 9.02 g/m*3 11.2 C 0 km/h
2496 21-10-2008 16:07:02 11.1 C 8.96 g/m*3 11.1 C 0 km/h
2497 21-10-2008 16:12:02 11 C 8.91 g/m*3 11 C 0 km/h
2498 21-10-2008 16:17:01 11.1 C 8.96 g/m*3 11.1 C 0 km/h
2499 21-10-2008 16:22:01 11.3 C 9.18 g/m*3 11.3 C 0 km/h
2500 21-10-2008 16:27:01 11.1 C 9.07 g/m*3 11.1 C 0 km/h
Sensor: Nr:Datum:Temp:Abs-Feuchte:Windchill:Wind:
Aussen-T/F 2501 21-10-2008 16:32:02 11 C 9.01 g/m*3 11 C 0 km/h
2502 21-10-2008 16:37:02 10.9 C 8.95 g/m*3 10.9 C 0 km/h
2503 21-10-2008 16:42:02 10.7 C 8.84 g/m*3 10.7 C 0 km/h
2504 21-10-2008 16:47:02 10.8 C 8.99 g/m*3 10.8 C 0 km/h
2505 21-10-2008 16:52:02 10.9 C 9.05 g/m*3 10.9 C 0 km/h
2506 21-10-2008 16:57:02 10.9 C 9.05 g/m*3 10.9 C 0 km/h
2507 21-10-2008 17:02:02 10.9 C 9.15 g/m*3 10.9 C 0 km/h
2508 21-10-2008 17:07:02 11 C 9.11 g/m*3 11 C 0 km/h
2509 21-10-2008 17:12:02 11.1 C 9.17 g/m*3 11.1 C 0 km/h
2510 21-10-2008 17:17:02 11 C 9.11 g/m*3 11 C 0 km/h
2511 21-10-2008 17:22:02 10.9 C 9.15 g/m*3 10.9 C 0 km/h
2512 21-10-2008 17:27:02 10.9 C 9.15 g/m*3 10.9 C 0 km/h
2513 21-10-2008 17:32:02 11 C 9.11 g/m*3 11 C 0 km/h
2514 21-10-2008 17:37:02 10.9 C 9.15 g/m*3 10.9 C 0 km/h
2515 21-10-2008 17:42:02 10.9 C 9.15 g/m*3 10.9 C 0 km/h
2516 21-10-2008 17:47:02 11 C 9.21 g/m*3 11 C 0 km/h
2517 21-10-2008 17:52:02 10.9 C 9.15 g/m*3 10.9 C 0 km/h
2518 21-10-2008 17:57:02 11 C 9.21 g/m*3 11 C 0 km/h
2519 21-10-2008 18:02:02 10.9 C 9.15 g/m*3 10.9 C 0 km/h
2520 21-10-2008 18:07:02 10.8 C 9.09 g/m*3 10.8 C 0 km/h
2521 21-10-2008 18:12:02 10.6 C 8.98 g/m*3 10.6 C 0 km/h
2522 21-10-2008 18:17:02 10.5 C 8.92 g/m*3 10.5 C 0 km/h
2523 21-10-2008 18:22:02 10.2 C 8.76 g/m*3 10.2 C 0 km/h
2524 21-10-2008 18:27:02 10.2 C 8.76 g/m*3 10.2 C 0 km/h
2525 21-10-2008 18:32:03 10.2 C 8.76 g/m*3 10.2 C 0 km/h
Sensor: Nr:Datum:Temp:Abs-Feuchte:Windchill:Wind:
Aussen-T/F 2526 21-10-2008 18:37:03 10.1 C 8.7 g/m*3 10.1 C 0 km/h
2527 21-10-2008 18:42:03 10.3 C 8.81 g/m*3 10.3 C 0 km/h
2528 21-10-2008 18:47:02 10.3 C 8.81 g/m*3 10.3 C 0 km/h
2529 21-10-2008 18:52:02 10.1 C 8.7 g/m*3 10.1 C 0 km/h
2530 21-10-2008 18:57:02 10 C 8.64 g/m*3 10 C 0 km/h
2531 21-10-2008 19:02:02 10 C 8.64 g/m*3 10 C 0 km/h
2532 21-10-2008 19:07:02 9.9 C 8.78 g/m*3 9.9 C 0 km/h
2533 21-10-2008 19:12:02 9.9 C 8.78 g/m*3 9.9 C 0 km/h
2534 21-10-2008 19:17:02 9.9 C 8.78 g/m*3 9.9 C 0 km/h
2535 21-10-2008 19:22:02 9.9 C 8.78 g/m*3 9.9 C 0 km/h
2536 21-10-2008 19:27:02 9.9 C 8.78 g/m*3 9.9 C 0 km/h
2537 21-10-2008 19:32:02 9.8 C 8.72 g/m*3 9.8 C 0 km/h
2538 21-10-2008 19:37:03 9.9 C 8.78 g/m*3 9.9 C 0 km/h
2539 21-10-2008 19:42:03 9.7 C 8.67 g/m*3 9.7 C 0 km/h
2540 21-10-2008 19:47:01 9.7 C 8.67 g/m*3 9.7 C 0 km/h
2541 21-10-2008 19:52:01 9.6 C 8.61 g/m*3 9.6 C 0 km/h
2542 21-10-2008 19:57:01 9.6 C 8.61 g/m*3 9.6 C 0 km/h
2543 21-10-2008 20:02:01 9.4 C 8.5 g/m*3 9.4 C 0 km/h
2544 21-10-2008 20:07:01 9.4 C 8.5 g/m*3 9.4 C 0 km/h
2545 21-10-2008 20:12:01 9.4 C 8.5 g/m*3 9.4 C 0 km/h
2546 21-10-2008 20:17:02 9.4 C 8.5 g/m*3 9.4 C 0 km/h
2547 21-10-2008 20:22:02 9.5 C 8.56 g/m*3 9.5 C 0 km/h
2548 21-10-2008 20:27:02 9.5 C 8.56 g/m*3 9.5 C 0 km/h
2549 21-10-2008 20:32:01 9.5 C 8.56 g/m*3 9.5 C 0 km/h
2550 21-10-2008 20:37:01 9.5 C 8.56 g/m*3 9.5 C 0 km/h
Sensor: Nr:Datum:Temp:Abs-Feuchte:Windchill:Wind:
Aussen-T/F 2551 21-10-2008 20:42:01 9.7 C 8.67 g/m*3 9.7 C 0 km/h
2552 21-10-2008 20:47:01 9.7 C 8.67 g/m*3 9.7 C 0 km/h
2553 21-10-2008 20:52:01 9.5 C 8.56 g/m*3 9.5 C 0 km/h
2554 21-10-2008 20:57:01 9.7 C 8.67 g/m*3 9.7 C 0 km/h
2555 21-10-2008 21:02:02 9.7 C 8.76 g/m*3 9.7 C 0 km/h
2556 21-10-2008 21:07:03 9.5 C 8.65 g/m*3 9.5 C 0 km/h
2557 21-10-2008 21:12:03 9.7 C 8.76 g/m*3 9.7 C 0 km/h
2558 21-10-2008 21:17:01 9.6 C 8.7 g/m*3 9.6 C 0 km/h
2559 21-10-2008 21:22:01 9.6 C 8.7 g/m*3 9.6 C 0 km/h
2560 21-10-2008 21:27:01 9.6 C 8.7 g/m*3 9.6 C 0 km/h
2561 21-10-2008 21:32:02 9.5 C 8.65 g/m*3 9.5 C 0 km/h
2562 21-10-2008 21:37:02 9.5 C 8.65 g/m*3 9.5 C 0 km/h
2563 21-10-2008 21:42:02 9.3 C 8.54 g/m*3 9.3 C 0 km/h
2564 21-10-2008 21:47:02 9.3 C 8.54 g/m*3 9.3 C 0 km/h
2565 21-10-2008 21:52:02 9.2 C 8.48 g/m*3 9.2 C 0 km/h
2566 21-10-2008 21:57:02 9.1 C 8.43 g/m*3 9.1 C 0 km/h
2567 21-10-2008 22:02:02 9.1 C 8.34 g/m*3 9.1 C 0 km/h
2568 21-10-2008 22:07:02 9.1 C 8.34 g/m*3 9.1 C 0 km/h
2569 21-10-2008 22:12:02 9.1 C 8.34 g/m*3 9.1 C 0 km/h
2570 21-10-2008 22:18:04 9.1 C 8.34 g/m*3 9.1 C 0 km/h
2571 21-10-2008 22:23:04 9.2 C 8.39 g/m*3 9.2 C 0 km/h
2572 21-10-2008 22:28:04 9.2 C 8.39 g/m*3 9.2 C 0 km/h
2573 21-10-2008 22:33:04 9.1 C 8.34 g/m*3 9.1 C 0 km/h
2574 21-10-2008 22:38:04 9 C 8.29 g/m*3 9 C 0 km/h
2575 21-10-2008 22:43:04 9 C 8.29 g/m*3 9 C 0 km/h
Sensor: Nr:Datum:Temp:Abs-Feuchte:Windchill:Wind:
Aussen-T/F 2576 21-10-2008 22:48:04 8.9 C 8.32 g/m*3 8.9 C 0 km/h
2577 21-10-2008 22:53:04 8.8 C 8.27 g/m*3 8.8 C 0 km/h
2578 21-10-2008 22:58:04 8.8 C 8.27 g/m*3 8.8 C 0 km/h
2579 21-10-2008 23:03:04 8.7 C 8.22 g/m*3 8.7 C 0 km/h
2580 21-10-2008 23:08:05 8.7 C 8.22 g/m*3 8.7 C 0 km/h
2581 21-10-2008 23:13:05 8.7 C 8.22 g/m*3 8.7 C 0 km/h
2582 21-10-2008 23:18:05 8.7 C 8.22 g/m*3 8.7 C 0 km/h
2583 21-10-2008 23:23:05 8.7 C 8.22 g/m*3 8.7 C 0 km/h
2584 21-10-2008 23:28:05 8.7 C 8.22 g/m*3 8.7 C 0 km/h
2585 21-10-2008 23:33:05 8.6 C 8.16 g/m*3 8.6 C 0 km/h
2586 21-10-2008 23:38:05 8.7 C 8.22 g/m*3 8.7 C 0 km/h
2587 21-10-2008 23:43:05 8.6 C 8.16 g/m*3 8.6 C 0 km/h
2588 21-10-2008 23:48:05 8.6 C 8.16 g/m*3 8.6 C 0 km/h
2589 21-10-2008 23:53:05 8.7 C 8.22 g/m*3 8.7 C 0 km/h
2590 21-10-2008 23:58:05 8.8 C 8.27 g/m*3 8.8 C 0 km/h
2591 22-10-2008 00:03:05 8.8 C 8.27 g/m*3 8.8 C 0 km/h
2592 22-10-2008 00:08:05 8.7 C 8.22 g/m*3 8.7 C 0 km/h
2593 22-10-2008 00:13:05 8.8 C 8.27 g/m*3 8.8 C 0 km/h
2594 22-10-2008 00:18:05 8.7 C 8.22 g/m*3 8.7 C 0 km/h
2595 22-10-2008 00:23:05 8.7 C 8.22 g/m*3 8.7 C 0 km/h
2596 22-10-2008 00:28:05 8.8 C 8.27 g/m*3 8.8 C 0 km/h
2597 22-10-2008 00:33:05 8.8 C 8.27 g/m*3 8.8 C 0 km/h
2598 22-10-2008 00:38:05 8.8 C 8.27 g/m*3 8.8 C 0 km/h
2599 22-10-2008 00:43:06 8.8 C 8.27 g/m*3 8.8 C 0 km/h
2600 22-10-2008 00:48:06 8.8 C 8.18 g/m*3 8.8 C 0 km/h
Sensor: Nr:Datum:Temp:Abs-Feuchte:Windchill:Wind:
Aussen-T/F 2601 22-10-2008 00:53:06 8.8 C 8.27 g/m*3 8.8 C 0 km/h
2602 22-10-2008 00:58:06 8.8 C 8.18 g/m*3 8.8 C 0 km/h
2603 22-10-2008 01:03:06 8.8 C 8.18 g/m*3 8.8 C 0 km/h
2604 22-10-2008 01:08:06 8.8 C 8.18 g/m*3 8.8 C 0 km/h
2605 22-10-2008 01:13:06 8.8 C 8.18 g/m*3 8.8 C 0 km/h
2606 22-10-2008 01:18:06 8.7 C 8.13 g/m*3 8.7 C 0 km/h
2607 22-10-2008 01:23:06 8.7 C 8.13 g/m*3 8.7 C 0 km/h
2608 22-10-2008 01:28:06 8.7 C 8.13 g/m*3 8.7 C 0 km/h
2609 22-10-2008 01:33:06 8.8 C 8.18 g/m*3 8.8 C 0 km/h
2610 22-10-2008 01:38:06 8.7 C 8.13 g/m*3 8.7 C 0 km/h
2611 22-10-2008 01:43:06 8.7 C 8.13 g/m*3 8.7 C 0 km/h
2612 22-10-2008 01:48:06 8.7 C 8.13 g/m*3 8.7 C 0 km/h
2613 22-10-2008 01:53:06 8.7 C 8.13 g/m*3 8.7 C 0 km/h
2614 22-10-2008 01:58:06 8.7 C 8.13 g/m*3 8.7 C 0 km/h
2615 22-10-2008 02:03:06 8.7 C 8.13 g/m*3 8.7 C 0 km/h
2616 22-10-2008 02:08:06 8.7 C 8.13 g/m*3 8.7 C 0 km/h
2617 22-10-2008 02:13:06 8.7 C 8.13 g/m*3 8.7 C 0 km/h
2618 22-10-2008 02:18:06 8.6 C 8.08 g/m*3 8.6 C 0 km/h
2619 22-10-2008 02:23:07 8.6 C 8.08 g/m*3 8.6 C 0 km/h
2620 22-10-2008 02:28:07 8.6 C 8.08 g/m*3 8.6 C 0 km/h
2621 22-10-2008 02:33:07 8.6 C 8.08 g/m*3 8.6 C 0 km/h
2622 22-10-2008 02:38:07 8.6 C 8.08 g/m*3 8.6 C 0 km/h
2623 22-10-2008 02:43:07 8.6 C 8.16 g/m*3 8.6 C 0 km/h
2624 22-10-2008 02:48:07 8.5 C 8.03 g/m*3 8.5 C 0 km/h
2625 22-10-2008 02:53:07 8.5 C 8.03 g/m*3 8.5 C 0 km/h
Sensor: Nr:Datum:Temp:Abs-Feuchte:Windchill:Wind:
Aussen-T/F 2626 22-10-2008 02:58:07 8.5 C 8.03 g/m*3 8.5 C 0 km/h
2627 22-10-2008 03:03:07 8.5 C 8.03 g/m*3 8.5 C 0 km/h
2628 22-10-2008 03:08:07 8.5 C 8.11 g/m*3 8.5 C 0 km/h
2629 22-10-2008 03:13:07 8.5 C 8.11 g/m*3 8.5 C 0 km/h
2630 22-10-2008 03:18:07 8.5 C 8.11 g/m*3 8.5 C 0 km/h
2631 22-10-2008 03:23:07 8.5 C 8.11 g/m*3 8.5 C 0 km/h
2632 22-10-2008 03:28:07 8.5 C 8.11 g/m*3 8.5 C 0 km/h
2633 22-10-2008 03:33:07 8.5 C 8.11 g/m*3 8.5 C 0 km/h
2634 22-10-2008 03:38:07 8.5 C 8.11 g/m*3 8.5 C 0 km/h
2635 22-10-2008 03:43:07 8.5 C 8.11 g/m*3 8.5 C 0 km/h
2636 22-10-2008 03:48:07 8.5 C 8.11 g/m*3 8.5 C 0 km/h
2637 22-10-2008 03:53:07 8.5 C 8.11 g/m*3 8.5 C 0 km/h
2638 22-10-2008 03:58:08 8.5 C 8.11 g/m*3 8.5 C 0 km/h
2639 22-10-2008 04:03:08 8.5 C 8.11 g/m*3 8.5 C 0 km/h
2640 22-10-2008 04:08:08 8.4 C 8.06 g/m*3 8.4 C 0 km/h
2641 22-10-2008 04:13:08 8.5 C 8.11 g/m*3 8.5 C 0 km/h
2642 22-10-2008 04:18:08 8.4 C 8.06 g/m*3 8.4 C 0 km/h
2643 22-10-2008 04:23:08 8.4 C 8.06 g/m*3 8.4 C 0 km/h
2644 22-10-2008 04:28:08 8.4 C 8.06 g/m*3 8.4 C 0 km/h
2645 22-10-2008 04:33:08 8.4 C 8.06 g/m*3 8.4 C 0 km/h
2646 22-10-2008 04:38:08 8.4 C 8.06 g/m*3 8.4 C 0 km/h
2647 22-10-2008 04:43:08 8.4 C 8.06 g/m*3 8.4 C 0 km/h
2648 22-10-2008 04:48:08 8.4 C 8.06 g/m*3 8.4 C 0 km/h
2649 22-10-2008 04:53:08 8.4 C 8.06 g/m*3 8.4 C 0 km/h
2650 22-10-2008 04:58:08 8.4 C 8.06 g/m*3 8.4 C 0 km/h
Sensor: Nr:Datum:Temp:Abs-Feuchte:Windchill:Wind:
Aussen-T/F 2651 22-10-2008 05:03:08 8.3 C 8.01 g/m*3 8.3 C 0 km/h
2652 22-10-2008 05:08:08 8.3 C 8.01 g/m*3 8.3 C 0 km/h
2653 22-10-2008 05:13:08 8.3 C 8.01 g/m*3 8.3 C 0 km/h
2654 22-10-2008 05:18:08 8.3 C 8.01 g/m*3 8.3 C 0 km/h
2655 22-10-2008 05:23:08 8.3 C 8.01 g/m*3 8.3 C 0 km/h
2656 22-10-2008 05:28:08 8.3 C 8.01 g/m*3 8.3 C 0 km/h
2657 22-10-2008 05:33:08 8.3 C 8.01 g/m*3 8.3 C 0 km/h
2658 22-10-2008 05:38:09 8.2 C 7.96 g/m*3 8.2 C 0 km/h
2659 22-10-2008 05:43:09 8.2 C 7.96 g/m*3 8.2 C 0 km/h
2660 22-10-2008 05:48:09 8.2 C 7.96 g/m*3 8.2 C 0 km/h
2661 22-10-2008 05:53:09 8.2 C 7.96 g/m*3 8.2 C 0 km/h
2662 22-10-2008 05:58:09 8.2 C 7.96 g/m*3 8.2 C 0 km/h
2663 22-10-2008 06:03:09 8.2 C 7.96 g/m*3 8.2 C 0 km/h
2664 22-10-2008 06:08:09 8.1 C 7.9 g/m*3 8.1 C 0 km/h
2665 22-10-2008 06:13:09 8.2 C 7.96 g/m*3 8.2 C 0 km/h
2666 22-10-2008 06:18:09 8.2 C 7.96 g/m*3 8.2 C 0 km/h
2667 22-10-2008 06:23:09 8.2 C 7.96 g/m*3 8.2 C 0 km/h
2668 22-10-2008 06:28:09 8.2 C 7.96 g/m*3 8.2 C 0 km/h
2669 22-10-2008 06:33:09 8.1 C 7.9 g/m*3 8.1 C 0 km/h
2670 22-10-2008 06:38:09 8.1 C 7.9 g/m*3 8.1 C 0 km/h
2671 22-10-2008 06:43:09 8.1 C 7.9 g/m*3 8.1 C 0 km/h
2672 22-10-2008 06:48:02 8.1 C 7.9 g/m*3 8.1 C 0 km/h
2673 22-10-2008 06:53:02 8.1 C 7.9 g/m*3 8.1 C 0 km/h
2674 22-10-2008 06:58:02 8.1 C 7.9 g/m*3 8.1 C 0 km/h
2675 22-10-2008 07:03:02 8.1 C 7.9 g/m*3 8.1 C 0 km/h
Sensor: Nr:Datum:Temp:Abs-Feuchte:Windchill:Wind:
Aussen-T/F 2676 22-10-2008 07:08:02 8 C 7.85 g/m*3 8 C 0 km/h
2677 22-10-2008 07:13:02 8 C 7.85 g/m*3 8 C 0 km/h
2678 22-10-2008 07:18:03 8 C 7.85 g/m*3 8 C 0 km/h
2679 22-10-2008 07:23:03 8 C 7.85 g/m*3 8 C 0 km/h
2680 22-10-2008 07:28:03 8 C 7.85 g/m*3 8 C 0 km/h
2681 22-10-2008 07:33:02 8 C 7.85 g/m*3 8 C 0 km/h
2682 22-10-2008 07:38:02 8 C 7.85 g/m*3 8 C 0 km/h
2683 22-10-2008 07:43:02 8 C 7.85 g/m*3 8 C 0 km/h
2684 22-10-2008 07:48:01 8 C 7.85 g/m*3 8 C 0 km/h
2685 22-10-2008 07:53:01 8 C 7.85 g/m*3 8 C 0 km/h
2686 22-10-2008 07:58:01 8 C 7.85 g/m*3 8 C 0 km/h
2687 22-10-2008 08:03:02 8 C 7.85 g/m*3 8 C 0 km/h
2688 22-10-2008 08:08:02 8 C 7.85 g/m*3 8 C 0 km/h
2689 22-10-2008 08:13:02 8 C 7.85 g/m*3 8 C 0 km/h
2690 22-10-2008 08:18:01 8 C 7.85 g/m*3 8 C 0 km/h
2691 22-10-2008 08:23:01 8 C 7.85 g/m*3 8 C 0 km/h
2692 22-10-2008 08:28:01 8 C 7.85 g/m*3 8 C 0 km/h
2693 22-10-2008 08:33:02 8 C 7.85 g/m*3 8 C 0 km/h
2694 22-10-2008 08:38:02 8.1 C 7.9 g/m*3 8.1 C 0 km/h
2695 22-10-2008 08:43:02 8.1 C 7.9 g/m*3 8.1 C 0 km/h
2696 22-10-2008 08:48:02 8.1 C 7.9 g/m*3 8.1 C 0 km/h
2697 22-10-2008 08:53:02 8.1 C 7.9 g/m*3 8.1 C 0 km/h
2698 22-10-2008 08:58:02 8.1 C 7.9 g/m*3 8.1 C 0 km/h
2699 22-10-2008 09:03:02 8.2 C 7.96 g/m*3 8.2 C 0 km/h
2700 22-10-2008 09:08:02 8.2 C 7.96 g/m*3 8.2 C 0 km/h
Sensor: Nr:Datum:Temp:Abs-Feuchte:Windchill:Wind:
Aussen-T/F 2701 22-10-2008 09:13:02 8.2 C 7.96 g/m*3 8.2 C 0 km/h
2702 22-10-2008 09:18:02 8.3 C 8.01 g/m*3 8.3 C 0 km/h
2703 22-10-2008 09:23:02 8.4 C 8.06 g/m*3 8.4 C 0 km/h
2704 22-10-2008 09:28:02 8.5 C 8.11 g/m*3 8.5 C 0 km/h
2705 22-10-2008 09:33:02 8.5 C 8.11 g/m*3 8.5 C 0 km/h
2706 22-10-2008 09:38:02 8.6 C 8.16 g/m*3 8.6 C 0 km/h
2707 22-10-2008 09:43:02 8.6 C 8.16 g/m*3 8.6 C 0 km/h
2708 22-10-2008 09:48:02 8.7 C 8.22 g/m*3 8.7 C 0 km/h
2709 22-10-2008 09:53:02 8.7 C 8.22 g/m*3 8.7 C 0 km/h
2710 22-10-2008 09:58:02 8.8 C 8.27 g/m*3 8.8 C 0 km/h
2711 22-10-2008 10:03:02 8.7 C 8.22 g/m*3 8.7 C 0 km/h
2712 22-10-2008 10:08:02 8.7 C 8.13 g/m*3 8.7 C 0 km/h
2713 22-10-2008 10:13:02 8.7 C 8.13 g/m*3 8.7 C 0 km/h
2714 22-10-2008 10:18:02 8.7 C 8.13 g/m*3 8.7 C 0 km/h
2715 22-10-2008 10:23:02 8.8 C 8.18 g/m*3 8.8 C 0 km/h
2716 22-10-2008 10:28:02 8.8 C 8.09 g/m*3 8.8 C 0 km/h
2717 22-10-2008 10:33:03 8.8 C 8.09 g/m*3 8.8 C 0 km/h
2718 22-10-2008 10:38:03 8.8 C 8.09 g/m*3 8.8 C 0 km/h
2719 22-10-2008 10:43:03 8.8 C 8.09 g/m*3 8.8 C 0 km/h
2720 22-10-2008 10:48:02 8.8 C 8.01 g/m*3 8.8 C 0 km/h
2721 22-10-2008 10:53:02 8.9 C 8.06 g/m*3 8.9 C 0 km/h
2722 22-10-2008 10:58:02 8.9 C 8.06 g/m*3 8.9 C 0 km/h
2723 22-10-2008 11:03:02 9 C 7.93 g/m*3 9 C 0 km/h
2724 22-10-2008 11:08:02 9.1 C 7.99 g/m*3 9.1 C 0 km/h
2725 22-10-2008 11:13:02 9.2 C 8.04 g/m*3 9.2 C 0 km/h
Sensor: Nr:Datum:Temp:Abs-Feuchte:Windchill:Wind:
Aussen-T/F 2726 22-10-2008 11:18:02 9.3 C 8.09 g/m*3 9.3 C 0 km/h
2727 22-10-2008 11:23:02 9.3 C 8.09 g/m*3 9.3 C 0 km/h
2728 22-10-2008 11:28:02 9.3 C 8 g/m*3 9.3 C 0 km/h
2729 22-10-2008 11:33:02 9.5 C 8.1 g/m*3 9.5 C 0 km/h
2730 22-10-2008 11:38:02 9.7 C 8.2 g/m*3 9.7 C 0 km/h
2731 22-10-2008 11:43:02 9.7 C 8.11 g/m*3 9.7 C 0 km/h
2732 22-10-2008 11:48:02 10 C 8.08 g/m*3 10 C 0 km/h
2733 22-10-2008 11:53:02 10.2 C 8.09 g/m*3 10.2 C 0 km/h
2734 22-10-2008 11:58:02 10.4 C 8.1 g/m*3 10.4 C 0 km/h
2735 22-10-2008 12:03:03 10.5 C 8.05 g/m*3 10.5 C 0 km/h
2736 22-10-2008 12:08:03 10.4 C 7.9 g/m*3 10.4 C 0 km/h
2737 22-10-2008 12:13:03 10.5 C 7.76 g/m*3 10.5 C 0 km/h
2738 22-10-2008 12:18:02 10.5 C 7.66 g/m*3 10.5 C 0 km/h
2739 22-10-2008 12:23:02 10.5 C 7.66 g/m*3 10.5 C 0 km/h
2740 22-10-2008 12:28:03 10.9 C 7.86 g/m*3 10.9 C 0 km/h
2741 22-10-2008 12:33:02 10.9 C 7.66 g/m*3 10.9 C 0 km/h
2742 22-10-2008 12:38:02 11 C 7.61 g/m*3 11 C 0 km/h
2743 22-10-2008 12:43:02 11.1 C 7.66 g/m*3 11.1 C 0 km/h
2744 22-10-2008 12:48:03 11.2 C 7.6 g/m*3 11.2 C 0 km/h
2745 22-10-2008 12:53:03 11.2 C 7.6 g/m*3 11.2 C 0 km/h
2746 22-10-2008 12:58:03 11.3 C 7.45 g/m*3 11.3 C 0 km/h
2747 22-10-2008 13:03:02 11.2 C 7.5 g/m*3 11.2 C 0 km/h
2748 22-10-2008 13:08:02 11.2 C 7.4 g/m*3 11.2 C 0 km/h
2749 22-10-2008 13:13:03 11.4 C 7.6 g/m*3 11.4 C 0 km/h
2750 22-10-2008 13:18:02 11.5 C 7.44 g/m*3 11.5 C 0 km/h
Sensor: Nr:Datum:Temp:Abs-Feuchte:Windchill:Wind:
Aussen-T/F 2751 22-10-2008 13:23:02 11.5 C 7.44 g/m*3 11.5 C 0 km/h
2752 22-10-2008 13:28:02 11.6 C 7.38 g/m*3 11.6 C 0 km/h
2753 22-10-2008 13:33:02 11.7 C 7.32 g/m*3 11.7 C 0 km/h
2754 22-10-2008 13:38:02 12 C 7.35 g/m*3 12 C 0 km/h
2755 22-10-2008 13:43:02 12.2 C 7.34 g/m*3 12.2 C 0 km/h
2756 22-10-2008 13:48:01 12.3 C 7.38 g/m*3 12.3 C 0 km/h
2757 22-10-2008 13:53:01 12.1 C 7.08 g/m*3 12.1 C 0 km/h
2758 22-10-2008 13:58:02 12.1 C 6.97 g/m*3 12.1 C 0 km/h
2759 22-10-2008 14:03:01 12.1 C 6.86 g/m*3 12.1 C 0 km/h
2760 22-10-2008 14:08:01 12.3 C 6.95 g/m*3 12.3 C 0 km/h
2761 22-10-2008 14:13:01 12.4 C 6.99 g/m*3 12.4 C 0 km/h
2762 22-10-2008 14:18:02 12.4 C 6.99 g/m*3 12.4 C 0 km/h
2763 22-10-2008 14:23:02 12.3 C 6.84 g/m*3 12.3 C 0 km/h
2764 22-10-2008 14:28:02 12.2 C 6.58 g/m*3 12.2 C 0 km/h
2765 22-10-2008 14:33:01 12.2 C 6.47 g/m*3 12.2 C 0 km/h
2766 22-10-2008 14:38:01 12.3 C 6.73 g/m*3 12.3 C 0 km/h
2767 22-10-2008 14:43:01 12.4 C 6.77 g/m*3 12.4 C 0 km/h
2768 22-10-2008 14:48:01 12.4 C 6.66 g/m*3 12.4 C 0 km/h
2769 22-10-2008 14:53:01 12.3 C 6.52 g/m*3 12.3 C 0 km/h
2770 22-10-2008 14:58:01 12.4 C 6.66 g/m*3 12.4 C 0 km/h
2771 22-10-2008 15:03:02 12.4 C 6.56 g/m*3 12.4 C 0 km/h
2772 22-10-2008 15:08:02 12.3 C 6.52 g/m*3 12.3 C 0 km/h
2773 22-10-2008 15:13:02 12.2 C 6.47 g/m*3 12.2 C 0 km/h
2774 22-10-2008 15:18:01 12.3 C 6.52 g/m*3 12.3 C 0 km/h
2775 22-10-2008 15:23:01 12.2 C 6.37 g/m*3 12.2 C 0 km/h
Sensor: Nr:Datum:Temp:Abs-Feuchte:Windchill:Wind:
Aussen-T/F 2776 22-10-2008 15:28:01 12.3 C 6.41 g/m*3 12.3 C 0 km/h
2777 22-10-2008 15:33:02 12.2 C 6.47 g/m*3 12.2 C 0 km/h
2778 22-10-2008 15:38:02 12.2 C 6.37 g/m*3 12.2 C 0 km/h
2779 22-10-2008 15:43:02 12.2 C 6.47 g/m*3 12.2 C 0 km/h
2780 22-10-2008 15:48:02 12.2 C 6.47 g/m*3 12.2 C 0 km/h
2781 22-10-2008 15:53:02 12.2 C 6.47 g/m*3 12.2 C 0 km/h
2782 22-10-2008 15:58:02 12.1 C 6.22 g/m*3 12.1 C 0 km/h
2783 22-10-2008 16:03:01 12.1 C 6.11 g/m*3 12.1 C 0 km/h
2784 22-10-2008 16:08:01 12 C 6.07 g/m*3 12 C 0 km/h
2785 22-10-2008 16:13:01 12.1 C 6.11 g/m*3 12.1 C 0 km/h
2786 22-10-2008 16:18:01 11.8 C 6.1 g/m*3 11.8 C 0 km/h
2787 22-10-2008 16:23:01 11.8 C 6.1 g/m*3 11.8 C 0 km/h
2788 22-10-2008 16:28:01 11.7 C 6.07 g/m*3 11.7 C 0 km/h
2789 22-10-2008 16:33:01 11.7 C 6.28 g/m*3 11.7 C 0 km/h
2790 22-10-2008 16:38:01 11.7 C 6.28 g/m*3 11.7 C 0 km/h
2791 22-10-2008 16:43:01 11.7 C 6.28 g/m*3 11.7 C 0 km/h
2792 22-10-2008 16:48:01 11.7 C 6.28 g/m*3 11.7 C 0 km/h
2793 22-10-2008 16:53:01 11.7 C 6.38 g/m*3 11.7 C 0 km/h
2794 22-10-2008 16:58:01 11.7 C 6.38 g/m*3 11.7 C 0 km/h
2795 22-10-2008 17:03:02 11.7 C 6.38 g/m*3 11.7 C 0 km/h
2796 22-10-2008 17:08:02 11.7 C 6.48 g/m*3 11.7 C 0 km/h
2797 22-10-2008 17:13:02 11.6 C 6.34 g/m*3 11.6 C 0 km/h
2798 22-10-2008 17:18:02 11.5 C 6.4 g/m*3 11.5 C 0 km/h
2799 22-10-2008 17:23:02 11.4 C 6.36 g/m*3 11.4 C 0 km/h
2800 22-10-2008 17:28:02 11.3 C 6.32 g/m*3 11.3 C 0 km/h
Sensor: Nr:Datum:Temp:Abs-Feuchte:Windchill:Wind:
Aussen-T/F 2801 22-10-2008 17:33:01 11.2 C 6.39 g/m*3 11.2 C 0 km/h
2802 22-10-2008 17:38:01 11.1 C 6.35 g/m*3 11.1 C 0 km/h
2803 22-10-2008 17:43:01 11.1 C 6.35 g/m*3 11.1 C 0 km/h
2804 22-10-2008 17:48:02 11 C 6.31 g/m*3 11 C 0 km/h
2805 22-10-2008 17:53:02 10.9 C 6.37 g/m*3 10.9 C 0 km/h
2806 22-10-2008 17:58:02 10.8 C 6.42 g/m*3 10.8 C 0 km/h
2807 22-10-2008 18:03:01 10.8 C 6.42 g/m*3 10.8 C 0 km/h
2808 22-10-2008 18:08:01 10.7 C 6.48 g/m*3 10.7 C 0 km/h
2809 22-10-2008 18:13:01 10.6 C 6.54 g/m*3 10.6 C 0 km/h
2810 22-10-2008 18:18:01 10.6 C 6.54 g/m*3 10.6 C 0 km/h
2811 22-10-2008 18:23:01 10.5 C 6.5 g/m*3 10.5 C 0 km/h
2812 22-10-2008 18:28:01 10.4 C 6.55 g/m*3 10.4 C 0 km/h
2813 22-10-2008 18:33:02 10.4 C 6.65 g/m*3 10.4 C 0 km/h
2814 22-10-2008 18:38:02 10.3 C 6.61 g/m*3 10.3 C 0 km/h
2815 22-10-2008 18:43:02 10.2 C 6.57 g/m*3 10.2 C 0 km/h
2816 22-10-2008 18:48:02 10.1 C 6.62 g/m*3 10.1 C 0 km/h
2817 22-10-2008 18:53:02 10.1 C 6.62 g/m*3 10.1 C 0 km/h
2818 22-10-2008 18:58:02 10 C 6.67 g/m*3 10 C 0 km/h
2819 22-10-2008 19:03:01 9.9 C 6.72 g/m*3 9.9 C 0 km/h
2820 22-10-2008 19:08:01 9.9 C 6.72 g/m*3 9.9 C 0 km/h
2821 22-10-2008 19:13:01 9.8 C 6.77 g/m*3 9.8 C 0 km/h
2822 22-10-2008 19:18:02 9.7 C 6.73 g/m*3 9.7 C 0 km/h
2823 22-10-2008 19:23:02 9.7 C 6.73 g/m*3 9.7 C 0 km/h
2824 22-10-2008 19:28:02 9.7 C 6.73 g/m*3 9.7 C 0 km/h
2825 22-10-2008 19:33:02 9.7 C 6.73 g/m*3 9.7 C 0 km/h
Sensor: Nr:Datum:Temp:Abs-Feuchte:Windchill:Wind:
Aussen-T/F 2826 22-10-2008 19:38:02 9.6 C 6.69 g/m*3 9.6 C 0 km/h
2827 22-10-2008 19:43:02 9.6 C 6.69 g/m*3 9.6 C 0 km/h
2828 22-10-2008 19:48:01 9.6 C 6.69 g/m*3 9.6 C 0 km/h
2829 22-10-2008 19:53:01 9.6 C 6.69 g/m*3 9.6 C 0 km/h
2830 22-10-2008 19:58:01 9.6 C 6.69 g/m*3 9.6 C 0 km/h
2831 22-10-2008 20:03:02 9.5 C 6.64 g/m*3 9.5 C 0 km/h
2832 22-10-2008 20:08:02 9.4 C 6.6 g/m*3 9.4 C 0 km/h
2833 22-10-2008 20:13:02 9.3 C 6.65 g/m*3 9.3 C 0 km/h
2834 22-10-2008 20:18:02 9.3 C 6.65 g/m*3 9.3 C 0 km/h
2835 22-10-2008 20:23:02 9.2 C 6.61 g/m*3 9.2 C 0 km/h
2836 22-10-2008 20:28:02 9.1 C 6.65 g/m*3 9.1 C 0 km/h
2837 22-10-2008 20:33:02 9.1 C 6.65 g/m*3 9.1 C 0 km/h
2838 22-10-2008 20:38:02 9 C 6.7 g/m*3 9 C 0 km/h
2839 22-10-2008 20:43:02 9 C 6.79 g/m*3 9 C 0 km/h
2840 22-10-2008 20:48:02 9 C 6.79 g/m*3 9 C 0 km/h
2841 22-10-2008 20:53:02 9 C 6.79 g/m*3 9 C 0 km/h
2842 22-10-2008 20:58:02 9 C 6.79 g/m*3 9 C 0 km/h
2843 22-10-2008 21:03:01 8.9 C 6.83 g/m*3 8.9 C 0 km/h
2844 22-10-2008 21:08:01 8.9 C 6.92 g/m*3 8.9 C 0 km/h
2845 22-10-2008 21:13:01 8.8 C 6.88 g/m*3 8.8 C 0 km/h
2846 22-10-2008 21:18:02 8.7 C 6.83 g/m*3 8.7 C 0 km/h
2847 22-10-2008 21:23:02 8.7 C 6.83 g/m*3 8.7 C 0 km/h
2848 22-10-2008 21:28:02 8.6 C 6.87 g/m*3 8.6 C 0 km/h
2849 22-10-2008 21:33:01 8.4 C 6.79 g/m*3 8.4 C 0 km/h
2850 22-10-2008 21:38:01 8.3 C 6.74 g/m*3 8.3 C 0 km/h
Sensor: Nr:Datum:Temp:Abs-Feuchte:Windchill:Wind:
Aussen-T/F 2851 22-10-2008 21:43:01 8.2 C 6.78 g/m*3 8.2 C 0 km/h
2852 22-10-2008 21:49:03 8 C 6.78 g/m*3 8 C 0 km/h
2853 22-10-2008 21:54:03 8 C 6.78 g/m*3 8 C 0 km/h
2854 22-10-2008 21:59:03 7.9 C 6.9 g/m*3 7.9 C 0 km/h
2855 22-10-2008 22:04:03 7.8 C 6.86 g/m*3 7.8 C 0 km/h
2856 22-10-2008 22:09:03 7.7 C 6.81 g/m*3 7.7 C 0 km/h
2857 22-10-2008 22:14:03 7.7 C 6.81 g/m*3 7.7 C 0 km/h
2858 22-10-2008 22:19:03 7.7 C 6.89 g/m*3 7.7 C 0 km/h
2859 22-10-2008 22:24:03 7.7 C 6.89 g/m*3 7.7 C 0 km/h
2860 22-10-2008 22:29:03 7.7 C 6.97 g/m*3 7.7 C 0 km/h
2861 22-10-2008 22:34:03 7.5 C 6.88 g/m*3 7.5 C 0 km/h
2862 22-10-2008 22:39:03 7.5 C 6.88 g/m*3 7.5 C 0 km/h
2863 22-10-2008 22:44:03 7.5 C 6.88 g/m*3 7.5 C 0 km/h
2864 22-10-2008 22:49:03 7.5 C 6.96 g/m*3 7.5 C 0 km/h
2865 22-10-2008 22:54:03 7.4 C 6.92 g/m*3 7.4 C 0 km/h
2866 22-10-2008 22:59:03 7.4 C 6.92 g/m*3 7.4 C 0 km/h
2867 22-10-2008 23:04:04 7.3 C 6.87 g/m*3 7.3 C 0 km/h
2868 22-10-2008 23:09:04 7.2 C 6.83 g/m*3 7.2 C 0 km/h
2869 22-10-2008 23:14:04 7.2 C 6.91 g/m*3 7.2 C 0 km/h
2870 22-10-2008 23:19:04 7.2 C 6.91 g/m*3 7.2 C 0 km/h
2871 22-10-2008 23:24:04 7.1 C 6.86 g/m*3 7.1 C 0 km/h
2872 22-10-2008 23:29:04 7 C 6.82 g/m*3 7 C 0 km/h
2873 22-10-2008 23:34:04 6.9 C 6.85 g/m*3 6.9 C 0 km/h
2874 22-10-2008 23:39:04 6.8 C 6.81 g/m*3 6.8 C 0 km/h
2875 22-10-2008 23:44:04 6.8 C 6.81 g/m*3 6.8 C 0 km/h
Sensor: Nr:Datum:Temp:Abs-Feuchte:Windchill:Wind:
Aussen-T/F 2876 22-10-2008 23:49:04 6.8 C 6.88 g/m*3 6.8 C 0 km/h
2877 22-10-2008 23:54:04 6.8 C 6.88 g/m*3 6.8 C 0 km/h
2878 22-10-2008 23:59:04 6.8 C 6.96 g/m*3 6.8 C 0 km/h
2879 23-10-2008 00:04:04 6.6 C 6.87 g/m*3 6.6 C 0 km/h
2880 23-10-2008 00:09:04 6.6 C 6.87 g/m*3 6.6 C 0 km/h
2881 23-10-2008 00:14:04 6.6 C 6.87 g/m*3 6.6 C 0 km/h
2882 23-10-2008 00:19:04 6.5 C 6.82 g/m*3 6.5 C 0 km/h
2883 23-10-2008 00:24:04 6.5 C 6.9 g/m*3 6.5 C 0 km/h
2884 23-10-2008 00:29:04 6.3 C 6.81 g/m*3 6.3 C 0 km/h
2885 23-10-2008 00:34:04 6.3 C 6.81 g/m*3 6.3 C 0 km/h
2886 23-10-2008 00:39:04 6.3 C 6.81 g/m*3 6.3 C 0 km/h
2887 23-10-2008 00:44:04 6.2 C 6.77 g/m*3 6.2 C 0 km/h
2888 23-10-2008 00:49:05 6.2 C 6.77 g/m*3 6.2 C 0 km/h
2889 23-10-2008 00:54:05 6.1 C 6.72 g/m*3 6.1 C 0 km/h
2890 23-10-2008 00:59:05 6.1 C 6.72 g/m*3 6.1 C 0 km/h
2891 23-10-2008 01:04:05 6.1 C 6.72 g/m*3 6.1 C 0 km/h
2892 23-10-2008 01:09:05 6 C 6.75 g/m*3 6 C 0 km/h
2893 23-10-2008 01:14:05 6 C 6.75 g/m*3 6 C 0 km/h
2894 23-10-2008 01:19:05 6 C 6.75 g/m*3 6 C 0 km/h
2895 23-10-2008 01:24:05 5.9 C 6.78 g/m*3 5.9 C 0 km/h
2896 23-10-2008 01:29:05 5.8 C 6.73 g/m*3 5.8 C 0 km/h
2897 23-10-2008 01:34:05 5.9 C 6.78 g/m*3 5.9 C 0 km/h
2898 23-10-2008 01:39:05 5.9 C 6.85 g/m*3 5.9 C 0 km/h
2899 23-10-2008 01:44:05 6 C 6.82 g/m*3 6 C 0 km/h
2900 23-10-2008 01:49:05 6 C 6.82 g/m*3 6 C 0 km/h
Sensor: Nr:Datum:Temp:Abs-Feuchte:Windchill:Wind:
Aussen-T/F 2901 23-10-2008 01:54:05 5.8 C 6.81 g/m*3 5.8 C 0 km/h
2902 23-10-2008 01:59:05 5.8 C 6.81 g/m*3 5.8 C 0 km/h
2903 23-10-2008 02:04:05 5.9 C 6.85 g/m*3 5.9 C 0 km/h
2904 23-10-2008 02:09:05 5.8 C 6.81 g/m*3 5.8 C 0 km/h
2905 23-10-2008 02:14:05 5.9 C 6.85 g/m*3 5.9 C 0 km/h
2906 23-10-2008 02:19:05 5.9 C 6.85 g/m*3 5.9 C 0 km/h
2907 23-10-2008 02:24:05 6 C 6.82 g/m*3 6 C 0 km/h
2908 23-10-2008 02:29:05 6 C 6.82 g/m*3 6 C 0 km/h
2909 23-10-2008 02:34:06 6.1 C 6.87 g/m*3 6.1 C 0 km/h
2910 23-10-2008 02:39:06 6.4 C 7.08 g/m*3 6.4 C 0 km/h
2911 23-10-2008 02:44:06 6.5 C 7.12 g/m*3 6.5 C 0 km/h
2912 23-10-2008 02:49:06 6.7 C 7.22 g/m*3 6.7 C 0 km/h
2913 23-10-2008 02:54:06 6.7 C 7.22 g/m*3 6.7 C 0 km/h
2914 23-10-2008 02:59:06 6.8 C 7.27 g/m*3 6.8 C 0 km/h
2915 23-10-2008 03:04:06 6.8 C 7.27 g/m*3 6.8 C 0 km/h
2916 23-10-2008 03:09:06 6.9 C 7.31 g/m*3 6.9 C 0 km/h
2917 23-10-2008 03:14:06 6.9 C 7.31 g/m*3 6.9 C 0 km/h
2918 23-10-2008 03:19:06 7 C 7.28 g/m*3 7 C 0 km/h
2919 23-10-2008 03:24:06 7 C 7.28 g/m*3 7 C 0 km/h
2920 23-10-2008 03:29:06 7 C 7.28 g/m*3 7 C 0 km/h
2921 23-10-2008 03:34:06 7 C 7.28 g/m*3 7 C 0 km/h
2922 23-10-2008 03:39:06 7 C 7.28 g/m*3 7 C 0 km/h
2923 23-10-2008 03:44:06 6.9 C 7.24 g/m*3 6.9 C 0 km/h
2924 23-10-2008 03:49:06 7 C 7.21 g/m*3 7 C 0 km/h
2925 23-10-2008 03:54:06 7 C 7.21 g/m*3 7 C 0 km/h
Sensor: Nr:Datum:Temp:Abs-Feuchte:Windchill:Wind:
Aussen-T/F 2926 23-10-2008 03:59:06 7 C 7.21 g/m*3 7 C 0 km/h
2927 23-10-2008 04:04:06 7 C 7.21 g/m*3 7 C 0 km/h
2928 23-10-2008 04:09:06 7.1 C 7.25 g/m*3 7.1 C 0 km/h
2929 23-10-2008 04:14:07 7.3 C 7.27 g/m*3 7.3 C 0 km/h
2930 23-10-2008 04:19:07 7.3 C 7.35 g/m*3 7.3 C 0 km/h
2931 23-10-2008 04:24:07 7.2 C 7.3 g/m*3 7.2 C 0 km/h
2932 23-10-2008 04:29:07 7.3 C 7.27 g/m*3 7.3 C 0 km/h
2933 23-10-2008 04:34:07 7.3 C 7.27 g/m*3 7.3 C 0 km/h
2934 23-10-2008 04:39:07 7.3 C 7.27 g/m*3 7.3 C 0 km/h
2935 23-10-2008 04:44:07 7.3 C 7.27 g/m*3 7.3 C 0 km/h
2936 23-10-2008 04:49:07 7.3 C 7.27 g/m*3 7.3 C 0 km/h
2937 23-10-2008 04:54:07 7.3 C 7.27 g/m*3 7.3 C 0 km/h
2938 23-10-2008 04:59:07 7.4 C 7.24 g/m*3 7.4 C 0 km/h
2939 23-10-2008 05:04:07 7.3 C 7.19 g/m*3 7.3 C 0 km/h
2940 23-10-2008 05:09:07 7.3 C 7.19 g/m*3 7.3 C 0 km/h
2941 23-10-2008 05:14:07 7.3 C 7.11 g/m*3 7.3 C 0 km/h
2942 23-10-2008 05:19:07 7.3 C 7.11 g/m*3 7.3 C 0 km/h
2943 23-10-2008 05:24:07 7.3 C 7.11 g/m*3 7.3 C 0 km/h
2944 23-10-2008 05:29:07 7.3 C 7.03 g/m*3 7.3 C 0 km/h
2945 23-10-2008 05:34:07 7.3 C 6.95 g/m*3 7.3 C 0 km/h
2946 23-10-2008 05:39:07 7.4 C 6.92 g/m*3 7.4 C 0 km/h
2947 23-10-2008 05:44:07 7.4 C 6.92 g/m*3 7.4 C 0 km/h
2948 23-10-2008 05:49:07 7.4 C 6.84 g/m*3 7.4 C 0 km/h
2949 23-10-2008 05:54:08 7.4 C 6.84 g/m*3 7.4 C 0 km/h
2950 23-10-2008 05:59:08 7.4 C 6.76 g/m*3 7.4 C 0 km/h
Sensor: Nr:Datum:Temp:Abs-Feuchte:Windchill:Wind:
Aussen-T/F 2951 23-10-2008 06:04:08 7.4 C 6.76 g/m*3 7.4 C 0 km/h
2952 23-10-2008 06:09:08 7.5 C 6.8 g/m*3 7.5 C 0 km/h
2953 23-10-2008 06:14:08 7.5 C 6.8 g/m*3 7.5 C 0 km/h
2954 23-10-2008 06:19:08 7.5 C 6.8 g/m*3 7.5 C 0 km/h
2955 23-10-2008 06:24:08 7.5 C 6.72 g/m*3 7.5 C 0 km/h
2956 23-10-2008 06:29:08 7.5 C 6.72 g/m*3 7.5 C 0 km/h
2957 23-10-2008 06:34:08 7.5 C 6.72 g/m*3 7.5 C 0 km/h
2958 23-10-2008 06:39:08 7.4 C 6.68 g/m*3 7.4 C 0 km/h
2959 23-10-2008 06:44:08 7.4 C 6.68 g/m*3 7.4 C 0 km/h
2960 23-10-2008 06:49:08 7.4 C 6.68 g/m*3 7.4 C 0 km/h
2961 23-10-2008 06:54:08 7.4 C 6.68 g/m*3 7.4 C 0 km/h
2962 23-10-2008 06:59:08 7.4 C 6.68 g/m*3 7.4 C 0 km/h
2963 23-10-2008 07:04:02 7.4 C 6.68 g/m*3 7.4 C 0 km/h
2964 23-10-2008 07:09:02 7.4 C 6.68 g/m*3 7.4 C 0 km/h
2965 23-10-2008 07:14:02 7.4 C 6.76 g/m*3 7.4 C 0 km/h
2966 23-10-2008 07:19:03 7.4 C 6.76 g/m*3 7.4 C 0 km/h
2967 23-10-2008 07:24:03 7.4 C 6.76 g/m*3 7.4 C 0 km/h
2968 23-10-2008 07:29:03 7.4 C 6.76 g/m*3 7.4 C 0 km/h
2969 23-10-2008 07:34:02 7.4 C 6.76 g/m*3 7.4 C 0 km/h
2970 23-10-2008 07:39:02 7.4 C 6.76 g/m*3 7.4 C 0 km/h
2971 23-10-2008 07:44:02 7.4 C 6.76 g/m*3 7.4 C 0 km/h
2972 23-10-2008 07:49:01 7.4 C 6.76 g/m*3 7.4 C 0 km/h
2973 23-10-2008 07:54:01 7.4 C 6.76 g/m*3 7.4 C 0 km/h
2974 23-10-2008 07:59:01 7.4 C 6.76 g/m*3 7.4 C 0 km/h
2975 23-10-2008 08:04:02 7.4 C 6.76 g/m*3 7.4 C 0 km/h
Sensor: Nr:Datum:Temp:Abs-Feuchte:Windchill:Wind:
Aussen-T/F 2976 23-10-2008 08:09:02 7.4 C 6.76 g/m*3 7.4 C 0 km/h
2977 23-10-2008 08:14:02 7.4 C 6.76 g/m*3 7.4 C 0 km/h
2978 23-10-2008 08:19:01 7.4 C 6.76 g/m*3 7.4 C 0 km/h
2979 23-10-2008 08:24:01 7.3 C 6.72 g/m*3 7.3 C 0 km/h
2980 23-10-2008 08:29:01 7.4 C 6.76 g/m*3 7.4 C 0 km/h
2981 23-10-2008 08:34:01 7.4 C 6.76 g/m*3 7.4 C 0 km/h
2982 23-10-2008 08:39:01 7.4 C 6.76 g/m*3 7.4 C 0 km/h
2983 23-10-2008 08:44:01 7.4 C 6.76 g/m*3 7.4 C 0 km/h
2984 23-10-2008 08:49:02 7.5 C 6.8 g/m*3 7.5 C 0 km/h
2985 23-10-2008 08:54:02 7.5 C 6.88 g/m*3 7.5 C 0 km/h
2986 23-10-2008 08:59:02 7.6 C 6.85 g/m*3 7.6 C 0 km/h
2987 23-10-2008 09:04:01 7.7 C 6.81 g/m*3 7.7 C 0 km/h
2988 23-10-2008 09:09:01 7.8 C 6.77 g/m*3 7.8 C 0 km/h
2989 23-10-2008 09:14:01 7.8 C 6.77 g/m*3 7.8 C 0 km/h
2990 23-10-2008 09:19:01 7.9 C 6.74 g/m*3 7.9 C 0 km/h
2991 23-10-2008 09:24:01 8 C 6.53 g/m*3 8 C 0 km/h
2992 23-10-2008 09:29:01 8 C 6.45 g/m*3 8 C 0 km/h
2993 23-10-2008 09:34:01 8.1 C 6.41 g/m*3 8.1 C 0 km/h
2994 23-10-2008 09:39:01 8.1 C 6.41 g/m*3 8.1 C 0 km/h
2995 23-10-2008 09:44:01 8.2 C 6.45 g/m*3 8.2 C 0 km/h
2996 23-10-2008 09:49:03 8.3 C 6.49 g/m*3 8.3 C 0 km/h
2997 23-10-2008 09:54:03 8.3 C 6.32 g/m*3 8.3 C 0 km/h
2998 23-10-2008 09:59:03 8.4 C 6.36 g/m*3 8.4 C 0 km/h
2999 23-10-2008 10:04:02 8.4 C 6.36 g/m*3 8.4 C 0 km/h
3000 23-10-2008 10:09:02 8.5 C 6.32 g/m*3 8.5 C 0 km/h
Sensor: Nr:Datum:Temp:Abs-Feuchte:Windchill:Wind:
Aussen-T/F 3001 23-10-2008 10:14:02 8.6 C 6.36 g/m*3 8.6 C 0 km/h
3002 23-10-2008 10:19:02 8.7 C 6.4 g/m*3 8.7 C 0 km/h
3003 23-10-2008 10:24:02 8.7 C 6.31 g/m*3 8.7 C 0 km/h
3004 23-10-2008 10:29:02 8.7 C 6.23 g/m*3 8.7 C 0 km/h
3005 23-10-2008 10:34:02 8.8 C 6.27 g/m*3 8.8 C 0 km/h
3006 23-10-2008 10:39:02 8.9 C 6.22 g/m*3 8.9 C 0 km/h
3007 23-10-2008 10:44:02 9.1 C 6.21 g/m*3 9.1 C 0 km/h
3008 23-10-2008 10:49:02 9.1 C 6.3 g/m*3 9.1 C 0 km/h
3009 23-10-2008 10:54:03 9.2 C 6.34 g/m*3 9.2 C 0 km/h
3010 23-10-2008 10:59:03 9.2 C 6.25 g/m*3 9.2 C 0 km/h
3011 23-10-2008 11:04:01 9.3 C 6.2 g/m*3 9.3 C 0 km/h
3012 23-10-2008 11:09:01 9.2 C 6.16 g/m*3 9.2 C 0 km/h
3013 23-10-2008 11:14:01 9.4 C 6.24 g/m*3 9.4 C 0 km/h
3014 23-10-2008 11:19:02 9.4 C 6.15 g/m*3 9.4 C 0 km/h
3015 23-10-2008 11:24:02 9.6 C 6.14 g/m*3 9.6 C 0 km/h
3016 23-10-2008 11:29:02 9.5 C 6.1 g/m*3 9.5 C 0 km/h
3017 23-10-2008 11:34:01 9.4 C 6.06 g/m*3 9.4 C 0 km/h
3018 23-10-2008 11:39:01 9.4 C 6.06 g/m*3 9.4 C 0 km/h
3019 23-10-2008 11:44:01 9.4 C 6.06 g/m*3 9.4 C 0 km/h
3020 23-10-2008 11:49:02 9.3 C 6.11 g/m*3 9.3 C 0 km/h
3021 23-10-2008 11:54:02 9.3 C 6.11 g/m*3 9.3 C 0 km/h
3022 23-10-2008 11:59:02 9.6 C 6.32 g/m*3 9.6 C 0 km/h
3023 23-10-2008 12:04:02 9.8 C 6.31 g/m*3 9.8 C 0 km/h
3024 23-10-2008 12:09:02 10.2 C 6.38 g/m*3 10.2 C 0 km/h
3025 23-10-2008 12:14:02 10.3 C 6.32 g/m*3 10.3 C 0 km/h
Sensor: Nr:Datum:Temp:Abs-Feuchte:Windchill:Wind:
Aussen-T/F 3026 23-10-2008 12:19:02 10.4 C 6.17 g/m*3 10.4 C 0 km/h
3027 23-10-2008 12:24:02 10.5 C 6.11 g/m*3 10.5 C 0 km/h
3028 23-10-2008 12:29:02 10.6 C 6.25 g/m*3 10.6 C 0 km/h
3029 23-10-2008 12:34:02 10.7 C 6.29 g/m*3 10.7 C 0 km/h
3030 23-10-2008 12:39:02 10.9 C 6.27 g/m*3 10.9 C 0 km/h
3031 23-10-2008 12:44:02 10.9 C 6.27 g/m*3 10.9 C 0 km/h
3032 23-10-2008 12:49:02 11.1 C 6.14 g/m*3 11.1 C 0 km/h
3033 23-10-2008 12:54:02 11.3 C 6.43 g/m*3 11.3 C 0 km/h
3034 23-10-2008 12:59:02 11.5 C 6.4 g/m*3 11.5 C 0 km/h
3035 23-10-2008 13:04:01 11.6 C 6.44 g/m*3 11.6 C 0 km/h
3036 23-10-2008 13:09:01 11.9 C 6.46 g/m*3 11.9 C 0 km/h
3037 23-10-2008 13:14:01 12.2 C 6.37 g/m*3 12.2 C 0 km/h
3038 23-10-2008 13:19:01 12.3 C 6.19 g/m*3 12.3 C 0 km/h
3039 23-10-2008 13:24:01 12.3 C 5.97 g/m*3 12.3 C 0 km/h
3040 23-10-2008 13:29:01 12.5 C 6.16 g/m*3 12.5 C 0 km/h
3041 23-10-2008 13:34:02 12.6 C 6.08 g/m*3 12.6 C 0 km/h
3042 23-10-2008 13:39:03 12.8 C 6.05 g/m*3 12.8 C 0 km/h
3043 23-10-2008 13:44:03 12.9 C 5.86 g/m*3 12.9 C 0 km/h
3044 23-10-2008 13:49:02 12.9 C 5.86 g/m*3 12.9 C 0 km/h
3045 23-10-2008 13:54:02 13 C 5.9 g/m*3 13 C 0 km/h
3046 23-10-2008 13:59:02 13.2 C 5.97 g/m*3 13.2 C 0 km/h
3047 23-10-2008 14:04:02 13.2 C 5.97 g/m*3 13.2 C 0 km/h
3048 23-10-2008 14:09:02 13.3 C 6.01 g/m*3 13.3 C 0 km/h
3049 23-10-2008 14:14:02 13.2 C 5.86 g/m*3 13.2 C 0 km/h
3050 23-10-2008 14:19:02 13.3 C 5.89 g/m*3 13.3 C 0 km/h
Sensor: Nr:Datum:Temp:Abs-Feuchte:Windchill:Wind:
Aussen-T/F 3051 23-10-2008 14:24:02 13.6 C 6.12 g/m*3 13.6 C 0 km/h
3052 23-10-2008 14:29:02 14.1 C 6.07 g/m*3 14.1 C 0 km/h
3053 23-10-2008 14:34:02 14.2 C 5.62 g/m*3 14.2 C 0 km/h
3054 23-10-2008 14:39:02 14.2 C 5.62 g/m*3 14.2 C 0 km/h
3055 23-10-2008 14:44:02 14 C 5.43 g/m*3 14 C 0 km/h
3056 23-10-2008 14:49:02 14.3 C 5.65 g/m*3 14.3 C 0 km/h
3057 23-10-2008 14:54:02 14.6 C 5.63 g/m*3 14.6 C 0 km/h
3058 23-10-2008 14:59:02 14.7 C 5.54 g/m*3 14.7 C 0 km/h
3059 23-10-2008 15:04:02 14.9 C 5.48 g/m*3 14.9 C 0 km/h
3060 23-10-2008 15:09:02 15.2 C 5.45 g/m*3 15.2 C 0 km/h
3061 23-10-2008 15:14:02 15.4 C 5.39 g/m*3 15.4 C 0 km/h
3062 23-10-2008 15:19:02 15.8 C 5.65 g/m*3 15.8 C 0 km/h
3063 23-10-2008 15:24:02 16 C 5.31 g/m*3 16 C 0 km/h
3064 23-10-2008 15:29:02 15.9 C 5.01 g/m*3 15.9 C 0 km/h
3065 23-10-2008 15:34:02 15.8 C 4.98 g/m*3 15.8 C 0 km/h
3066 23-10-2008 15:39:02 16.1 C 5.35 g/m*3 16.1 C 0 km/h
3067 23-10-2008 15:44:02 16.2 C 5.38 g/m*3 16.2 C 0 km/h
3068 23-10-2008 15:49:02 16 C 5.04 g/m*3 16 C 0 km/h
3069 23-10-2008 15:54:02 15.9 C 5.15 g/m*3 15.9 C 0 km/h
3070 23-10-2008 15:59:02 15.6 C 5.05 g/m*3 15.6 C 0 km/h
3071 23-10-2008 16:04:01 15.4 C 4.86 g/m*3 15.4 C 0 km/h
3072 23-10-2008 16:09:01 15.2 C 5.19 g/m*3 15.2 C 0 km/h
3073 23-10-2008 16:14:01 15.2 C 5.19 g/m*3 15.2 C 0 km/h
3074 23-10-2008 16:19:02 15.1 C 5.16 g/m*3 15.1 C 0 km/h
3075 23-10-2008 16:24:02 14.9 C 5.23 g/m*3 14.9 C 0 km/h
Sensor: Nr:Datum:Temp:Abs-Feuchte:Windchill:Wind:
Aussen-T/F 3076 23-10-2008 16:29:02 15.1 C 5.16 g/m*3 15.1 C 0 km/h
3077 23-10-2008 16:34:02 15.1 C 5.03 g/m*3 15.1 C 0 km/h
3078 23-10-2008 16:39:02 15.3 C 5.22 g/m*3 15.3 C 0 km/h
3079 23-10-2008 16:44:02 15.4 C 5.39 g/m*3 15.4 C 0 km/h
3080 23-10-2008 16:49:02 15.5 C 5.29 g/m*3 15.5 C 0 km/h
3081 23-10-2008 16:54:02 15.7 C 5.35 g/m*3 15.7 C 0 km/h
3082 23-10-2008 16:59:02 15.9 C 5.42 g/m*3 15.9 C 0 km/h
3083 23-10-2008 17:04:02 15.9 C 5.55 g/m*3 15.9 C 0 km/h
3084 23-10-2008 17:09:02 15.9 C 5.55 g/m*3 15.9 C 0 km/h
3085 23-10-2008 17:14:02 15.8 C 5.38 g/m*3 15.8 C 0 km/h
3086 23-10-2008 17:19:02 15.7 C 6.02 g/m*3 15.7 C 0 km/h
3087 23-10-2008 17:24:02 15.5 C 5.95 g/m*3 15.5 C 0 km/h
3088 23-10-2008 17:29:02 15.2 C 5.71 g/m*3 15.2 C 0 km/h
3089 23-10-2008 17:34:01 14.9 C 5.99 g/m*3 14.9 C 0 km/h
3090 23-10-2008 17:39:01 14.7 C 6.04 g/m*3 14.7 C 0 km/h
3091 23-10-2008 17:44:01 14.2 C 5.74 g/m*3 14.2 C 0 km/h
3092 23-10-2008 17:49:02 13.9 C 5.75 g/m*3 13.9 C 0 km/h
3093 23-10-2008 17:54:02 13.3 C 5.55 g/m*3 13.3 C 0 km/h
3094 23-10-2008 17:59:02 13.2 C 5.63 g/m*3 13.2 C 0 km/h
3095 23-10-2008 18:04:02 12.6 C 5.53 g/m*3 12.6 C 0 km/h
3096 23-10-2008 18:09:02 11.9 C 5.61 g/m*3 11.9 C 0 km/h
3097 23-10-2008 18:14:02 11.8 C 5.68 g/m*3 11.8 C 0 km/h
3098 23-10-2008 18:19:01 11.3 C 5.51 g/m*3 11.3 C 0 km/h
3099 23-10-2008 18:24:01 11.1 C 5.54 g/m*3 11.1 C 0 km/h
3100 23-10-2008 18:29:01 10.8 C 5.63 g/m*3 10.8 C 0 km/h
Sensor: Nr:Datum:Temp:Abs-Feuchte:Windchill:Wind:
Aussen-T/F 3101 23-10-2008 18:34:02 10.5 C 5.72 g/m*3 10.5 C 0 km/h
3102 23-10-2008 18:39:02 10.2 C 5.71 g/m*3 10.2 C 0 km/h
3103 23-10-2008 18:44:02 10.1 C 5.67 g/m*3 10.1 C 0 km/h
3104 23-10-2008 18:49:02 10 C 5.73 g/m*3 10 C 0 km/h
3105 23-10-2008 18:54:02 9.7 C 5.72 g/m*3 9.7 C 0 km/h
3106 23-10-2008 18:59:03 9.5 C 5.73 g/m*3 9.5 C 0 km/h
3107 23-10-2008 19:04:02 9.5 C 5.73 g/m*3 9.5 C 0 km/h
3108 23-10-2008 19:09:02 9.3 C 5.75 g/m*3 9.3 C 0 km/h
3109 23-10-2008 19:14:02 9.3 C 5.75 g/m*3 9.3 C 0 km/h
3110 23-10-2008 19:19:02 9.2 C 5.8 g/m*3 9.2 C 0 km/h
3111 23-10-2008 19:24:02 9.1 C 5.77 g/m*3 9.1 C 0 km/h
3112 23-10-2008 19:29:02 9.1 C 5.86 g/m*3 9.1 C 0 km/h
3113 23-10-2008 19:34:02 9 C 5.82 g/m*3 9 C 0 km/h
3114 23-10-2008 19:39:02 9 C 5.91 g/m*3 9 C 0 km/h
3115 23-10-2008 19:44:02 8.9 C 5.96 g/m*3 8.9 C 0 km/h
3116 23-10-2008 19:49:02 8.8 C 5.92 g/m*3 8.8 C 0 km/h
3117 23-10-2008 19:54:02 8.8 C 5.92 g/m*3 8.8 C 0 km/h
3118 23-10-2008 19:59:02 8.7 C 5.97 g/m*3 8.7 C 0 km/h
3119 23-10-2008 20:04:02 8.7 C 5.97 g/m*3 8.7 C 0 km/h
3120 23-10-2008 20:09:02 8.6 C 5.93 g/m*3 8.6 C 0 km/h
3121 23-10-2008 20:14:02 8.6 C 5.93 g/m*3 8.6 C 0 km/h
3122 23-10-2008 20:19:02 8.5 C 5.98 g/m*3 8.5 C 0 km/h
3123 23-10-2008 20:24:02 8.5 C 5.98 g/m*3 8.5 C 0 km/h
3124 23-10-2008 20:29:02 8.4 C 5.94 g/m*3 8.4 C 0 km/h
3125 23-10-2008 20:34:03 8.4 C 5.94 g/m*3 8.4 C 0 km/h
Sensor: Nr:Datum:Temp:Abs-Feuchte:Windchill:Wind:
Aussen-T/F 3126 23-10-2008 20:39:03 8.3 C 5.9 g/m*3 8.3 C 0 km/h
3127 23-10-2008 20:44:03 8.2 C 5.95 g/m*3 8.2 C 0 km/h
3128 23-10-2008 20:49:02 8.2 C 5.95 g/m*3 8.2 C 0 km/h
3129 23-10-2008 20:54:02 8.1 C 5.99 g/m*3 8.1 C 0 km/h
3130 23-10-2008 20:59:02 8.1 C 5.99 g/m*3 8.1 C 0 km/h
3131 23-10-2008 21:04:02 8 C 5.95 g/m*3 8 C 0 km/h
3132 23-10-2008 21:09:02 7.9 C 6 g/m*3 7.9 C 0 km/h
3133 23-10-2008 21:14:02 7.9 C 6 g/m*3 7.9 C 0 km/h
3134 23-10-2008 21:19:02 7.8 C 6.04 g/m*3 7.8 C 0 km/h
3135 23-10-2008 21:24:02 7.7 C 6 g/m*3 7.7 C 0 km/h
3136 23-10-2008 21:29:02 7.6 C 6.04 g/m*3 7.6 C 0 km/h
3137 23-10-2008 21:34:02 7.6 C 6.04 g/m*3 7.6 C 0 km/h
3138 23-10-2008 21:39:02 7.5 C 6 g/m*3 7.5 C 0 km/h
3139 23-10-2008 21:44:03 7.6 C 6.04 g/m*3 7.6 C 0 km/h
3140 23-10-2008 21:49:01 7.5 C 6 g/m*3 7.5 C 0 km/h
3141 23-10-2008 21:54:01 7.4 C 5.96 g/m*3 7.4 C 0 km/h
3142 23-10-2008 21:59:01 7.5 C 6 g/m*3 7.5 C 0 km/h
3143 23-10-2008 22:04:01 7.5 C 6 g/m*3 7.5 C 0 km/h
3144 23-10-2008 22:09:01 7.5 C 6 g/m*3 7.5 C 0 km/h
3145 23-10-2008 22:14:01 7.3 C 5.93 g/m*3 7.3 C 0 km/h
3146 23-10-2008 22:20:02 7.2 C 5.89 g/m*3 7.2 C 0 km/h
3147 23-10-2008 22:25:02 7.2 C 5.97 g/m*3 7.2 C 0 km/h
3148 23-10-2008 22:30:02 7.2 C 6.04 g/m*3 7.2 C 0 km/h
3149 23-10-2008 22:35:02 7 C 5.97 g/m*3 7 C 0 km/h
3150 23-10-2008 22:40:02 7 C 5.97 g/m*3 7 C 0 km/h
Sensor: Nr:Datum:Temp:Abs-Feuchte:Windchill:Wind:
Aussen-T/F 3151 23-10-2008 22:45:02 6.9 C 6 g/m*3 6.9 C 0 km/h
3152 23-10-2008 22:50:02 6.8 C 6.04 g/m*3 6.8 C 0 km/h
3153 23-10-2008 22:55:02 6.7 C 6 g/m*3 6.7 C 0 km/h
3154 23-10-2008 23:00:02 6.6 C 5.96 g/m*3 6.6 C 0 km/h
3155 23-10-2008 23:05:02 6.5 C 6 g/m*3 6.5 C 0 km/h
3156 23-10-2008 23:10:02 6.6 C 6.04 g/m*3 6.6 C 0 km/h
3157 23-10-2008 23:15:02 6.5 C 6 g/m*3 6.5 C 0 km/h
3158 23-10-2008 23:20:02 6.4 C 5.96 g/m*3 6.4 C 0 km/h
3159 23-10-2008 23:25:02 6.4 C 5.96 g/m*3 6.4 C 0 km/h
3160 23-10-2008 23:30:02 6.3 C 6 g/m*3 6.3 C 0 km/h
3161 23-10-2008 23:35:02 6.1 C 5.92 g/m*3 6.1 C 0 km/h
3162 23-10-2008 23:40:02 6.1 C 5.92 g/m*3 6.1 C 0 km/h
3163 23-10-2008 23:45:03 6 C 5.88 g/m*3 6 C 0 km/h
3164 23-10-2008 23:50:03 5.9 C 5.91 g/m*3 5.9 C 0 km/h
3165 23-10-2008 23:55:03 5.8 C 5.95 g/m*3 5.8 C 0 km/h
3166 24-10-2008 00:00:03 5.8 C 5.95 g/m*3 5.8 C 0 km/h
3167 24-10-2008 00:05:03 5.7 C 5.91 g/m*3 5.7 C 0 km/h
3168 24-10-2008 00:10:03 5.6 C 5.87 g/m*3 5.6 C 0 km/h
3169 24-10-2008 00:15:03 5.6 C 5.87 g/m*3 5.6 C 0 km/h
3170 24-10-2008 00:20:03 5.4 C 5.79 g/m*3 5.4 C 0 km/h
3171 24-10-2008 00:25:03 5.4 C 5.79 g/m*3 5.4 C 0 km/h
3172 24-10-2008 00:30:03 5.3 C 5.82 g/m*3 5.3 C 0 km/h
3173 24-10-2008 00:35:03 5.2 C 5.78 g/m*3 5.2 C 0 km/h
3174 24-10-2008 00:40:03 5.1 C 5.75 g/m*3 5.1 C 0 km/h
3175 24-10-2008 00:45:03 5.1 C 5.75 g/m*3 5.1 C 0 km/h
Sensor: Nr:Datum:Temp:Abs-Feuchte:Windchill:Wind:
Aussen-T/F 3176 24-10-2008 00:50:03 5.1 C 5.75 g/m*3 5.1 C 0 km/h
3177 24-10-2008 00:55:03 5 C 5.78 g/m*3 5 C 0 km/h
3178 24-10-2008 01:00:03 4.9 C 5.81 g/m*3 4.9 C 0 km/h
3179 24-10-2008 01:05:03 4.9 C 5.81 g/m*3 4.9 C 0 km/h
3180 24-10-2008 01:10:03 4.9 C 5.81 g/m*3 4.9 C 0 km/h
3181 24-10-2008 01:15:03 4.7 C 5.73 g/m*3 4.7 C 0 km/h
3182 24-10-2008 01:20:03 4.7 C 5.73 g/m*3 4.7 C 0 km/h
3183 24-10-2008 01:25:04 4.6 C 5.69 g/m*3 4.6 C 0 km/h
3184 24-10-2008 01:30:04 4.6 C 5.76 g/m*3 4.6 C 0 km/h
3185 24-10-2008 01:35:04 4.5 C 5.72 g/m*3 4.5 C 0 km/h
3186 24-10-2008 01:40:04 4.5 C 5.72 g/m*3 4.5 C 0 km/h
3187 24-10-2008 01:45:04 4.5 C 5.72 g/m*3 4.5 C 0 km/h
3188 24-10-2008 01:50:04 4.5 C 5.72 g/m*3 4.5 C 0 km/h
3189 24-10-2008 01:55:04 4.5 C 5.72 g/m*3 4.5 C 0 km/h
3190 24-10-2008 02:00:04 4.4 C 5.68 g/m*3 4.4 C 0 km/h
3191 24-10-2008 02:05:04 4.3 C 5.64 g/m*3 4.3 C 0 km/h
3192 24-10-2008 02:10:04 4.3 C 5.64 g/m*3 4.3 C 0 km/h
3193 24-10-2008 02:15:04 4.3 C 5.64 g/m*3 4.3 C 0 km/h
3194 24-10-2008 02:20:04 4.2 C 5.61 g/m*3 4.2 C 0 km/h
3195 24-10-2008 02:25:04 4.1 C 5.57 g/m*3 4.1 C 0 km/h
3196 24-10-2008 02:30:04 4.1 C 5.63 g/m*3 4.1 C 0 km/h
3197 24-10-2008 02:35:04 4 C 5.59 g/m*3 4 C 0 km/h
3198 24-10-2008 02:40:04 3.9 C 5.56 g/m*3 3.9 C 0 km/h
3199 24-10-2008 02:45:04 3.8 C 5.52 g/m*3 3.8 C 0 km/h
3200 24-10-2008 02:50:04 3.8 C 5.58 g/m*3 3.8 C 0 km/h
Sensor: Nr:Datum:Temp:Abs-Feuchte:Windchill:Wind:
Aussen-T/F 3201 24-10-2008 02:55:04 3.8 C 5.58 g/m*3 3.8 C 0 km/h
3202 24-10-2008 03:00:05 3.8 C 5.58 g/m*3 3.8 C 0 km/h
3203 24-10-2008 03:05:05 3.8 C 5.58 g/m*3 3.8 C 0 km/h
3204 24-10-2008 03:10:05 3.6 C 5.51 g/m*3 3.6 C 0 km/h
3205 24-10-2008 03:15:05 3.5 C 5.53 g/m*3 3.5 C 0 km/h
3206 24-10-2008 03:20:05 3.6 C 5.51 g/m*3 3.6 C 0 km/h
3207 24-10-2008 03:25:05 3.6 C 5.51 g/m*3 3.6 C 0 km/h
3208 24-10-2008 03:30:05 3.7 C 5.61 g/m*3 3.7 C 0 km/h
3209 24-10-2008 03:35:05 3.7 C 5.61 g/m*3 3.7 C 0 km/h
3210 24-10-2008 03:40:05 3.7 C 5.61 g/m*3 3.7 C 0 km/h
3211 24-10-2008 03:45:05 3.8 C 5.65 g/m*3 3.8 C 0 km/h
3212 24-10-2008 03:50:05 3.8 C 5.71 g/m*3 3.8 C 0 km/h
3213 24-10-2008 03:55:05 3.8 C 5.71 g/m*3 3.8 C 0 km/h
3214 24-10-2008 04:00:05 3.9 C 5.75 g/m*3 3.9 C 0 km/h
3215 24-10-2008 04:05:05 3.9 C 5.75 g/m*3 3.9 C 0 km/h
3216 24-10-2008 04:10:05 4 C 5.72 g/m*3 4 C 0 km/h
3217 24-10-2008 04:15:05 4 C 5.79 g/m*3 4 C 0 km/h
3218 24-10-2008 04:20:05 4.1 C 5.82 g/m*3 4.1 C 0 km/h
3219 24-10-2008 04:25:05 4.1 C 5.82 g/m*3 4.1 C 0 km/h
3220 24-10-2008 04:30:05 4 C 5.79 g/m*3 4 C 0 km/h
3221 24-10-2008 04:35:06 4 C 5.72 g/m*3 4 C 0 km/h
3222 24-10-2008 04:40:06 4 C 5.72 g/m*3 4 C 0 km/h
3223 24-10-2008 04:45:06 4 C 5.72 g/m*3 4 C 0 km/h
3224 24-10-2008 04:50:06 3.9 C 5.75 g/m*3 3.9 C 0 km/h
3225 24-10-2008 04:55:06 3.8 C 5.71 g/m*3 3.8 C 0 km/h
Sensor: Nr:Datum:Temp:Abs-Feuchte:Windchill:Wind:
Aussen-T/F 3226 24-10-2008 05:00:06 3.8 C 5.71 g/m*3 3.8 C 0 km/h
3227 24-10-2008 05:05:06 3.8 C 5.71 g/m*3 3.8 C 0 km/h
3228 24-10-2008 05:10:06 3.7 C 5.67 g/m*3 3.7 C 0 km/h
3229 24-10-2008 05:15:06 3.6 C 5.63 g/m*3 3.6 C 0 km/h
3230 24-10-2008 05:20:06 3.5 C 5.6 g/m*3 3.5 C 0 km/h
3231 24-10-2008 05:25:06 3.5 C 5.6 g/m*3 3.5 C 0 km/h
3232 24-10-2008 05:30:06 3.5 C 5.6 g/m*3 3.5 C 0 km/h
3233 24-10-2008 05:35:06 3.5 C 5.6 g/m*3 3.5 C 0 km/h
3234 24-10-2008 05:40:06 3.4 C 5.56 g/m*3 3.4 C 0 km/h